Provisional Data: Snake Creek near Lawsville Center, PA


Please select a monitoring station.
Please select start date.
Please select start date.

Toggle Unit: C/F Toggle Unit: C/F
Sample Time Temperature (C) Temperature (F) Specific Conductivity (mS/cm) pH   Turbidity (NTU+) DO (mg/L)
6/3/2022 12:00:00 AM 18.49 65.282 0.108 7.14 4.3 7.89
6/3/2022 12:15:00 AM 18.41 65.138 0.109 7.15 4.54 7.9
6/3/2022 12:30:00 AM 18.34 65.012 0.109 7.15 4.4 7.92
6/3/2022 12:45:00 AM 18.26 64.868 0.109 7.14 4.48 7.94
6/3/2022 1:00:00 AM 18.2 64.76 0.109 7.15 4.34 7.95
6/3/2022 1:15:00 AM 18.15 64.67 0.109 7.14 4.44 7.95
6/3/2022 1:30:00 AM 18.09 64.562 0.109 7.14 4.32 7.96
6/3/2022 1:45:00 AM 18.04 64.472 0.109 7.15 4.3 7.98
6/3/2022 2:00:00 AM 17.99 64.382 0.109 7.14 4.23 7.98
6/3/2022 2:15:00 AM 17.93 64.274 0.109 7.14 4.45 7.99
6/3/2022 2:30:00 AM 17.89 64.202 0.109 7.14 4.35 8
6/3/2022 2:45:00 AM 17.83 64.094 0.11 7.14 4.22 8.02
6/3/2022 3:00:00 AM 17.79 64.022 0.11 7.13 4.28 8.01
6/3/2022 3:15:00 AM 17.74 63.932 0.11 7.14 4.12 8.03
6/3/2022 3:30:00 AM 17.69 63.842 0.11 7.13 4.39 8.04
6/3/2022 3:45:00 AM 17.65 63.77 0.11 7.14 4.12 8.05
6/3/2022 4:00:00 AM 17.6 63.68 0.11 7.13 3.96 8.06
6/3/2022 4:15:00 AM 17.54 63.572 0.11 7.14 4.24 8.08
6/3/2022 4:30:00 AM 17.49 63.482 0.111 7.15 4.39 8.09
6/3/2022 4:45:00 AM 17.44 63.392 0.111 7.14 4.2 8.09
6/3/2022 5:00:00 AM 17.39 63.302 0.111 7.14 4.23 8.11
6/3/2022 5:15:00 AM 17.35 63.23 0.111 7.15 4.22 8.12
6/3/2022 5:30:00 AM 17.3 63.14 0.111 7.15 4.28 8.13
6/3/2022 5:45:00 AM 17.26 63.068 0.111 7.14 4.14 8.14
6/3/2022 6:00:00 AM 17.21 62.978 0.111 7.15 3.99 8.15
6/3/2022 6:15:00 AM 17.17 62.906 0.111 7.15 3.91 8.19
6/3/2022 6:30:00 AM 17.11 62.798 0.112 7.16 3.79 8.24
6/3/2022 6:45:00 AM 17.07 62.726 0.112 7.17 3.63 8.29
6/3/2022 7:00:00 AM 17.04 62.672 0.112 7.17 3.47 8.35
6/3/2022 7:15:00 AM 17.02 62.636 0.112 7.19 3.62 8.43
6/3/2022 7:30:00 AM 17.01 62.618 0.112 7.2 3.38 8.5
6/3/2022 7:45:00 AM 16.99 62.582 0.112 7.22 3.34 8.55
6/3/2022 8:00:00 AM 16.97 62.546 0.112 7.22 3.13 8.58
6/3/2022 8:15:00 AM 16.95 62.51 0.112 7.24 3.22 8.63
6/3/2022 8:30:00 AM 16.92 62.456 0.112 7.23 3.11 8.66
6/3/2022 8:45:00 AM 16.9 62.42 0.112 7.25 3.07 8.68
6/3/2022 9:00:00 AM 16.91 62.438 0.112 7.26 3.15 8.73
6/3/2022 9:15:00 AM 16.95 62.51 0.112 7.25 3.15 8.75
6/3/2022 9:30:00 AM 17.02 62.636 0.112 7.28 2.92 8.82
6/3/2022 9:45:00 AM 17.11 62.798 0.112 7.29 2.88 8.85
6/3/2022 10:00:00 AM 17.24 63.032 0.112 7.3 2.95 8.89
6/3/2022 10:15:00 AM 17.36 63.248 0.112 7.31 2.85 8.93
6/3/2022 10:30:00 AM 17.55 63.59 0.112 7.33 2.88 8.98
6/3/2022 10:45:00 AM 17.72 63.896 0.112 7.34 2.89 9
6/3/2022 11:00:00 AM 17.95 64.31 0.112 7.37 2.82 9.04
6/3/2022 11:15:00 AM 18.18 64.724 0.112 7.38 2.84 9.06
6/3/2022 11:30:00 AM 18.37 65.066 0.112 7.39 2.78 9.07
6/3/2022 11:45:00 AM 18.69 65.642 0.112 7.42 2.74 9.09
6/3/2022 12:00:00 PM 18.96 66.128 0.112 7.42 2.96 9.1
6/3/2022 12:15:00 PM 19.24 66.632 0.112 7.45 2.8 9.09
6/3/2022 12:30:00 PM 19.62 67.316 0.112 7.47 2.79 9.1
6/3/2022 12:45:00 PM 19.93 67.874 0.112 7.48 2.7 9.08
6/3/2022 1:00:00 PM 20.3 68.54 0.112 7.5 2.73 9.07
6/3/2022 1:15:00 PM 20.61 69.098 0.113 7.51 2.7 9.05
6/3/2022 1:30:00 PM 20.94 69.692 0.113 7.53 2.8 9.02
6/3/2022 1:45:00 PM 21.25 70.25 0.113 7.55 2.76 8.99
6/3/2022 2:00:00 PM 21.5 70.7 0.113 7.55 2.67 8.95
6/3/2022 2:15:00 PM 21.87 71.366 0.113 7.57 2.8 8.91
6/3/2022 2:30:00 PM 22.12 71.816 0.113 7.57 2.7 8.87
6/3/2022 2:45:00 PM 22.34 72.212 0.113 7.58 2.75 8.83
6/3/2022 3:00:00 PM 22.51 72.518 0.113 7.57 2.72 8.79
6/3/2022 3:15:00 PM 22.64 72.752 0.113 7.58 2.73 8.75
6/3/2022 3:30:00 PM 22.73 72.914 0.113 7.56 2.75 8.69
6/3/2022 3:45:00 PM 22.75 72.95 0.113 7.55 2.73 8.62
6/3/2022 4:00:00 PM 22.76 72.968 0.113 7.52 2.79 8.52
6/3/2022 4:15:00 PM 22.73 72.914 0.114 7.5 2.72 8.45
6/3/2022 4:30:00 PM 22.77 72.986 0.114 7.48 2.92 8.41
6/3/2022 4:45:00 PM 22.69 72.842 0.114 7.47 2.7 8.4
6/3/2022 5:00:00 PM 22.68 72.824 0.114 7.47 2.86 8.36
6/3/2022 5:15:00 PM 22.61 72.698 0.114 7.46 2.75 8.35
6/3/2022 5:30:00 PM 22.54 72.57201 0.114 7.45 2.71 8.31
6/3/2022 5:45:00 PM 22.35 72.23 0.114 7.45 2.74 8.29
6/3/2022 6:00:00 PM 22.18 71.924 0.114 7.43 2.67 8.26
6/3/2022 6:15:00 PM 21.98 71.564 0.115 7.4 2.77 8.2
6/3/2022 6:30:00 PM 21.72 71.096 0.115 7.38 2.8 8.16
6/3/2022 6:45:00 PM 21.46 70.628 0.115 7.36 2.99 8.09
6/3/2022 7:00:00 PM 21.23 70.214 0.115 7.33 2.79 8.01
6/3/2022 7:15:00 PM 21.01 69.818 0.116 7.3 2.95 7.92
6/3/2022 7:30:00 PM 20.73 69.314 0.116 7.28 2.79 7.87
6/3/2022 7:45:00 PM 20.57 69.026 0.116 7.25 2.86 7.81
6/3/2022 8:00:00 PM 20.35 68.63 0.116 7.22 2.86 7.77
6/3/2022 8:15:00 PM 20.14 68.252 0.117 7.22 2.92 7.71
6/3/2022 8:30:00 PM 20 68 0.117 7.18 2.75 7.64
6/3/2022 8:45:00 PM 19.74 67.532 0.117 7.18 2.75 7.63
6/3/2022 9:00:00 PM 19.56 67.208 0.117 7.15 2.79 7.59
6/3/2022 9:15:00 PM 19.4 66.92 0.117 7.14 2.9 7.56
6/3/2022 9:30:00 PM 19.23 66.614 0.118 7.13 2.93 7.53
6/3/2022 9:45:00 PM 19.05 66.29 0.118 7.12 2.9 7.54
6/3/2022 10:00:00 PM 18.91 66.038 0.118 7.1 2.86 7.56
6/3/2022 10:15:00 PM 18.74 65.732 0.118 7.11 2.91 7.57
6/3/2022 10:30:00 PM 18.6 65.48 0.118 7.1 2.89 7.59
6/3/2022 10:45:00 PM 18.5 65.3 0.118 7.09 3.09 7.56
6/3/2022 11:00:00 PM 18.33 64.994 0.118 7.1 3.03 7.63
6/3/2022 11:15:00 PM 18.19 64.742 0.118 7.1 2.9 7.64
6/3/2022 11:30:00 PM 18.07 64.526 0.118 7.08 2.89 7.66
6/3/2022 11:45:00 PM 17.93 64.274 0.119 7.09 2.81 7.7
6/4/2022 12:00:00 AM 17.81 64.058 0.119 7.08 3.07 7.68
6/4/2022 12:15:00 AM 17.67 63.806 0.119 7.08 3.03 7.73
6/4/2022 12:30:00 AM 17.56 63.608 0.119 7.08 3.1 7.74
6/4/2022 12:45:00 AM 17.4 63.32 0.119 7.08 2.92 7.79
6/4/2022 1:00:00 AM 17.27 63.086 0.119 7.08 2.8 7.83
6/4/2022 1:15:00 AM 17.15 62.87 0.119 7.08 2.88 7.85
6/4/2022 1:30:00 AM 17.03 62.654 0.119 7.08 2.85 7.88
6/4/2022 1:45:00 AM 16.93 62.474 0.119 7.08 2.85 7.89
6/4/2022 2:00:00 AM 16.8 62.24 0.12 7.08 2.9 7.93
6/4/2022 2:15:00 AM 16.69 62.042 0.12 7.07 2.95 7.91
6/4/2022 2:30:00 AM 16.55 61.79 0.12 7.08 3.13 7.99
6/4/2022 2:45:00 AM 16.44 61.592 0.12 7.07 2.92 7.99
6/4/2022 3:00:00 AM 16.33 61.394 0.12 7.08 2.9 8.02
6/4/2022 3:15:00 AM 16.24 61.232 0.12 7.07 2.94 8.03
6/4/2022 3:30:00 AM 16.11 60.998 0.12 7.08 2.81 8.07
6/4/2022 3:45:00 AM 16 60.8 0.12 7.08 2.81 8.1
6/4/2022 4:00:00 AM 15.91 60.638 0.12 7.07 2.9 8.09
6/4/2022 4:15:00 AM 15.81 60.458 0.12 7.06 2.91 8.11
6/4/2022 4:30:00 AM 15.71 60.278 0.12 7.07 2.9 8.13
6/4/2022 4:45:00 AM 15.61 60.098 0.12 7.07 2.77 8.17
6/4/2022 5:00:00 AM 15.51 59.918 0.12 7.07 2.87 8.2
6/4/2022 5:15:00 AM 15.42 59.756 0.12 7.07 2.78 8.2
6/4/2022 5:30:00 AM 15.33 59.594 0.12 7.06 2.76 8.22
6/4/2022 5:45:00 AM 15.25 59.45 0.12 7.07 2.64 8.25
6/4/2022 6:00:00 AM 15.15 59.27 0.12 7.07 2.61 8.28
6/4/2022 6:15:00 AM 15.08 59.144 0.12 7.07 2.51 8.32
6/4/2022 6:30:00 AM 14.99 58.982 0.12 7.08 2.51 8.39
6/4/2022 6:45:00 AM 14.94 58.892 0.12 7.08 2.42 8.43
6/4/2022 7:00:00 AM 14.87 58.766 0.12 7.1 2.49 8.54
6/4/2022 7:15:00 AM 14.83 58.694 0.12 7.11 2.37 8.62
6/4/2022 7:30:00 AM 14.79 58.622 0.12 7.11 2.37 8.68
6/4/2022 7:45:00 AM 14.78 58.604 0.12 7.13 2.35 8.73
6/4/2022 8:00:00 AM 14.79 58.622 0.12 7.14 2.39 8.81
6/4/2022 8:15:00 AM 14.8 58.64 0.12 7.14 2.25 8.88
6/4/2022 8:30:00 AM 14.83 58.694 0.12 7.16 2.29 8.94
6/4/2022 8:45:00 AM 14.86 58.748 0.12 7.17 2.29 9
6/4/2022 9:00:00 AM 14.91 58.838 0.12 7.18 2.28 9.05
6/4/2022 9:15:00 AM 14.98 58.964 0.12 7.19 2.32 9.09
6/4/2022 9:30:00 AM 15.07 59.126 0.12 7.2 2.33 9.15
6/4/2022 9:45:00 AM 15.21 59.378 0.12 7.22 2.21 9.19
6/4/2022 10:00:00 AM 15.35 59.63 0.12 7.23 2.56 9.23
6/4/2022 10:15:00 AM 15.56 60.008 0.119 7.24 2.23 9.28
6/4/2022 10:30:00 AM 15.79 60.422 0.119 7.25 2.23 9.3
6/4/2022 10:45:00 AM 16.07 60.926 0.119 7.28 2.21 9.34
6/4/2022 11:00:00 AM 16.37 61.466 0.119 7.29 2.15 9.36
6/4/2022 11:15:00 AM 16.63 61.934 0.119 7.3 2.18 9.37
6/4/2022 11:30:00 AM 16.92 62.456 0.119 7.32 2.17 9.38
6/4/2022 11:45:00 AM 17.25 63.05 0.119 7.34 2.24 9.4
6/4/2022 12:00:00 PM 17.56 63.608 0.119 7.35 2.13 9.4
6/4/2022 12:15:00 PM 17.91 64.238 0.118 7.36 2.21 9.39
6/4/2022 12:30:00 PM 18.31 64.958 0.118 7.38 2.16 9.39
6/4/2022 12:45:00 PM 18.67 65.606 0.118 7.39 2.15 9.37
6/4/2022 1:00:00 PM 19.08 66.344 0.118 7.41 2.21 9.35
6/4/2022 1:15:00 PM 19.45 67.01 0.118 7.42 2.19 9.33
6/4/2022 1:30:00 PM 19.74 67.532 0.118 7.43 2.19 9.28
6/4/2022 1:45:00 PM 20.16 68.288 0.118 7.45 2.22 9.25
6/4/2022 2:00:00 PM 20.49 68.882 0.118 7.46 2.22 9.21
6/4/2022 2:15:00 PM 20.84 69.512 0.118 7.46 2.18 9.15
6/4/2022 2:30:00 PM 21.11 69.998 0.118 7.47 2.34 9.11
6/4/2022 2:45:00 PM 21.37 70.466 0.118 7.48 2.34 9.07
6/4/2022 3:00:00 PM 21.59 70.862 0.118 7.49 2.46 9.03
6/4/2022 3:15:00 PM 21.76 71.168 0.118 7.49 2.34 8.98
6/4/2022 3:30:00 PM 21.9 71.42 0.119 7.48 2.33 8.93
6/4/2022 3:45:00 PM 22 71.6 0.119 7.48 2.32 8.88
6/4/2022 4:00:00 PM 22.11 71.798 0.119 7.47 2.54 8.84
6/4/2022 4:15:00 PM 22.13 71.834 0.119 7.46 2.55 8.78
6/4/2022 4:30:00 PM 22.15 71.87 0.119 7.45 2.54 8.74
6/4/2022 4:45:00 PM 22.12 71.816 0.119 7.44 2.48 8.7
6/4/2022 5:00:00 PM 22.05 71.69 0.119 7.43 2.51 8.64
6/4/2022 5:15:00 PM 21.97 71.546 0.119 7.42 2.59 8.59
6/4/2022 5:30:00 PM 21.91 71.438 0.12 7.41 2.62 8.55
6/4/2022 5:45:00 PM 21.82 71.276 0.12 7.39 2.57 8.5
6/4/2022 6:00:00 PM 21.69 71.042 0.12 7.38 2.53 8.45
6/4/2022 6:15:00 PM 21.47 70.646 0.12 7.37 2.54 8.41
6/4/2022 6:30:00 PM 21.21 70.17799 0.12 7.35 2.46 8.38
6/4/2022 6:45:00 PM 21 69.8 0.121 7.33 2.6 8.32
6/4/2022 7:00:00 PM 20.71 69.278 0.121 7.32 2.62 8.26
6/4/2022 7:15:00 PM 20.47 68.846 0.121 7.29 2.52 8.17
6/4/2022 7:30:00 PM 20.17 68.306 0.121 7.27 2.46 8.11
6/4/2022 7:45:00 PM 19.93 67.874 0.122 7.24 2.47 8.05
6/4/2022 8:00:00 PM 19.69 67.442 0.122 7.23 2.43 7.97
6/4/2022 8:15:00 PM 19.45 67.01 0.122 7.2 2.53 7.9
6/4/2022 8:30:00 PM 19.21 66.578 0.122 7.18 2.58 7.84
6/4/2022 8:45:00 PM 19 66.2 0.123 7.16 2.74 7.77
6/4/2022 9:00:00 PM 18.76 65.768 0.123 7.14 2.56 7.73
6/4/2022 9:15:00 PM 18.59 65.462 0.123 7.12 2.67 7.67
6/4/2022 9:30:00 PM 18.39 65.102 0.123 7.11 2.76 7.64
6/4/2022 9:45:00 PM 18.22 64.796 0.123 7.1 2.82 7.6
6/4/2022 10:00:00 PM 18.05 64.49 0.123 7.08 2.75 7.6
6/4/2022 10:15:00 PM 17.9 64.22 0.123 7.07 2.9 7.59
6/4/2022 10:30:00 PM 17.69 63.842 0.123 7.06 2.62 7.62
6/4/2022 10:45:00 PM 17.55 63.59 0.123 7.07 2.83 7.62
6/4/2022 11:00:00 PM 17.37 63.266 0.123 7.05 2.74 7.66
6/4/2022 11:15:00 PM 17.22 62.996 0.123 7.06 2.85 7.67
6/4/2022 11:30:00 PM 17.07 62.726 0.123 7.05 2.72 7.7
6/4/2022 11:45:00 PM 16.92 62.456 0.123 7.06 2.69 7.72
6/5/2022 12:00:00 AM 16.78 62.204 0.124 7.03 2.61 7.74
6/5/2022 12:15:00 AM 16.65 61.97 0.124 7.05 2.79 7.75
6/5/2022 12:30:00 AM 16.53 61.754 0.124 7.04 2.79 7.77
6/5/2022 12:45:00 AM 16.39 61.502 0.124 7.04 2.74 7.8
6/5/2022 1:00:00 AM 16.26 61.268 0.124 7.03 2.8 7.83
6/5/2022 1:15:00 AM 16.11 60.998 0.124 7.05 2.64 7.87
6/5/2022 1:30:00 AM 16.02 60.836 0.124 7.04 2.95 7.85
6/5/2022 1:45:00 AM 15.84 60.512 0.124 7.05 2.83 7.93
6/5/2022 2:00:00 AM 15.73 60.314 0.124 7.04 2.82 7.94
6/5/2022 2:15:00 AM 15.6 60.08 0.124 7.04 2.7 7.97
6/5/2022 2:30:00 AM 15.48 59.864 0.124 7.04 2.75 8
6/5/2022 2:45:00 AM 15.37 59.666 0.124 7.04 2.74 8.03
6/5/2022 3:00:00 AM 15.2 59.36 0.124 7.05 2.69 8.11
6/5/2022 3:15:00 AM 15.08 59.144 0.124 7.05 2.58 8.11
6/5/2022 3:30:00 AM 14.96 58.928 0.124 7.05 2.54 8.17
6/5/2022 3:45:00 AM 14.83 58.694 0.124 7.03 2.49 8.21
6/5/2022 4:00:00 AM 14.74 58.532 0.124 7.05 2.71 8.2
6/5/2022 4:15:00 AM 14.65 58.37 0.124 7.04 2.64 8.21
6/5/2022 4:30:00 AM 14.53 58.154 0.124 7.04 3.48 8.23
6/5/2022 4:45:00 AM 14.42 57.956 0.124 7.04 2.6 8.28
6/5/2022 5:00:00 AM 14.31 57.758 0.124 7.02 2.57 8.3
6/5/2022 5:15:00 AM 14.22 57.596 0.124 7.04 2.58 8.32
6/5/2022 5:30:00 AM 14.12 57.416 0.124 7.04 2.51 8.35
6/5/2022 5:45:00 AM 14.04 57.272 0.124 7.04 2.52 8.37
6/5/2022 6:00:00 AM 14 57.2 0.124 7.02 2.25 8.44
6/5/2022 6:15:00 AM 13.94 57.092 0.124 7.04 2.33 8.46
6/5/2022 6:30:00 AM 13.85 56.93 0.124 7.04 2.24 8.54
6/5/2022 6:45:00 AM 13.79 56.822 0.124 7.04 2.24 8.61
6/5/2022 7:00:00 AM 13.75 56.75 0.124 7.04 2.28 8.64
6/5/2022 7:15:00 AM 13.68 56.624 0.124 7.02 2.2 8.75
6/5/2022 7:30:00 AM 13.64 56.552 0.124 7.06 2.27 8.79
6/5/2022 7:45:00 AM 13.62 56.516 0.124 7.05 2.23 8.9
6/5/2022 8:00:00 AM 13.61 56.498 0.123 7.1 2.16 9.02
6/5/2022 8:15:00 AM 13.62 56.516 0.123 7.1 2.14 9.08
6/5/2022 8:30:00 AM 13.65 56.57 0.123 7.14 2.11 9.23
6/5/2022 8:45:00 AM 13.7 56.66 0.123 7.14 2.15 9.3
6/5/2022 9:00:00 AM 13.76 56.768 0.123 7.17 2.11 9.38
6/5/2022 9:15:00 AM 13.82 56.876 0.123 7.19 2.04 9.47
6/5/2022 9:30:00 AM 13.88 56.984 0.123 7.19 2.14 9.52
6/5/2022 9:45:00 AM 14.01 57.218 0.123 7.22 2.09 9.63
6/5/2022 10:00:00 AM 14.12 57.416 0.123 7.24 2.08 9.7
6/5/2022 10:15:00 AM 14.29 57.722 0.122 7.26 2.07 9.76
6/5/2022 10:30:00 AM 14.52 58.136 0.122 7.25 2.08 9.82
6/5/2022 10:45:00 AM 14.77 58.586 0.122 7.3 2.1 9.84
6/5/2022 11:00:00 AM 15.09 59.162 0.122 7.31 2.02 9.87
6/5/2022 11:15:00 AM 15.37 59.666 0.122 7.32 1.99 9.86
6/5/2022 11:30:00 AM 15.62 60.116 0.122 7.33 1.99 9.86
6/5/2022 11:45:00 AM 15.83 60.494 0.122 7.34 2.03 9.86
6/5/2022 12:00:00 PM 16.13 61.034 0.122 7.35 2.02 9.84
6/5/2022 12:15:00 PM 16.38 61.484 0.122 7.35 2.06 9.84
6/5/2022 12:30:00 PM 16.73 62.114 0.122 7.34 2.05 9.82
6/5/2022 12:45:00 PM 17.12 62.816 0.122 7.38 2.03 9.81
6/5/2022 1:00:00 PM 17.55 63.59 0.122 7.4 1.99 9.77
6/5/2022 1:15:00 PM 17.95 64.31 0.121 7.41 2.03 9.74
6/5/2022 1:30:00 PM 18.33 64.994 0.121 7.4 2.09 9.69
6/5/2022 1:45:00 PM 18.74 65.732 0.121 7.42 2.04 9.65
6/5/2022 2:00:00 PM 19.14 66.452 0.121 7.43 2.1 9.59
6/5/2022 2:15:00 PM 19.58 67.244 0.121 7.43 2.05 9.51
6/5/2022 2:30:00 PM 19.93 67.874 0.121 7.43 2.01 9.46
6/5/2022 2:45:00 PM 20.11 68.198 0.121 7.38 1.99 9.42
6/5/2022 3:00:00 PM 20.34 68.612 0.121 7.44 2.15 9.34
6/5/2022 3:15:00 PM 20.64 69.152 0.121 7.43 2.12 9.23
6/5/2022 3:30:00 PM 20.71 69.278 0.122 7.42 2.11 9.2
6/5/2022 3:45:00 PM 20.99 69.782 0.121 7.41 2.25 9.11
6/5/2022 4:00:00 PM 21.05 69.89 0.121 7.36 2.1 9.05
6/5/2022 4:15:00 PM 21.24 70.232 0.121 7.4 2.15 8.99
6/5/2022 4:30:00 PM 21.3 70.34 0.122 7.39 2.27 8.94
6/5/2022 4:45:00 PM 21.2 70.16 0.122 7.39 2.25 8.9
6/5/2022 5:00:00 PM 21.12 70.016 0.122 7.35 2.69 8.83
6/5/2022 5:15:00 PM 21.08 69.944 0.122 7.37 2.41 8.75
6/5/2022 5:30:00 PM 20.92 69.656 0.122 7.35 2.29 8.69
6/5/2022 5:45:00 PM 20.83 69.494 0.122 7.35 2.35 8.64
6/5/2022 6:00:00 PM 20.7 69.26 0.122 7.33 2.27 8.6
6/5/2022 6:15:00 PM 20.61 69.098 0.122 7.33 2.45 8.59
6/5/2022 6:30:00 PM 20.52 68.936 0.122 7.32 2.22 8.59
6/5/2022 6:45:00 PM 20.4 68.72 0.122 7.32 2.41 8.57
6/5/2022 7:00:00 PM 20.27 68.486 0.122 7.3 2.31 8.51
6/5/2022 7:15:00 PM 20.05 68.09 0.122 7.29 2.42 8.46
6/5/2022 7:30:00 PM 19.84 67.712 0.122 7.27 2.24 8.39
6/5/2022 7:45:00 PM 19.61 67.298 0.123 7.2 2.36 8.32
6/5/2022 8:00:00 PM 19.37 66.866 0.123 7.19 2.39 8.23
6/5/2022 8:15:00 PM 19.14 66.452 0.123 7.21 2.19 8.16
6/5/2022 8:30:00 PM 18.9 66.02 0.123 7.19 2.35 8.07
6/5/2022 8:45:00 PM 18.68 65.624 0.123 7.17 2.31 7.98
6/5/2022 9:00:00 PM 18.49 65.282 0.123 7.15 2.62 7.89
6/5/2022 9:15:00 PM 18.29 64.922 0.123 7.12 2.54 7.83
6/5/2022 9:30:00 PM 18.11 64.598 0.124 7.1 2.67 7.76
6/5/2022 9:45:00 PM 17.96 64.328 0.124 7.09 2.57 7.71
6/5/2022 10:00:00 PM 17.83 64.094 0.124 7.08 2.53 7.66
6/5/2022 10:15:00 PM 17.66 63.788 0.124 7.04 2.96 7.66
6/5/2022 10:30:00 PM 17.52 63.536 0.124 7.06 2.89 7.64
6/5/2022 10:45:00 PM 17.38 63.284 0.124 7.05 2.7 7.64
6/5/2022 11:00:00 PM 17.25 63.05 0.124 7.05 2.72 7.64
6/5/2022 11:15:00 PM 17.14 62.852 0.124 7.04 2.81 7.63
6/5/2022 11:30:00 PM 17.01 62.618 0.124 7.04 2.76 7.66
6/5/2022 11:45:00 PM 16.9 62.42 0.124 7.04 2.89 7.67
6/6/2022 12:00:00 AM 16.79 62.222 0.124 7.03 2.64 7.68
6/6/2022 12:15:00 AM 16.68 62.024 0.124 7.03 2.62 7.7
6/6/2022 12:30:00 AM 16.58 61.844 0.124 7.02 2.81 7.72
6/6/2022 12:45:00 AM 16.48 61.664 0.124 7.02 2.75 7.73
6/6/2022 1:00:00 AM 16.38 61.484 0.124 7.02 2.76 7.76
6/6/2022 1:15:00 AM 16.31 61.358 0.124 7.02 2.78 7.76
6/6/2022 1:30:00 AM 16.23 61.214 0.124 6.95 3.2 7.77
6/6/2022 1:45:00 AM 16.15 61.07 0.124 7.02 2.67 7.8
6/6/2022 2:00:00 AM 16.08 60.944 0.124 7.02 2.67 7.81
6/6/2022 2:15:00 AM 16 60.8 0.124 7.02 2.6 7.83
6/6/2022 2:30:00 AM 15.93 60.674 0.124 7.02 2.63 7.85
6/6/2022 2:45:00 AM 15.86 60.548 0.124 7 2.75 7.85
6/6/2022 3:00:00 AM 15.79 60.422 0.124 7.01 2.78 7.85
6/6/2022 3:15:00 AM 15.71 60.278 0.124 7.02 2.79 7.89
6/6/2022 3:30:00 AM 15.63 60.134 0.124 7.01 2.55 7.91
6/6/2022 3:45:00 AM 15.56 60.008 0.124 7.02 2.54 7.91
6/6/2022 4:00:00 AM 15.49 59.882 0.124 6.95 2.52 7.95
6/6/2022 4:15:00 AM 15.43 59.774 0.125 7.02 2.67 7.98
6/6/2022 4:30:00 AM 15.37 59.666 0.125 7.01 2.52 7.99
6/6/2022 4:45:00 AM 15.3 59.54 0.125 7.01 2.4 7.98
6/6/2022 5:00:00 AM 15.22 59.396 0.125 6.96 2.59 8.02
6/6/2022 5:15:00 AM 15.14 59.252 0.125 7.01 2.43 8.02
6/6/2022 5:30:00 AM 15.05 59.09 0.125 7.01 2.45 8.06
6/6/2022 5:45:00 AM 14.98 58.964 0.125 6.98 2.32 8.07
6/6/2022 6:00:00 AM 14.89 58.802 0.125 7.02 2.2 8.11
6/6/2022 6:15:00 AM 14.83 58.694 0.125 7.02 2.2 8.14
6/6/2022 6:30:00 AM 14.77 58.586 0.125 7.03 2.19 8.2
6/6/2022 6:45:00 AM 14.71 58.478 0.125 7.03 2.2 8.25
6/6/2022 7:00:00 AM 14.68 58.424 0.125 7.03 2.09 8.27
6/6/2022 7:15:00 AM 14.64 58.352 0.125 7.04 2.13 8.36
6/6/2022 7:30:00 AM 14.61 58.298 0.125 7.05 2.1 8.44
6/6/2022 7:45:00 AM 14.59 58.262 0.124 7 2 8.57
6/6/2022 8:00:00 AM 14.59 58.262 0.124 7.04 1.97 8.63
6/6/2022 8:15:00 AM 14.6 58.28 0.124 7.08 2.09 8.69
6/6/2022 8:30:00 AM 14.62 58.316 0.124 7.05 2.02 8.77
6/6/2022 8:45:00 AM 14.65 58.37 0.124 7.07 1.99 8.9
6/6/2022 9:00:00 AM 14.71 58.478 0.124 7.12 1.96 8.96
6/6/2022 9:15:00 AM 14.81 58.658 0.124 7.07 2.02 9.11
6/6/2022 9:30:00 AM 14.91 58.838 0.124 7.16 2 9.18
6/6/2022 9:45:00 AM 15.03 59.054 0.124 7.18 2 9.26
6/6/2022 10:00:00 AM 15.18 59.324 0.124 7.19 1.89 9.32
6/6/2022 10:15:00 AM 15.33 59.594 0.124 7.13 2.04 9.38
6/6/2022 10:30:00 AM 15.5 59.9 0.123 7.23 1.85 9.41
6/6/2022 10:45:00 AM 15.74 60.332 0.123 7.24 1.97 9.46
6/6/2022 11:00:00 AM 15.97 60.746 0.123 7.25 2.02 9.48
6/6/2022 11:15:00 AM 16.28 61.304 0.123 7.25 1.97 9.51
6/6/2022 11:30:00 AM 16.58 61.844 0.123 7.29 1.88 9.52
6/6/2022 11:45:00 AM 16.91 62.438 0.123 7.3 1.93 9.55
6/6/2022 12:00:00 PM 17.22 62.996 0.123 7.31 1.98 9.55
6/6/2022 12:15:00 PM 17.59 63.662 0.123 7.33 2 9.56
6/6/2022 12:30:00 PM 17.97 64.346 0.123 7.32 1.94 9.56
6/6/2022 12:45:00 PM 18.25 64.85 0.122 7.34 1.84 9.55
6/6/2022 1:00:00 PM 18.66 65.588 0.122 7.34 1.95 9.53
6/6/2022 1:15:00 PM 19.05 66.29 0.122 7.37 1.99 9.51
6/6/2022 1:30:00 PM 19.44 66.992 0.122 7.34 2.28 9.48
6/6/2022 1:45:00 PM 19.8 67.64 0.122 7.39 2.14 9.45
6/6/2022 2:00:00 PM 20.14 68.252 0.122 7.38 2 9.4
6/6/2022 2:15:00 PM 20.46 68.828 0.122 7.41 2.09 9.33
6/6/2022 2:30:00 PM 20.69 69.242 0.122 7.41 2.13 9.29
6/6/2022 2:45:00 PM 20.98 69.764 0.122 7.38 2.06 9.24
6/6/2022 3:00:00 PM 21.21 70.17799 0.122 7.43 2.06 9.21
6/6/2022 3:15:00 PM 21.51 70.718 0.122 7.44 2.45 9.16
6/6/2022 3:30:00 PM 21.63 70.934 0.122 7.44 2.2 9.16
6/6/2022 3:45:00 PM 21.72 71.096 0.122 7.45 2.24 9.13
6/6/2022 4:00:00 PM 21.83 71.294 0.122 7.45 2.41 9.08
6/6/2022 4:15:00 PM 21.93 71.474 0.122 7.44 2.56 9.03
6/6/2022 4:30:00 PM 21.94 71.492 0.122 7.43 2.4 8.99
6/6/2022 4:45:00 PM 21.95 71.51 0.122 7.43 2.55 8.96
6/6/2022 5:00:00 PM 21.88 71.384 0.122 7.43 3.24 8.9
6/6/2022 5:15:00 PM 21.83 71.294 0.122 7.41 2.51 8.86
6/6/2022 5:30:00 PM 21.75 71.15 0.122 7.39 2.65 8.8
6/6/2022 5:45:00 PM 21.66 70.988 0.122 7.4 2.56 8.76
6/6/2022 6:00:00 PM 21.57 70.826 0.122 7.35 2.62 8.73
6/6/2022 6:15:00 PM 21.46 70.628 0.122 7.37 2.81 8.67
6/6/2022 6:30:00 PM 21.32 70.376 0.122 7.35 2.4 8.64
6/6/2022 6:45:00 PM 21.15 70.07 0.122 7.35 2.63 8.6
6/6/2022 7:00:00 PM 20.97 69.746 0.122 7.33 2.58 8.53
6/6/2022 7:15:00 PM 20.78 69.404 0.122 7.31 2.58 8.47
6/6/2022 7:30:00 PM 20.59 69.062 0.123 7.29 2.92 8.39
6/6/2022 7:45:00 PM 20.41 68.738 0.123 7.26 3.01 8.3
6/6/2022 8:00:00 PM 20.25 68.45 0.123 7.18 2.99 8.2
6/6/2022 8:15:00 PM 20.07 68.126 0.123 7.17 3.06 8.1
6/6/2022 8:30:00 PM 19.91 67.838 0.123 7.19 2.93 7.99
6/6/2022 8:45:00 PM 19.74 67.532 0.123 7.16 2.94 7.85
6/6/2022 9:00:00 PM 19.57 67.226 0.124 7.14 3.38 7.74
6/6/2022 9:15:00 PM 19.44 66.992 0.124 7.11 3.44 7.63
6/6/2022 9:30:00 PM 19.26 66.668 0.124 7.04 3.1 7.54
6/6/2022 9:45:00 PM 19.11 66.398 0.124 7.08 3.22 7.46
6/6/2022 10:00:00 PM 18.97 66.146 0.124 7.06 3.25 7.4
6/6/2022 10:15:00 PM 18.84 65.912 0.124 7.05 3.17 7.36
6/6/2022 10:30:00 PM 18.7 65.66 0.124 7.03 3.28 7.32
6/6/2022 10:45:00 PM 18.55 65.39 0.124 7.03 3.05 7.31
6/6/2022 11:00:00 PM 18.45 65.21 0.124 7.02 3.09 7.29
6/6/2022 11:15:00 PM 18.33 64.994 0.124 7.01 2.81 7.29
6/6/2022 11:30:00 PM 18.21 64.778 0.125 7.01 3.22 7.3
6/6/2022 11:45:00 PM 18.1 64.58 0.125 7 3.22 7.29
6/7/2022 12:00:00 AM 17.99 64.382 0.125 7 3.37 7.3
6/7/2022 12:15:00 AM 17.9 64.22 0.125 7 3.51 7.31
6/7/2022 12:30:00 AM 17.78 64.004 0.125 7 3.09 7.33
6/7/2022 12:45:00 AM 17.69 63.842 0.125 7 3.01 7.34
6/7/2022 1:00:00 AM 17.61 63.698 0.125 6.99 3.35 7.35
6/7/2022 1:15:00 AM 17.54 63.572 0.125 6.99 3.08 7.36
6/7/2022 1:30:00 AM 17.46 63.428 0.125 6.98 3.92 7.36
6/7/2022 1:45:00 AM 17.37 63.266 0.125 6.99 3.12 7.4
6/7/2022 2:00:00 AM 17.31 63.158 0.125 6.99 3.28 7.41
6/7/2022 2:15:00 AM 17.24 63.032 0.125 6.99 3 7.43
6/7/2022 2:30:00 AM 17.16 62.888 0.125 6.99 2.97 7.44
6/7/2022 2:45:00 AM 17.11 62.798 0.125 6.91 3.19 7.43
6/7/2022 3:00:00 AM 17.04 62.672 0.125 6.99 3.3 7.47
6/7/2022 3:15:00 AM 16.98 62.564 0.125 6.99 3.01 7.49
6/7/2022 3:30:00 AM 16.92 62.456 0.125 6.99 3.26 7.49
6/7/2022 3:45:00 AM 16.86 62.348 0.125 6.99 3.29 7.5
6/7/2022 4:00:00 AM 16.8 62.24 0.125 6.93 2.95 7.54
6/7/2022 4:15:00 AM 16.75 62.15 0.125 6.99 3.01 7.55
6/7/2022 4:30:00 AM 16.69 62.042 0.125 6.97 3.04 7.55
6/7/2022 4:45:00 AM 16.64 61.952 0.125 6.99 3.35 7.55
6/7/2022 5:00:00 AM 16.57 61.826 0.125 6.92 3.04 7.58
6/7/2022 5:15:00 AM 16.49 61.682 0.125 7 3.33 7.61
6/7/2022 5:30:00 AM 16.42 61.556 0.125 7 2.96 7.63
6/7/2022 5:45:00 AM 16.35 61.43 0.125 7 2.85 7.64
6/7/2022 6:00:00 AM 16.27 61.286 0.125 7 2.46 7.67
6/7/2022 6:15:00 AM 16.19 61.142 0.125 6.94 2.63 7.73
6/7/2022 6:30:00 AM 16.14 61.052 0.125 7.01 3.11 7.76
6/7/2022 6:45:00 AM 16.09 60.962 0.125 7.01 2.55 7.81
6/7/2022 7:00:00 AM 16.05 60.89 0.125 7.02 2.62 7.87
6/7/2022 7:15:00 AM 16.01 60.818 0.125 6.98 2.35 8.01
6/7/2022 7:30:00 AM 16 60.8 0.125 7.05 2.33 8.1
6/7/2022 7:45:00 AM 16 60.8 0.125 7.05 2.37 8.19
6/7/2022 8:00:00 AM 16 60.8 0.125 7.07 2.29 8.33
6/7/2022 8:15:00 AM 16.02 60.836 0.125 7.08 2.29 8.41
6/7/2022 8:30:00 AM 16.03 60.854 0.125 7.1 2.22 8.54
6/7/2022 8:45:00 AM 16.07 60.926 0.124 7.12 2.29 8.67
6/7/2022 9:00:00 AM 16.13 61.034 0.124 7.15 2.15 8.81
6/7/2022 9:15:00 AM 16.23 61.214 0.124 7.17 2.17 8.94
6/7/2022 9:30:00 AM 16.36 61.448 0.124 7.14 2.31 9.08
6/7/2022 9:45:00 AM 16.47 61.646 0.124 7.22 2.1 9.16
6/7/2022 10:00:00 AM 16.57 61.826 0.124 7.23 2.2 9.22
6/7/2022 10:15:00 AM 16.65 61.97 0.124 7.25 2.14 9.28
6/7/2022 10:30:00 AM 16.72 62.096 0.123 7.24 2.12 9.32
6/7/2022 10:45:00 AM 16.8 62.24 0.123 7.27 2.17 9.35
6/7/2022 11:00:00 AM 16.9 62.42 0.123 7.29 2.14 9.42
6/7/2022 11:15:00 AM 17.02 62.636 0.123 7.3 2.03 9.45
6/7/2022 11:30:00 AM 17.17 62.906 0.123 7.27 2.02 9.48
6/7/2022 11:45:00 AM 17.34 63.212 0.123 7.34 2.03 9.51
6/7/2022 12:00:00 PM 17.53 63.554 0.123 7.35 2.08 9.53
6/7/2022 12:15:00 PM 17.68 63.824 0.123 7.36 2 9.53
6/7/2022 12:30:00 PM 17.8 64.04 0.122 7.37 2.23 9.52
6/7/2022 12:45:00 PM 17.9 64.22 0.122 7.38 2.17 9.51
6/7/2022 1:00:00 PM 18 64.4 0.122 7.38 2.22 9.49
6/7/2022 1:15:00 PM 18.05 64.49 0.122 7.38 2.12 9.48
6/7/2022 1:30:00 PM 18.09 64.562 0.122 7.38 2.38 9.44
6/7/2022 1:45:00 PM 18.17 64.706 0.122 7.37 2.35 9.42
6/7/2022 2:00:00 PM 18.22 64.796 0.122 7.37 2.14 9.4
6/7/2022 2:15:00 PM 18.28 64.904 0.121 7.36 2.3 9.37
6/7/2022 2:30:00 PM 18.33 64.994 0.121 7.37 2.3 9.35
6/7/2022 2:45:00 PM 18.34 65.012 0.121 7.32 2.24 9.28
6/7/2022 3:00:00 PM 18.35 65.03 0.121 7.34 2.32 9.21
6/7/2022 3:15:00 PM 18.35 65.03 0.121 7.33 2.33 9.14
6/7/2022 3:30:00 PM 18.35 65.03 0.121 7.26 2.18 9.08
6/7/2022 3:45:00 PM 18.36 65.048 0.121 7.27 2.26 9.03
6/7/2022 4:00:00 PM 18.37 65.066 0.121 7.3 2.34 9
6/7/2022 4:15:00 PM 18.37 65.066 0.121 7.3 2.2 8.96
6/7/2022 4:30:00 PM 18.36 65.048 0.121 7.21 2.17 8.9
6/7/2022 4:45:00 PM 18.32 64.976 0.121 7.24 2.31 8.83
6/7/2022 5:00:00 PM 18.28 64.904 0.12 7.26 2.68 8.73
6/7/2022 5:15:00 PM 18.26 64.868 0.12 7.22 2.37 8.63
6/7/2022 5:30:00 PM 18.22 64.796 0.12 7.22 2.62 8.53
6/7/2022 5:45:00 PM 18.17 64.706 0.119 7.16 2.69 8.48
6/7/2022 6:00:00 PM 18.14 64.652 0.119 7.21 2.54 8.44
6/7/2022 6:15:00 PM 18.11 64.598 0.119 7.17 2.65 8.36
6/7/2022 6:30:00 PM 18.06 64.508 0.118 7.18 2.58 8.33
6/7/2022 6:45:00 PM 18.01 64.418 0.118 7.18 2.53 8.28
6/7/2022 7:00:00 PM 17.97 64.346 0.118 7.1 2.68 8.21
6/7/2022 7:15:00 PM 17.91 64.238 0.117 7.14 2.93 8.12
6/7/2022 7:30:00 PM 17.86 64.148 0.117 7.13 3.46 8.06
6/7/2022 7:45:00 PM 17.8 64.04 0.117 7.12 5.08 8
6/7/2022 8:00:00 PM 17.75 63.95 0.117 7.09 6.97 7.95
6/7/2022 8:15:00 PM 17.7 63.86 0.117 7.11 7.81 7.92
6/7/2022 8:30:00 PM 17.65 63.77 0.117 7.1 8.63 7.89
6/7/2022 8:45:00 PM 17.61 63.698 0.117 7.09 7.89 7.86
6/7/2022 9:00:00 PM 17.55 63.59 0.117 7.1 6.67 7.86
6/7/2022 9:15:00 PM 17.5 63.5 0.117 7.09 6 7.84
6/7/2022 9:30:00 PM 17.46 63.428 0.117 7.09 5.73 7.84
6/7/2022 9:45:00 PM 17.43 63.374 0.117 7.08 5.73 7.84
6/7/2022 10:00:00 PM 17.39 63.302 0.117 7.1 5.5 7.85
6/7/2022 10:15:00 PM 17.35 63.23 0.117 7.1 5.54 7.86
6/7/2022 10:30:00 PM 17.31 63.158 0.117 7.1 5.68 7.89
6/7/2022 10:45:00 PM 17.27 63.086 0.117 7.11 5.69 7.93
6/7/2022 11:00:00 PM 17.24 63.032 0.118 7.11 5.23 7.93
6/7/2022 11:15:00 PM 17.21 62.978 0.119 7.12 4.97 7.97
6/7/2022 11:30:00 PM 17.19 62.942 0.119 7.14 4.7 8.01
6/7/2022 11:45:00 PM 17.16 62.888 0.119 7.14 4.72 8.05
6/8/2022 12:00:00 AM 17.13 62.834 0.119 7.14 4.71 8.09
6/8/2022 12:15:00 AM 17.11 62.798 0.119 7.16 4.74 8.11
6/8/2022 12:30:00 AM 17.08 62.744 0.119 7.16 4.4 8.14
6/8/2022 12:45:00 AM 17.05 62.69 0.119 7.16 4.24 8.16
6/8/2022 1:00:00 AM 17.01 62.618 0.119 7.17 4.03 8.19
6/8/2022 1:15:00 AM 16.99 62.582 0.119 7.17 4.25 8.21
6/8/2022 1:30:00 AM 16.96 62.528 0.119 7.17 4.12 8.21
6/8/2022 1:45:00 AM 16.93 62.474 0.119 7.17 4.05 8.23
6/8/2022 2:00:00 AM 16.9 62.42 0.119 7.17 3.99 8.23
6/8/2022 2:15:00 AM 16.87 62.366 0.119 7.17 4.01 8.23
6/8/2022 2:30:00 AM 16.85 62.33 0.119 7.16 5.1 8.23
6/8/2022 2:45:00 AM 16.82 62.276 0.119 7.17 6.33 8.25
6/8/2022 3:00:00 AM 16.81 62.258 0.118 7.17 5.92 8.27
6/8/2022 3:15:00 AM 16.78 62.204 0.118 7.16 5.02 8.29
6/8/2022 3:30:00 AM 16.76 62.168 0.117 7.16 4.44 8.28
6/8/2022 3:45:00 AM 16.74 62.132 0.117 7.15 4.42 8.29
6/8/2022 4:00:00 AM 16.7 62.06 0.117 7.16 6.12 8.3
6/8/2022 4:15:00 AM 16.66 61.988 0.116 7.16 20.18 8.33
6/8/2022 4:30:00 AM 16.62 61.916 0.116 7.18 19.18 8.35
6/8/2022 4:45:00 AM 16.55 61.79 0.116 7.19 12.96 8.37
6/8/2022 5:00:00 AM 16.48 61.664 0.117 7.19 9.68 8.41
6/8/2022 5:15:00 AM 16.41 61.538 0.117 7.2 9.23 8.43
6/8/2022 5:30:00 AM 16.33 61.394 0.117 7.22 12.33 8.46
6/8/2022 5:45:00 AM 16.27 61.286 0.117 7.22 11.23 8.49
6/8/2022 6:00:00 AM 16.2 61.16 0.118 7.22 11.96 8.54
6/8/2022 6:15:00 AM 16.15 61.07 0.118 7.24 10.2 8.58
6/8/2022 6:30:00 AM 16.11 60.998 0.118 7.25 8.67 8.65
6/8/2022 6:45:00 AM 16.06 60.908 0.118 7.26 8.52 8.69
6/8/2022 7:00:00 AM 16 60.8 0.117 7.27 7.44 8.74
6/8/2022 7:15:00 AM 15.95 60.71 0.116 7.28 7.05 8.78
6/8/2022 7:30:00 AM 15.91 60.638 0.116 7.29 6.52 8.83
6/8/2022 7:45:00 AM 15.89 60.602 0.115 7.29 6.16 8.87
6/8/2022 8:00:00 AM 15.87 60.566 0.115 7.29 5.74 8.92
6/8/2022 8:15:00 AM 15.87 60.566 0.114 7.32 5.82 8.97
6/8/2022 8:30:00 AM 15.91 60.638 0.114 7.33 5.47 9.02
6/8/2022 8:45:00 AM 15.89 60.602 0.113 7.33 5.31 9.06
6/8/2022 9:00:00 AM 15.92 60.656 0.113 7.34 5.02 9.11
6/8/2022 9:15:00 AM 16.01 60.818 0.112 7.34 5.19 9.15
6/8/2022 9:30:00 AM 16.1 60.98 0.112 7.37 4.77 9.2
6/8/2022 9:45:00 AM 16.13 61.034 0.112 7.38 4.69 9.22
6/8/2022 10:00:00 AM 16.17 61.106 0.112 7.4 4.51 9.26
6/8/2022 10:15:00 AM 16.28 61.304 0.112 7.41 4.29 9.32
6/8/2022 10:30:00 AM 16.47 61.646 0.112 7.45 4.12 9.37
6/8/2022 10:45:00 AM 16.57 61.826 0.112 7.46 4.22 9.41
6/8/2022 11:00:00 AM 16.64 61.952 0.112 7.46 3.99 9.4
6/8/2022 11:15:00 AM 16.77 62.186 0.112 7.46 3.64 9.42
6/8/2022 11:30:00 AM 16.96 62.528 0.112 7.49 3.61 9.44
6/8/2022 11:45:00 AM 17.14 62.852 0.112 7.49 3.5 9.45
6/8/2022 12:00:00 PM 17.44 63.392 0.112 7.52 3.44 9.46
6/8/2022 12:15:00 PM 17.66 63.788 0.112 7.53 3.51 9.45
6/8/2022 12:30:00 PM 17.7 63.86 0.112 7.54 3.41 9.42
6/8/2022 12:45:00 PM 17.93 64.274 0.112 7.54 3.22 9.42
6/8/2022 1:00:00 PM 18.13 64.634 0.112 7.56 3.32 9.41
6/8/2022 1:15:00 PM 18.41 65.138 0.112 7.58 3.2 9.41
6/8/2022 1:30:00 PM 18.51 65.318 0.112 7.58 3.36 9.39
6/8/2022 1:45:00 PM 18.66 65.588 0.112 7.58 3.34 9.37
6/8/2022 2:00:00 PM 18.97 66.146 0.112 7.6 3.33 9.35
6/8/2022 2:15:00 PM 19.39 66.902 0.112 7.61 3.37 9.34
6/8/2022 2:30:00 PM 19.73 67.514 0.112 7.63 3.26 9.29
6/8/2022 2:45:00 PM 19.88 67.784 0.112 7.62 3.11 9.21
6/8/2022 3:00:00 PM 19.94 67.892 0.112 7.61 3.15 9.14
6/8/2022 3:15:00 PM 20.12 68.216 0.112 7.59 3.22 9.07
6/8/2022 3:30:00 PM 20.38 68.684 0.112 7.6 3.11 9.04
6/8/2022 3:45:00 PM 20.62 69.116 0.112 7.59 2.98 9.02
6/8/2022 4:00:00 PM 20.87 69.566 0.112 7.59 3.03 8.97
6/8/2022 4:15:00 PM 21.05 69.89 0.112 7.59 3.12 8.92
6/8/2022 4:30:00 PM 21.2 70.16 0.113 7.58 3.01 8.86
6/8/2022 4:45:00 PM 21.26 70.268 0.113 7.56 2.96 8.8
6/8/2022 5:00:00 PM 21.23 70.214 0.113 7.54 2.97 8.75
6/8/2022 5:15:00 PM 21.17 70.106 0.113 7.53 3 8.7
6/8/2022 5:30:00 PM 21.08 69.944 0.113 7.52 3.14 8.65
6/8/2022 5:45:00 PM 20.97 69.746 0.113 7.5 2.91 8.62
6/8/2022 6:00:00 PM 20.76 69.368 0.114 7.49 2.99 8.61
6/8/2022 6:15:00 PM 20.6 69.08 0.114 7.46 2.93 8.56
6/8/2022 6:30:00 PM 20.44 68.792 0.114 7.45 3.05 8.54
6/8/2022 6:45:00 PM 20.24 68.432 0.114 7.43 3.09 8.5
6/8/2022 7:00:00 PM 20.07 68.126 0.114 7.41 3.2 8.44
6/8/2022 7:15:00 PM 19.98 67.964 0.114 7.36 3.15 8.35
6/8/2022 7:30:00 PM 19.79 67.622 0.114 7.33 2.99 8.3
6/8/2022 7:45:00 PM 19.65 67.37 0.115 7.31 7.63 8.23
6/8/2022 8:00:00 PM 19.46 67.028 0.115 7.3 3.3 8.19
6/8/2022 8:15:00 PM 19.33 66.794 0.115 7.26 2.96 8.12
6/8/2022 8:30:00 PM 19.17 66.506 0.115 7.25 3.11 8.04
6/8/2022 8:45:00 PM 19.05 66.29 0.115 7.22 3.33 7.96
6/8/2022 9:00:00 PM 18.93 66.074 0.116 7.19 3.13 7.88
6/8/2022 9:15:00 PM 18.79 65.82201 0.116 7.17 3.11 7.84
6/8/2022 9:30:00 PM 18.66 65.588 0.116 7.16 3.45 7.82
6/8/2022 9:45:00 PM 18.54 65.372 0.116 7.16 3.32 7.8
6/8/2022 10:00:00 PM 18.43 65.174 0.116 7.13 3.29 7.78
6/8/2022 10:15:00 PM 18.33 64.994 0.117 7.13 3.4 7.77
6/8/2022 10:30:00 PM 18.22 64.796 0.117 7.13 3.32 7.78
6/8/2022 10:45:00 PM 18.12 64.616 0.117 7.12 3.24 7.78
6/8/2022 11:00:00 PM 18.03 64.454 0.117 7.11 3.47 7.76
6/8/2022 11:15:00 PM 17.93 64.274 0.117 7.1 3.26 7.78
6/8/2022 11:30:00 PM 17.83 64.094 0.117 7.11 3.35 7.81
6/8/2022 11:45:00 PM 17.77 63.986 0.118 7.1 3.34 7.76
6/9/2022 12:00:00 AM 17.68 63.824 0.118 7.1 3.56 7.79
6/9/2022 12:15:00 AM 17.58 63.644 0.118 7.1 3.35 7.83
6/9/2022 12:30:00 AM 17.51 63.518 0.118 7.09 3.27 7.82
6/9/2022 12:45:00 AM 17.44 63.392 0.118 7.09 3.57 7.82
6/9/2022 1:00:00 AM 17.35 63.23 0.118 7.1 3.36 7.86
6/9/2022 1:15:00 AM 17.29 63.122 0.119 7.08 3.33 7.86
6/9/2022 1:30:00 AM 17.23 63.014 0.118 7.1 3.49 7.89
6/9/2022 1:45:00 AM 17.13 62.834 0.118 7.11 3.51 7.97
6/9/2022 2:00:00 AM 17.06 62.708 0.117 7.11 3.69 7.98
6/9/2022 2:15:00 AM 16.98 62.564 0.117 7.12 3.45 8.02
6/9/2022 2:30:00 AM 16.91 62.438 0.116 7.11 3.56 8.05
6/9/2022 2:45:00 AM 16.86 62.348 0.116 7.12 3.47 8.05
6/9/2022 3:00:00 AM 16.78 62.204 0.115 7.13 3.77 8.09
6/9/2022 3:15:00 AM 16.71 62.078 0.115 7.14 7.37 8.14
6/9/2022 3:30:00 AM 16.64 61.952 0.114 7.14 13.1 8.18
6/9/2022 3:45:00 AM 16.55 61.79 0.113 7.16 12.96 8.24
6/9/2022 4:00:00 AM 16.46 61.628 0.112 7.17 15.5 8.29
6/9/2022 4:15:00 AM 16.36 61.448 0.111 7.19 35.55 8.35
6/9/2022 4:30:00 AM 16.27 61.286 0.11 7.19 56.03 8.4
6/9/2022 4:45:00 AM 16.16 61.088 0.11 7.21 93.27 8.49
6/9/2022 5:00:00 AM 16.03 60.854 0.108 7.22 81.49 8.59
6/9/2022 5:15:00 AM 15.85 60.53 0.105 7.21 126.01 8.71
6/9/2022 5:30:00 AM 15.65 60.17 0.101 7.03 147.47 8.8
6/9/2022 5:45:00 AM 15.48 59.864 0.095 6.98 148.35 8.88
6/9/2022 6:00:00 AM 15.37 59.666 0.092 6.98 141.35 8.95
6/9/2022 6:15:00 AM 15.31 59.558 0.09 6.94 133.01 8.99
6/9/2022 6:30:00 AM 15.28 59.504 0.088 7.04 102.94 9.02
6/9/2022 6:45:00 AM 15.26 59.468 0.088 6.98 88.63 9.03
6/9/2022 7:00:00 AM 15.24 59.432 0.087 7.1 91.16 9.05
6/9/2022 7:15:00 AM 15.24 59.432 0.084 7.13 77.75 9.06
6/9/2022 7:30:00 AM 15.24 59.432 0.082 7.15 68.51 9.07
6/9/2022 7:45:00 AM 15.26 59.468 0.08 7.18 61.86 9.08
6/9/2022 8:00:00 AM 15.3 59.54 0.079 7.19 49.09 9.08
6/9/2022 8:15:00 AM 15.33 59.594 0.079 7.2 50.53 9.08
6/9/2022 8:30:00 AM 15.37 59.666 0.078 7.2 45.14 9.08
6/9/2022 8:45:00 AM 15.41 59.738 0.079 7.2 40.51 9.08
6/9/2022 9:00:00 AM 15.47 59.846 0.079 7.21 37.66 9.08
6/9/2022 9:15:00 AM 15.51 59.918 0.079 7.22 33.44 9.08
6/9/2022 9:30:00 AM 15.56 60.008 0.08 7.22 31.15 9.06
6/9/2022 9:45:00 AM 15.61 60.098 0.081 7.25 29.43 9.05
6/9/2022 10:00:00 AM 15.72 60.296 0.081 7.25 26.86 9.06
6/9/2022 10:15:00 AM 15.81 60.458 0.082 7.28 24.94 9.07
6/9/2022 10:30:00 AM 15.99 60.782 0.083 7.28 20.48 9.08
6/9/2022 10:45:00 AM 16.08 60.944 0.084 7.27 20.76 9.08
6/9/2022 11:00:00 AM 16.29 61.322 0.085 7.29 19.46 9.1
6/9/2022 11:15:00 AM 16.46 61.628 0.085 7.32 18.73 9.11
6/9/2022 11:30:00 AM 16.51 61.718 0.086 7.33 17.69 9.09
6/9/2022 11:45:00 AM 16.73 62.114 0.087 7.35 16.54 9.09
6/9/2022 12:00:00 PM 16.9 62.42 0.087 7.36 15.48 9.1
6/9/2022 12:15:00 PM 17.17 62.906 0.088 7.38 15.39 9.1
6/9/2022 12:30:00 PM 17.35 63.23 0.088 7.4 14.18 9.1
6/9/2022 12:45:00 PM 17.4 63.32 0.089 7.4 13.59 9.09
6/9/2022 1:00:00 PM 17.53 63.554 0.089 7.42 13.15 9.08
6/9/2022 1:15:00 PM 17.55 63.59 0.09 7.42 13.18 9.07
6/9/2022 1:30:00 PM 17.58 63.644 0.091 7.42 12.36 9.03
6/9/2022 1:45:00 PM 17.55 63.59 0.091 7.4 12.17 8.96
6/9/2022 2:00:00 PM 17.54 63.572 0.092 7.4 11.76 8.95
6/9/2022 2:15:00 PM 17.42 63.356 0.093 7.38 11.41 8.91
6/9/2022 2:30:00 PM 17.42 63.356 0.094 7.38 10.86 8.9
6/9/2022 2:45:00 PM 17.39 63.302 0.094 7.38 10.21 8.92
6/9/2022 3:00:00 PM 17.46 63.428 0.095 7.39 9.83 8.96
6/9/2022 3:15:00 PM 17.49 63.482 0.096 7.4 9.84 8.99
6/9/2022 3:30:00 PM 17.49 63.482 0.096 7.42 9.49 9.03
6/9/2022 3:45:00 PM 17.48 63.464 0.097 7.42 9.36 9.03
6/9/2022 4:00:00 PM 17.46 63.428 0.098 7.42 9.42 8.99
6/9/2022 4:15:00 PM 17.53 63.554 0.098 7.42 9.1 9
6/9/2022 4:30:00 PM 17.67 63.806 0.098 7.45 8.65 9.02
6/9/2022 4:45:00 PM 17.7 63.86 0.099 7.44 8.35 9.03
6/9/2022 5:00:00 PM 17.55 63.59 0.1 7.42 8.09 8.97
6/9/2022 5:15:00 PM 17.53 63.554 0.1 7.41 8.15 8.95
6/9/2022 5:30:00 PM 17.59 63.662 0.1 7.42 7.81 8.96
6/9/2022 5:45:00 PM 17.56 63.608 0.101 7.41 7.62 8.94
6/9/2022 6:00:00 PM 17.55 63.59 0.101 7.41 7.68 8.92
6/9/2022 6:15:00 PM 17.52 63.536 0.101 7.4 7.66 8.91
6/9/2022 6:30:00 PM 17.45 63.41 0.102 7.38 7.52 8.87
6/9/2022 6:45:00 PM 17.4 63.32 0.102 7.37 7.48 8.84
6/9/2022 7:00:00 PM 17.36 63.248 0.102 7.36 7.26 8.83
6/9/2022 7:15:00 PM 17.3 63.14 0.103 7.35 7.09 8.81
6/9/2022 7:30:00 PM 17.21 62.978 0.103 7.33 7.23 8.78
6/9/2022 7:45:00 PM 17.1 62.78 0.104 7.32 7.58 8.75
6/9/2022 8:00:00 PM 17.02 62.636 0.104 7.3 7.05 8.73
6/9/2022 8:15:00 PM 16.92 62.456 0.104 7.29 7.13 8.71
6/9/2022 8:30:00 PM 16.81 62.258 0.105 7.28 6.9 8.69
6/9/2022 8:45:00 PM 16.71 62.078 0.105 7.27 6.98 8.68
6/9/2022 9:00:00 PM 16.61 61.898 0.105 7.25 7.01 8.67
6/9/2022 9:15:00 PM 16.51 61.718 0.105 7.25 7.23 8.66
6/9/2022 9:30:00 PM 16.41 61.538 0.106 7.23 7.31 8.67
6/9/2022 9:45:00 PM 16.32 61.376 0.106 7.23 7.29 8.66
6/9/2022 10:00:00 PM 16.24 61.232 0.106 7.22 7.46 8.68
6/9/2022 10:15:00 PM 16.16 61.088 0.106 7.22 7.28 8.69
6/9/2022 10:30:00 PM 16.08 60.944 0.107 7.21 7.1 8.7
6/9/2022 10:45:00 PM 15.99 60.782 0.107 7.21 7.04 8.72
6/9/2022 11:00:00 PM 15.89 60.602 0.107 7.21 6.8 8.73
6/9/2022 11:15:00 PM 15.81 60.458 0.107 7.21 6.86 8.74
6/9/2022 11:30:00 PM 15.72 60.296 0.108 7.2 6.83 8.77
6/9/2022 11:45:00 PM 15.65 60.17 0.108 7.21 6.9 8.77
6/10/2022 12:00:00 AM 15.59 60.062 0.108 7.19 7.02 8.79
6/10/2022 12:15:00 AM 15.53 59.954 0.108 7.2 6.69 8.8
6/10/2022 12:30:00 AM 15.48 59.864 0.108 7.19 6.79 8.81
6/10/2022 12:45:00 AM 15.41 59.738 0.108 7.19 6.42 8.82
6/10/2022 1:00:00 AM 15.33 59.594 0.108 7.19 6.5 8.84
6/10/2022 1:15:00 AM 15.27 59.486 0.109 7.19 6.73 8.85
6/10/2022 1:30:00 AM 15.21 59.378 0.109 7.19 6.48 8.86
6/10/2022 1:45:00 AM 15.15 59.27 0.109 7.19 6.53 8.87
6/10/2022 2:00:00 AM 15.09 59.162 0.109 7.19 5.95 8.89
6/10/2022 2:15:00 AM 15.03 59.054 0.109 7.18 6.15 8.89
6/10/2022 2:30:00 AM 14.96 58.928 0.109 7.18 6.13 8.91
6/10/2022 2:45:00 AM 14.89 58.802 0.109 7.19 6.2 8.92
6/10/2022 3:00:00 AM 14.82 58.676 0.11 7.18 6.16 8.93
6/10/2022 3:15:00 AM 14.76 58.568 0.11 7.19 6.04 8.94
6/10/2022 3:30:00 AM 14.7 58.46 0.11 7.18 6.3 8.95
6/10/2022 3:45:00 AM 14.64 58.352 0.11 7.17 6.25 8.97
6/10/2022 4:00:00 AM 14.58 58.244 0.11 7.18 5.94 8.99
6/10/2022 4:15:00 AM 14.51 58.118 0.11 7.17 5.98 8.99
6/10/2022 4:30:00 AM 14.45 58.01 0.11 7.16 6.21 9
6/10/2022 4:45:00 AM 14.39 57.902 0.11 7.17 6.12 9.02
6/10/2022 5:00:00 AM 14.34 57.812 0.11 7.16 5.89 9.02
6/10/2022 5:15:00 AM 14.29 57.722 0.11 7.17 5.86 9.04
6/10/2022 5:30:00 AM 14.24 57.632 0.11 7.16 5.6 9.05
6/10/2022 5:45:00 AM 14.18 57.524 0.11 7.17 5.49 9.07
6/10/2022 6:00:00 AM 14.12 57.416 0.11 7.17 5.26 9.1
6/10/2022 6:15:00 AM 14.07 57.326 0.111 7.18 5.17 9.13
6/10/2022 6:30:00 AM 14.03 57.254 0.111 7.18 5.04 9.16
6/10/2022 6:45:00 AM 14 57.2 0.111 7.17 4.77 9.19
6/10/2022 7:00:00 AM 14.05 57.29 0.11 7.19 4.65 9.2
6/10/2022 7:15:00 AM 14.03 57.254 0.11 7.21 4.47 9.23
6/10/2022 7:30:00 AM 14 57.2 0.11 7.21 4.34 9.26
6/10/2022 7:45:00 AM 13.99 57.182 0.11 7.22 4.3 9.3
6/10/2022 8:00:00 AM 13.99 57.182 0.11 7.22 4.17 9.33
6/10/2022 8:15:00 AM 14.01 57.218 0.11 7.22 4.14 9.36
6/10/2022 8:30:00 AM 14.05 57.29 0.11 7.24 4.06 9.38
6/10/2022 8:45:00 AM 14.11 57.398 0.11 7.25 4.2 9.41
6/10/2022 9:00:00 AM 14.18 57.524 0.11 7.27 3.9 9.43
6/10/2022 9:15:00 AM 14.29 57.722 0.11 7.28 3.86 9.45
6/10/2022 9:30:00 AM 14.41 57.938 0.11 7.28 3.77 9.47
6/10/2022 9:45:00 AM 14.57 58.226 0.11 7.3 3.62 9.49
6/10/2022 10:00:00 AM 14.73 58.514 0.11 7.31 3.63 9.51
6/10/2022 10:15:00 AM 14.93 58.874 0.11 7.33 3.6 9.52
6/10/2022 10:30:00 AM 15.1 59.18 0.11 7.33 3.61 9.52
6/10/2022 10:45:00 AM 15.36 59.648 0.11 7.37 3.56 9.53
6/10/2022 11:00:00 AM 15.62 60.116 0.11 7.37 3.48 9.54
6/10/2022 11:15:00 AM 15.86 60.548 0.11 7.39 3.44 9.52
6/10/2022 11:30:00 AM 16.1 60.98 0.11 7.4 3.55 9.51
6/10/2022 11:45:00 AM 16.3 61.34 0.11 7.41 3.34 9.49
6/10/2022 12:00:00 PM 16.58 61.844 0.11 7.43 3.39 9.49
6/10/2022 12:15:00 PM 16.76 62.168 0.11 7.44 3.31 9.46
6/10/2022 12:30:00 PM 16.93 62.474 0.11 7.45 3.34 9.43
6/10/2022 12:45:00 PM 17.19 62.942 0.11 7.46 3.41 9.41
6/10/2022 1:00:00 PM 17.6 63.68 0.11 7.47 3.34 9.4
6/10/2022 1:15:00 PM 17.83 64.094 0.11 7.49 3.47 9.38
6/10/2022 1:30:00 PM 18.12 64.616 0.11 7.5 3.32 9.35
6/10/2022 1:45:00 PM 18.27 64.886 0.11 7.5 3.68 9.31
6/10/2022 2:00:00 PM 18.35 65.03 0.11 7.5 3.44 9.27
6/10/2022 2:15:00 PM 18.43 65.174 0.11 7.5 3.24 9.22
6/10/2022 2:30:00 PM 18.4 65.12 0.11 7.5 3.35 9.22
6/10/2022 2:45:00 PM 18.42 65.156 0.11 7.5 3.42 9.19
6/10/2022 3:00:00 PM 18.54 65.372 0.11 7.51 3.55 9.16
6/10/2022 3:15:00 PM 18.75 65.75 0.11 7.52 3.49 9.15
6/10/2022 3:30:00 PM 18.95 66.11 0.11 7.53 3.47 9.15
6/10/2022 3:45:00 PM 19.14 66.452 0.11 7.53 3.7 9.14
6/10/2022 4:00:00 PM 19.32 66.776 0.11 7.54 3.58 9.11
6/10/2022 4:15:00 PM 19.46 67.028 0.11 7.54 3.58 9.08
6/10/2022 4:30:00 PM 19.55 67.19 0.11 7.54 3.59 9.05
6/10/2022 4:45:00 PM 19.59 67.262 0.11 7.53 3.29 9.02
6/10/2022 5:00:00 PM 19.59 67.262 0.11 7.52 3.38 8.99
6/10/2022 5:15:00 PM 19.52 67.136 0.11 7.5 3.39 8.96
6/10/2022 5:30:00 PM 19.42 66.956 0.11 7.49 3.68 8.9
6/10/2022 5:45:00 PM 19.28 66.704 0.111 7.47 3.48 8.85
6/10/2022 6:00:00 PM 19.16 66.488 0.111 7.44 3.28 8.83
6/10/2022 6:15:00 PM 19.06 66.308 0.111 7.44 3.25 8.81
6/10/2022 6:30:00 PM 18.95 66.11 0.111 7.42 3.22 8.79
6/10/2022 6:45:00 PM 18.83 65.894 0.111 7.4 3.28 8.75
6/10/2022 7:00:00 PM 18.66 65.588 0.111 7.38 3.2 8.72
6/10/2022 7:15:00 PM 18.49 65.282 0.111 7.35 3.19 8.67
6/10/2022 7:30:00 PM 18.33 64.994 0.111 7.34 3.19 8.65
6/10/2022 7:45:00 PM 18.19 64.742 0.111 7.32 3.32 8.63
6/10/2022 8:00:00 PM 18.06 64.508 0.111 7.3 3.41 8.58
6/10/2022 8:15:00 PM 17.95 64.31 0.112 7.28 3.42 8.54
6/10/2022 8:30:00 PM 17.81 64.058 0.112 7.26 3.46 8.5
6/10/2022 8:45:00 PM 17.69 63.842 0.112 7.24 3.76 8.45
6/10/2022 9:00:00 PM 17.55 63.59 0.112 7.21 3.72 8.41
6/10/2022 9:15:00 PM 17.42 63.356 0.112 7.2 3.75 8.38
6/10/2022 9:30:00 PM 17.3 63.14 0.112 7.18 4.02 8.36
6/10/2022 9:45:00 PM 17.16 62.888 0.112 7.18 4.03 8.36
6/10/2022 10:00:00 PM 17.02 62.636 0.112 7.17 3.84 8.36
6/10/2022 10:15:00 PM 16.9 62.42 0.113 7.16 4.15 8.37
6/10/2022 10:30:00 PM 16.77 62.186 0.113 7.16 4.03 8.38
6/10/2022 10:45:00 PM 16.65 61.97 0.113 7.15 4.29 8.4
6/10/2022 11:00:00 PM 16.52 61.736 0.113 7.15 4.24 8.42
6/10/2022 11:15:00 PM 16.4 61.52 0.113 7.15 3.99 8.44
6/10/2022 11:30:00 PM 16.28 61.304 0.113 7.14 3.97 8.47
6/10/2022 11:45:00 PM 16.17 61.106 0.113 7.15 3.97 8.48
6/11/2022 12:00:00 AM 16.06 60.908 0.113 7.14 4.21 8.5
6/11/2022 12:15:00 AM 15.94 60.692 0.113 7.14 3.91 8.53
6/11/2022 12:30:00 AM 15.83 60.494 0.113 7.14 4 8.56
6/11/2022 12:45:00 AM 15.72 60.296 0.114 7.14 3.86 8.58
6/11/2022 1:00:00 AM 15.61 60.098 0.114 7.14 3.95 8.61
6/11/2022 1:15:00 AM 15.5 59.9 0.114 7.14 3.87 8.63
6/11/2022 1:30:00 AM 15.41 59.738 0.114 7.13 3.93 8.64
6/11/2022 1:45:00 AM 15.3 59.54 0.114 7.14 3.82 8.67
6/11/2022 2:00:00 AM 15.2 59.36 0.114 7.13 3.84 8.69
6/11/2022 2:15:00 AM 15.11 59.198 0.114 7.13 3.88 8.71
6/11/2022 2:30:00 AM 15.01 59.018 0.114 7.14 3.85 8.74
6/11/2022 2:45:00 AM 14.92 58.856 0.114 7.13 3.97 8.75
6/11/2022 3:00:00 AM 14.83 58.694 0.114 7.13 3.82 8.77
6/11/2022 3:15:00 AM 14.74 58.532 0.114 7.14 3.73 8.79
6/11/2022 3:30:00 AM 14.67 58.406 0.114 7.13 3.96 8.81
6/11/2022 3:45:00 AM 14.58 58.244 0.115 7.13 3.73 8.83
6/11/2022 4:00:00 AM 14.51 58.118 0.115 7.13 3.77 8.85
6/11/2022 4:15:00 AM 14.43 57.974 0.115 7.14 3.89 8.87
6/11/2022 4:30:00 AM 14.36 57.848 0.115 7.13 3.78 8.88
6/11/2022 4:45:00 AM 14.29 57.722 0.115 7.13 3.73 8.9
6/11/2022 5:00:00 AM 14.23 57.614 0.115 7.13 3.73 8.92
6/11/2022 5:15:00 AM 14.17 57.506 0.115 7.13 3.55 8.93
6/11/2022 5:30:00 AM 14.11 57.398 0.115 7.14 3.81 8.94
6/11/2022 5:45:00 AM 14.05 57.29 0.115 7.14 3.43 8.96
6/11/2022 6:00:00 AM 14 57.2 0.115 7.14 3.3 9
6/11/2022 6:15:00 AM 13.95 57.11 0.115 7.14 3.48 9.05
6/11/2022 6:30:00 AM 13.92 57.056 0.115 7.15 4.49 9.1
6/11/2022 6:45:00 AM 13.88 56.984 0.115 7.17 3.38 9.18
6/11/2022 7:00:00 AM 13.87 56.966 0.115 7.17 3.09 9.23
6/11/2022 7:15:00 AM 13.85 56.93 0.115 7.18 3.06 9.32
6/11/2022 7:30:00 AM 13.85 56.93 0.115 7.21 3.26 9.38
6/11/2022 7:45:00 AM 13.85 56.93 0.115 7.22 3.09 9.44
6/11/2022 8:00:00 AM 13.84 56.912 0.115 7.23 2.82 9.49
6/11/2022 8:15:00 AM 13.89 57.002 0.115 7.23 2.81 9.54
6/11/2022 8:30:00 AM 13.94 57.092 0.114 7.25 2.76 9.58
6/11/2022 8:45:00 AM 13.98 57.164 0.114 7.28 2.66 9.65
6/11/2022 9:00:00 AM 14.04 57.272 0.114 7.29 2.74 9.69
6/11/2022 9:15:00 AM 14.15 57.47 0.114 7.32 2.66 9.75
6/11/2022 9:30:00 AM 14.24 57.632 0.114 7.34 3.06 9.79
6/11/2022 9:45:00 AM 14.33 57.794 0.114 7.36 2.64 9.83
6/11/2022 10:00:00 AM 14.43 57.974 0.114 7.37 2.74 9.85
6/11/2022 10:15:00 AM 14.61 58.298 0.114 7.39 2.63 9.88
6/11/2022 10:30:00 AM 14.84 58.712 0.113 7.41 2.52 9.89
6/11/2022 10:45:00 AM 15 59 0.113 7.43 3.05 9.9
6/11/2022 11:00:00 AM 15.07 59.126 0.113 7.43 2.84 9.9
6/11/2022 11:15:00 AM 15.21 59.378 0.113 7.46 2.66 9.91
6/11/2022 11:30:00 AM 15.4 59.72 0.113 7.47 4.43 9.92
6/11/2022 11:45:00 AM 15.61 60.098 0.113 7.5 2.56 9.92
6/11/2022 12:00:00 PM 15.69 60.242 0.113 7.51 2.8 9.9
6/11/2022 12:15:00 PM 15.75 60.35 0.113 7.51 2.55 9.87
6/11/2022 12:30:00 PM 15.81 60.458 0.113 7.51 3.17 9.85
6/11/2022 12:45:00 PM 15.92 60.656 0.113 7.51 2.59 9.83
6/11/2022 1:00:00 PM 16.06 60.908 0.113 7.54 10.09 9.83
6/11/2022 1:15:00 PM 16.18 61.124 0.112 7.53 2.48 9.83
6/11/2022 1:30:00 PM 16.28 61.304 0.112 7.55 2.5 9.81
6/11/2022 1:45:00 PM 16.38 61.484 0.112 7.55 2.48 9.8
6/11/2022 2:00:00 PM 16.5 61.7 0.113 7.56 2.6 9.8
6/11/2022 2:15:00 PM 16.67 62.006 0.113 7.58 2.72 9.79
6/11/2022 2:30:00 PM 16.91 62.438 0.113 7.59 2.69 9.77
6/11/2022 2:45:00 PM 17.12 62.816 0.113 7.59 2.5 9.77
6/11/2022 3:00:00 PM 17.27 63.086 0.113 7.59 2.62 9.74
6/11/2022 3:15:00 PM 17.37 63.266 0.113 7.61 2.57 9.73
6/11/2022 3:30:00 PM 17.56 63.608 0.113 7.6 2.53 9.68
6/11/2022 3:45:00 PM 17.74 63.932 0.113 7.6 2.53 9.65
6/11/2022 4:00:00 PM 17.81 64.058 0.113 7.59 2.65 9.62
6/11/2022 4:15:00 PM 17.8 64.04 0.113 7.56 2.57 9.53
6/11/2022 4:30:00 PM 17.76 63.968 0.113 7.54 2.55 9.45
6/11/2022 4:45:00 PM 17.74 63.932 0.113 7.51 2.5 9.37
6/11/2022 5:00:00 PM 17.69 63.842 0.113 7.5 2.49 9.35
6/11/2022 5:15:00 PM 17.68 63.824 0.113 7.48 2.57 9.33
6/11/2022 5:30:00 PM 17.7 63.86 0.113 7.48 2.47 9.32
6/11/2022 5:45:00 PM 17.69 63.842 0.113 7.48 2.49 9.29
6/11/2022 6:00:00 PM 17.71 63.878 0.113 7.47 2.5 9.29
6/11/2022 6:15:00 PM 17.69 63.842 0.113 7.46 2.53 9.27
6/11/2022 6:30:00 PM 17.64 63.752 0.114 7.44 2.5 9.23
6/11/2022 6:45:00 PM 17.62 63.716 0.114 7.44 2.48 9.21
6/11/2022 7:00:00 PM 17.61 63.698 0.114 7.42 2.5 9.17
6/11/2022 7:15:00 PM 17.56 63.608 0.114 7.41 2.57 9.14
6/11/2022 7:30:00 PM 17.49 63.482 0.114 7.4 2.56 9.09
6/11/2022 7:45:00 PM 17.4 63.32 0.114 7.37 2.64 9
6/11/2022 8:00:00 PM 17.29 63.122 0.114 7.34 3.68 8.9
6/11/2022 8:15:00 PM 17.19 62.942 0.115 7.29 2.87 8.8
6/11/2022 8:30:00 PM 17.07 62.726 0.115 7.28 2.9 8.72
6/11/2022 8:45:00 PM 16.97 62.546 0.115 7.24 2.69 8.64
6/11/2022 9:00:00 PM 16.87 62.366 0.115 7.22 2.85 8.56
6/11/2022 9:15:00 PM 16.77 62.186 0.115 7.19 2.93 8.51
6/11/2022 9:30:00 PM 16.67 62.006 0.115 7.18 2.94 8.47
6/11/2022 9:45:00 PM 16.57 61.826 0.116 7.16 3.16 8.44
6/11/2022 10:00:00 PM 16.47 61.646 0.116 7.15 3.25 8.42
6/11/2022 10:15:00 PM 16.37 61.466 0.116 7.15 3.11 8.43
6/11/2022 10:30:00 PM 16.27 61.286 0.116 7.14 3.06 8.43
6/11/2022 10:45:00 PM 16.16 61.088 0.116 7.14 3.2 8.44
6/11/2022 11:00:00 PM 16.06 60.908 0.116 7.14 2.94 8.46
6/11/2022 11:15:00 PM 15.97 60.746 0.116 7.13 3.17 8.46
6/11/2022 11:30:00 PM 15.87 60.566 0.116 7.13 3.01 8.48
6/11/2022 11:45:00 PM 15.79 60.422 0.116 7.13 2.93 8.48
6/12/2022 12:00:00 AM 15.69 60.242 0.116 7.13 3.08 8.51
6/12/2022 12:15:00 AM 15.6 60.08 0.116 7.13 3 8.52
6/12/2022 12:30:00 AM 15.51 59.918 0.117 7.13 2.98 8.55
6/12/2022 12:45:00 AM 15.43 59.774 0.117 7.12 3.1 8.54
6/12/2022 1:00:00 AM 15.34 59.612 0.117 7.12 3.28 8.57
6/12/2022 1:15:00 AM 15.25 59.45 0.117 7.12 3.13 8.59
6/12/2022 1:30:00 AM 15.17 59.306 0.117 7.12 3.29 8.61
6/12/2022 1:45:00 AM 15.09 59.162 0.117 7.12 2.97 8.63
6/12/2022 2:00:00 AM 15.02 59.036 0.117 7.12 3.06 8.64
6/12/2022 2:15:00 AM 14.96 58.928 0.117 7.11 3.08 8.65
6/12/2022 2:30:00 AM 14.89 58.802 0.117 7.12 3 8.68
6/12/2022 2:45:00 AM 14.83 58.694 0.117 7.11 3.04 8.69
6/12/2022 3:00:00 AM 14.75 58.55 0.117 7.11 3.04 8.71
6/12/2022 3:15:00 AM 14.69 58.442 0.117 7.11 3.1 8.71
6/12/2022 3:30:00 AM 14.63 58.334 0.117 7.11 3.19 8.74
6/12/2022 3:45:00 AM 14.57 58.226 0.117 7.11 3.01 8.75
6/12/2022 4:00:00 AM 14.52 58.136 0.117 7.1 2.97 8.76
6/12/2022 4:15:00 AM 14.47 58.046 0.117 7.11 2.83 8.78
6/12/2022 4:30:00 AM 14.42 57.956 0.117 7.1 4.66 8.78
6/12/2022 4:45:00 AM 14.37 57.866 0.117 7.1 2.84 8.8
6/12/2022 5:00:00 AM 14.32 57.776 0.117 7.1 2.9 8.81
6/12/2022 5:15:00 AM 14.29 57.722 0.117 7.11 2.87 8.82
6/12/2022 5:30:00 AM 14.24 57.632 0.117 7.1 2.74 8.84
6/12/2022 5:45:00 AM 14.2 57.56 0.117 7.1 2.59 8.84
6/12/2022 6:00:00 AM 14.17 57.506 0.117 7.1 2.59 8.86
6/12/2022 6:15:00 AM 14.14 57.452 0.117 7.11 3 8.9
6/12/2022 6:30:00 AM 14.12 57.416 0.117 7.11 2.56 8.93
6/12/2022 6:45:00 AM 14.1 57.38 0.117 7.12 2.5 9
6/12/2022 7:00:00 AM 14.09 57.362 0.117 7.13 2.48 9.05
6/12/2022 7:15:00 AM 14.09 57.362 0.117 7.14 2.38 9.11
6/12/2022 7:30:00 AM 14.09 57.362 0.117 7.16 2.38 9.2
6/12/2022 7:45:00 AM 14.1 57.38 0.117 7.17 2.37 9.27
6/12/2022 8:00:00 AM 14.14 57.452 0.117 7.19 2.28 9.36
6/12/2022 8:15:00 AM 14.17 57.506 0.117 7.22 2.29 9.45
6/12/2022 8:30:00 AM 14.2 57.56 0.117 7.23 2.34 9.5
6/12/2022 8:45:00 AM 14.25 57.65 0.117 7.24 2.24 9.56
6/12/2022 9:00:00 AM 14.34 57.812 0.117 7.26 2.34 9.64
6/12/2022 9:15:00 AM 14.47 58.046 0.117 7.3 2.32 9.72
6/12/2022 9:30:00 AM 14.61 58.298 0.117 7.32 2.33 9.79
6/12/2022 9:45:00 AM 14.72 58.496 0.117 7.35 2.4 9.84
6/12/2022 10:00:00 AM 14.88 58.784 0.117 7.36 2.27 9.87
6/12/2022 10:15:00 AM 15.1 59.18 0.117 7.39 2.22 9.91
6/12/2022 10:30:00 AM 15.25 59.45 0.117 7.41 2.24 9.92
6/12/2022 10:45:00 AM 15.48 59.864 0.117 7.43 2.23 9.93
6/12/2022 11:00:00 AM 15.67 60.206 0.117 7.46 2.2 9.93
6/12/2022 11:15:00 AM 15.72 60.296 0.116 7.46 2.2 9.9
6/12/2022 11:30:00 AM 15.82 60.476 0.116 7.48 2.24 9.89
6/12/2022 11:45:00 AM 15.95 60.71 0.116 7.48 2.22 9.88
6/12/2022 12:00:00 PM 16.1 60.98 0.116 7.5 2.28 9.85
6/12/2022 12:15:00 PM 16.37 61.466 0.116 7.52 2.25 9.87
6/12/2022 12:30:00 PM 16.59 61.862 0.116 7.53 2.23 9.87
6/12/2022 12:45:00 PM 16.69 62.042 0.116 7.53 2.21 9.85
6/12/2022 1:00:00 PM 16.7 62.06 0.116 7.54 2.35 9.82
6/12/2022 1:15:00 PM 16.69 62.042 0.116 7.54 2.2 9.78
6/12/2022 1:30:00 PM 16.75 62.15 0.116 7.54 2.22 9.74
6/12/2022 1:45:00 PM 16.94 62.492 0.116 7.52 2.64 9.71
6/12/2022 2:00:00 PM 17.32 63.176 0.116 7.55 2.32 9.73
6/12/2022 2:15:00 PM 17.56 63.608 0.116 7.57 2.3 9.73
6/12/2022 2:30:00 PM 17.72 63.896 0.116 7.57 2.24 9.72
6/12/2022 2:45:00 PM 17.91 64.238 0.116 7.59 2.26 9.7
6/12/2022 3:00:00 PM 17.9 64.22 0.116 7.59 2.22 9.68
6/12/2022 3:15:00 PM 17.94 64.292 0.116 7.59 2.23 9.65
6/12/2022 3:30:00 PM 17.94 64.292 0.116 7.57 2.42 9.59
6/12/2022 3:45:00 PM 17.9 64.22 0.116 7.55 2.41 9.5
6/12/2022 4:00:00 PM 17.85 64.13 0.116 7.51 2.48 9.4
6/12/2022 4:15:00 PM 17.81 64.058 0.116 7.48 2.42 9.32
6/12/2022 4:30:00 PM 17.8 64.04 0.116 7.47 2.34 9.3
6/12/2022 4:45:00 PM 17.82 64.076 0.116 7.48 2.36 9.31
6/12/2022 5:00:00 PM 17.82 64.076 0.116 7.47 2.35 9.32
6/12/2022 5:15:00 PM 17.79 64.022 0.116 7.45 2.26 9.25
6/12/2022 5:30:00 PM 17.74 63.932 0.116 7.42 2.62 9.13
6/12/2022 5:45:00 PM 17.68 63.824 0.115 7.38 2.55 8.97
6/12/2022 6:00:00 PM 17.63 63.734 0.114 7.33 2.68 8.84
6/12/2022 6:15:00 PM 17.59 63.662 0.113 7.3 8.37 8.75
6/12/2022 6:30:00 PM 17.55 63.59 0.113 7.28 18.96 8.7
6/12/2022 6:45:00 PM 17.52 63.536 0.113 7.27 3.85 8.7
6/12/2022 7:00:00 PM 17.5 63.5 0.113 7.28 6.78 8.72
6/12/2022 7:15:00 PM 17.46 63.428 0.113 7.27 15.47 8.69
6/12/2022 7:30:00 PM 17.42 63.356 0.113 7.27 13.18 8.67
6/12/2022 7:45:00 PM 17.39 63.302 0.113 7.28 9.19 8.69
6/12/2022 8:00:00 PM 17.35 63.23 0.113 7.28 9.1 8.69
6/12/2022 8:15:00 PM 17.28 63.104 0.114 7.26 11.72 8.64
6/12/2022 8:30:00 PM 17.21 62.978 0.115 7.25 12.03 8.59
6/12/2022 8:45:00 PM 17.14 62.852 0.115 7.24 10.88 8.56
6/12/2022 9:00:00 PM 17.07 62.726 0.115 7.24 9.02 8.54
6/12/2022 9:15:00 PM 17.01 62.618 0.116 7.23 8.09 8.53
6/12/2022 9:30:00 PM 16.95 62.51 0.117 7.23 7.19 8.53
6/12/2022 9:45:00 PM 16.88 62.384 0.116 7.22 7.04 8.54
6/12/2022 10:00:00 PM 16.81 62.258 0.115 7.21 6.94 8.55
6/12/2022 10:15:00 PM 16.74 62.132 0.114 7.21 6.84 8.56
6/12/2022 10:30:00 PM 16.67 62.006 0.111 7.21 7.14 8.57
6/12/2022 10:45:00 PM 16.61 61.898 0.11 7.2 6.96 8.58
6/12/2022 11:00:00 PM 16.56 61.808 0.108 7.19 7.31 8.59
6/12/2022 11:15:00 PM 16.51 61.718 0.107 7.19 7.08 8.61
6/12/2022 11:30:00 PM 16.47 61.646 0.107 7.19 6.92 8.62
6/12/2022 11:45:00 PM 16.43 61.574 0.107 7.18 6.71 8.63
6/13/2022 12:00:00 AM 16.39 61.502 0.106 7.18 6.75 8.64
6/13/2022 12:15:00 AM 16.34 61.412 0.106 7.19 6.5 8.64
6/13/2022 12:30:00 AM 16.29 61.322 0.107 7.18 6.13 8.65
6/13/2022 12:45:00 AM 16.24 61.232 0.107 7.18 6.07 8.66
6/13/2022 1:00:00 AM 16.2 61.16 0.107 7.16 5.9 8.66
6/13/2022 1:15:00 AM 16.16 61.088 0.107 7.17 5.74 8.67
6/13/2022 1:30:00 AM 16.12 61.016 0.107 7.16 5.61 8.67
6/13/2022 1:45:00 AM 16.08 60.944 0.107 7.16 5.79 8.68
6/13/2022 2:00:00 AM 16.04 60.872 0.107 7.16 5.54 8.68
6/13/2022 2:15:00 AM 16 60.8 0.108 7.15 5.47 8.68
6/13/2022 2:30:00 AM 15.97 60.746 0.108 7.15 5.28 8.68
6/13/2022 2:45:00 AM 15.93 60.674 0.108 7.15 5.22 8.69
6/13/2022 3:00:00 AM 15.89 60.602 0.108 7.15 5.08 8.69
6/13/2022 3:15:00 AM 15.87 60.566 0.108 7.15 4.97 8.7
6/13/2022 3:30:00 AM 15.85 60.53 0.108 7.14 4.8 8.7
6/13/2022 3:45:00 AM 15.83 60.494 0.108 7.15 4.61 8.71
6/13/2022 4:00:00 AM 15.8 60.44 0.108 7.16 4.57 8.71
6/13/2022 4:15:00 AM 15.78 60.404 0.108 7.15 4.77 8.71
6/13/2022 4:30:00 AM 15.77 60.386 0.108 7.15 4.54 8.72
6/13/2022 4:45:00 AM 15.75 60.35 0.108 7.14 4.5 8.72
6/13/2022 5:00:00 AM 15.74 60.332 0.108 7.15 4.63 8.72
6/13/2022 5:15:00 AM 15.72 60.296 0.108 7.14 4.67 8.72
6/13/2022 5:30:00 AM 15.71 60.278 0.108 7.14 4.28 8.73
6/13/2022 5:45:00 AM 15.7 60.26 0.108 7.15 4.31 8.73
6/13/2022 6:00:00 AM 15.69 60.242 0.108 7.15 4.27 8.74
6/13/2022 6:15:00 AM 15.69 60.242 0.108 7.16 4.03 8.75
6/13/2022 6:30:00 AM 15.69 60.242 0.107 7.16 3.85 8.78
6/13/2022 6:45:00 AM 15.69 60.242 0.107 7.17 3.65 8.82
6/13/2022 7:00:00 AM 15.7 60.26 0.107 7.18 3.51 8.87
6/13/2022 7:15:00 AM 15.73 60.314 0.107 7.2 3.44 8.96
6/13/2022 7:30:00 AM 15.77 60.386 0.107 7.23 3.32 9.03
6/13/2022 7:45:00 AM 15.79 60.422 0.107 7.25 3.32 9.12
6/13/2022 8:00:00 AM 15.84 60.512 0.107 7.26 3.28 9.18
6/13/2022 8:15:00 AM 15.87 60.566 0.107 7.28 3.25 9.24
6/13/2022 8:30:00 AM 15.88 60.584 0.107 7.3 3.04 9.28
6/13/2022 8:45:00 AM 15.94 60.692 0.107 7.31 3.23 9.32
6/13/2022 9:00:00 AM 15.96 60.728 0.107 7.32 3.15 9.35
6/13/2022 9:15:00 AM 16.05 60.89 0.107 7.35 3.02 9.42
6/13/2022 9:30:00 AM 16.25 61.25 0.107 7.39 3.05 9.49
6/13/2022 9:45:00 AM 16.37 61.466 0.107 7.42 3.05 9.53
6/13/2022 10:00:00 AM 16.45 61.61 0.107 7.43 2.98 9.53
6/13/2022 10:15:00 AM 16.55 61.79 0.107 7.45 2.96 9.54
6/13/2022 10:30:00 AM 16.64 61.952 0.107 7.46 2.96 9.56
6/13/2022 10:45:00 AM 16.73 62.114 0.107 7.48 2.91 9.56
6/13/2022 11:00:00 AM 16.88 62.384 0.107 7.49 2.88 9.59
6/13/2022 11:15:00 AM 17.06 62.708 0.107 7.53 2.88 9.6
6/13/2022 11:30:00 AM 17.22 62.996 0.107 7.55 2.8 9.62
6/13/2022 11:45:00 AM 17.37 63.266 0.107 7.57 2.84 9.63
6/13/2022 12:00:00 PM 17.55 63.59 0.107 7.59 2.91 9.63
6/13/2022 12:15:00 PM 17.75 63.95 0.107 7.61 2.94 9.63
6/13/2022 12:30:00 PM 17.96 64.328 0.107 7.61 2.82 9.59
6/13/2022 12:45:00 PM 18.23 64.814 0.107 7.6 2.85 9.56
6/13/2022 1:00:00 PM 18.59 65.462 0.107 7.62 2.84 9.53
6/13/2022 1:15:00 PM 19.02 66.236 0.107 7.64 2.82 9.51
6/13/2022 1:30:00 PM 19.33 66.794 0.107 7.66 2.89 9.46
6/13/2022 1:45:00 PM 19.65 67.37 0.107 7.65 2.94 9.42
6/13/2022 2:00:00 PM 19.98 67.964 0.107 7.65 2.95 9.36
6/13/2022 2:15:00 PM 20.26 68.468 0.107 7.64 3.07 9.29
6/13/2022 2:30:00 PM 20.49 68.882 0.107 7.65 2.71 9.23
6/13/2022 2:45:00 PM 20.78 69.404 0.107 7.65 2.88 9.18
6/13/2022 3:00:00 PM 21.04 69.872 0.107 7.65 3.08 9.13
6/13/2022 3:15:00 PM 21.28 70.304 0.107 7.67 3.01 9.08
6/13/2022 3:30:00 PM 21.45 70.61 0.107 7.65 3.02 9.01
6/13/2022 3:45:00 PM 21.57 70.826 0.107 7.65 3.05 8.97
6/13/2022 4:00:00 PM 21.72 71.096 0.108 7.65 2.94 8.92
6/13/2022 4:15:00 PM 21.83 71.294 0.108 7.62 3.13 8.87
6/13/2022 4:30:00 PM 21.86 71.348 0.108 7.62 3.1 8.82
6/13/2022 4:45:00 PM 21.84 71.312 0.108 7.59 3.29 8.78
6/13/2022 5:00:00 PM 21.79 71.222 0.108 7.57 3.02 8.73
6/13/2022 5:15:00 PM 21.71 71.078 0.108 7.55 3 8.69
6/13/2022 5:30:00 PM 21.59 70.862 0.109 7.53 2.99 8.65
6/13/2022 5:45:00 PM 21.46 70.628 0.109 7.49 2.88 8.58
6/13/2022 6:00:00 PM 21.26 70.268 0.109 7.48 3.05 8.55
6/13/2022 6:15:00 PM 21.07 69.926 0.109 7.45 3.12 8.51
6/13/2022 6:30:00 PM 20.88 69.584 0.109 7.43 3.04 8.48
6/13/2022 6:45:00 PM 20.69 69.242 0.109 7.41 3.04 8.46
6/13/2022 7:00:00 PM 20.55 68.99 0.11 7.4 2.99 8.45
6/13/2022 7:15:00 PM 20.4 68.72 0.11 7.38 2.98 8.42
6/13/2022 7:30:00 PM 20.25 68.45 0.11 7.35 3.24 8.36
6/13/2022 7:45:00 PM 20.1 68.18 0.11 7.33 3.16 8.32
6/13/2022 8:00:00 PM 19.95 67.91 0.11 7.31 3.08 8.28
6/13/2022 8:15:00 PM 19.82 67.676 0.11 7.28 3.19 8.22
6/13/2022 8:30:00 PM 19.68 67.424 0.11 7.26 3.24 8.15
6/13/2022 8:45:00 PM 19.53 67.154 0.111 7.24 3.17 8.08
6/13/2022 9:00:00 PM 19.4 66.92 0.111 7.21 3.21 8.01
6/13/2022 9:15:00 PM 19.26 66.668 0.111 7.19 3.6 7.96
6/13/2022 9:30:00 PM 19.12 66.416 0.111 7.17 3.44 7.93
6/13/2022 9:45:00 PM 18.99 66.182 0.111 7.15 3.65 7.89
6/13/2022 10:00:00 PM 18.85 65.93 0.111 7.13 3.55 7.88
6/13/2022 10:15:00 PM 18.7 65.66 0.112 7.13 3.22 7.9
6/13/2022 10:30:00 PM 18.57 65.426 0.112 7.13 3.29 7.92
6/13/2022 10:45:00 PM 18.44 65.192 0.112 7.12 3.33 7.92
6/13/2022 11:00:00 PM 18.3 64.94 0.112 7.12 3.3 7.94
6/13/2022 11:15:00 PM 18.17 64.706 0.112 7.12 3.48 7.94
6/13/2022 11:30:00 PM 18.02 64.436 0.112 7.12 3.4 7.98
6/13/2022 11:45:00 PM 17.91 64.238 0.112 7.11 3.33 7.98
6/14/2022 12:00:00 AM 17.78 64.004 0.113 7.11 3.45 8.02
6/14/2022 12:15:00 AM 17.65 63.77 0.113 7.11 3.45 8.04
6/14/2022 12:30:00 AM 17.53 63.554 0.113 7.1 3.43 8.06
6/14/2022 12:45:00 AM 17.42 63.356 0.113 7.11 3.57 8.08
6/14/2022 1:00:00 AM 17.32 63.176 0.113 7.11 3.33 8.11
6/14/2022 1:15:00 AM 17.22 62.996 0.113 7.1 3.36 8.14
6/14/2022 1:30:00 AM 17.14 62.852 0.113 7.1 3.49 8.13
6/14/2022 1:45:00 AM 17.05 62.69 0.113 7.1 3.39 8.16
6/14/2022 2:00:00 AM 16.97 62.546 0.113 7.1 3.43 8.17
6/14/2022 2:15:00 AM 16.88 62.384 0.113 7.1 3.29 8.19
6/14/2022 2:30:00 AM 16.8 62.24 0.113 7.1 3.34 8.21
6/14/2022 2:45:00 AM 16.73 62.114 0.113 7.1 3.33 8.22
6/14/2022 3:00:00 AM 16.66 61.988 0.113 7.1 3.38 8.23
6/14/2022 3:15:00 AM 16.59 61.862 0.113 7.1 3.33 8.26
6/14/2022 3:30:00 AM 16.52 61.736 0.113 7.09 3.41 8.27
6/14/2022 3:45:00 AM 16.45 61.61 0.113 7.09 3.26 8.28
6/14/2022 4:00:00 AM 16.39 61.502 0.113 7.09 3.44 8.29
6/14/2022 4:15:00 AM 16.33 61.394 0.114 7.1 3.43 8.3
6/14/2022 4:30:00 AM 16.27 61.286 0.114 7.09 3.35 8.32
6/14/2022 4:45:00 AM 16.22 61.196 0.114 7.09 3.4 8.32
6/14/2022 5:00:00 AM 16.17 61.106 0.114 7.08 4.2 8.33
6/14/2022 5:15:00 AM 16.11 60.998 0.114 7.08 3.08 8.35
6/14/2022 5:30:00 AM 16.05 60.89 0.114 7.09 2.99 8.38
6/14/2022 5:45:00 AM 16 60.8 0.114 7.08 2.92 8.36
6/14/2022 6:00:00 AM 15.94 60.692 0.114 7.09 2.72 8.41
6/14/2022 6:15:00 AM 15.88 60.584 0.114 7.1 2.69 8.45
6/14/2022 6:30:00 AM 15.85 60.53 0.114 7.11 2.95 8.51
6/14/2022 6:45:00 AM 15.82 60.476 0.114 7.12 2.55 8.59
6/14/2022 7:00:00 AM 15.8 60.44 0.114 7.13 2.57 8.65
6/14/2022 7:15:00 AM 15.8 60.44 0.114 7.15 2.51 8.73
6/14/2022 7:30:00 AM 15.8 60.44 0.114 7.16 2.41 8.81
6/14/2022 7:45:00 AM 15.82 60.476 0.114 7.17 2.36 8.91
6/14/2022 8:00:00 AM 15.84 60.512 0.114 7.19 2.42 8.99
6/14/2022 8:15:00 AM 15.88 60.584 0.114 7.22 2.32 9.09
6/14/2022 8:30:00 AM 15.93 60.674 0.114 7.25 2.38 9.2
6/14/2022 8:45:00 AM 16 60.8 0.114 7.25 2.34 9.26
6/14/2022 9:00:00 AM 16.12 61.016 0.114 7.28 2.33 9.34
6/14/2022 9:15:00 AM 16.2 61.16 0.114 7.31 2.29 9.39
6/14/2022 9:30:00 AM 16.26 61.268 0.114 7.32 2.29 9.4
6/14/2022 9:45:00 AM 16.32 61.376 0.114 7.33 2.27 9.43
6/14/2022 10:00:00 AM 16.44 61.592 0.114 7.34 2.29 9.44
6/14/2022 10:15:00 AM 16.6 61.88 0.114 7.36 2.27 9.45
6/14/2022 10:30:00 AM 16.75 62.15 0.114 7.37 2.24 9.45
6/14/2022 10:45:00 AM 16.96 62.528 0.114 7.39 2.29 9.46
6/14/2022 11:00:00 AM 17.15 62.87 0.114 7.39 2.21 9.45
6/14/2022 11:15:00 AM 17.44 63.392 0.114 7.42 2.25 9.47
6/14/2022 11:30:00 AM 17.65 63.77 0.114 7.42 2.24 9.46
6/14/2022 11:45:00 AM 17.88 64.184 0.114 7.43 2.2 9.46
6/14/2022 12:00:00 PM 18.22 64.796 0.114 7.46 2.27 9.47
6/14/2022 12:15:00 PM 18.49 65.282 0.114 7.47 2.14 9.44
6/14/2022 12:30:00 PM 18.79 65.82201 0.114 7.49 2.35 9.42
6/14/2022 12:45:00 PM 19.14 66.452 0.114 7.51 2.3 9.41
6/14/2022 1:00:00 PM 19.47 67.046 0.113 7.51 2.33 9.37
6/14/2022 1:15:00 PM 19.84 67.712 0.114 7.52 2.19 9.32
6/14/2022 1:30:00 PM 20.19 68.342 0.114 7.53 2.3 9.27
6/14/2022 1:45:00 PM 20.53 68.954 0.114 7.53 2.36 9.22
6/14/2022 2:00:00 PM 20.87 69.566 0.114 7.54 2.43 9.16
6/14/2022 2:15:00 PM 21.18 70.124 0.114 7.54 2.54 9.11
6/14/2022 2:30:00 PM 21.47 70.646 0.113 7.55 2.58 9.04
6/14/2022 2:45:00 PM 21.68 71.024 0.114 7.54 2.5 8.98
6/14/2022 3:00:00 PM 21.93 71.474 0.114 7.55 2.54 8.95
6/14/2022 3:15:00 PM 22.11 71.798 0.114 7.55 2.56 8.9
6/14/2022 3:30:00 PM 22.28 72.104 0.114 7.52 2.52 8.84
6/14/2022 3:45:00 PM 22.42 72.356 0.114 7.54 2.62 8.82
6/14/2022 4:00:00 PM 22.49 72.482 0.114 7.52 2.74 8.77
6/14/2022 4:15:00 PM 22.58 72.644 0.114 7.52 2.8 8.71
6/14/2022 4:30:00 PM 22.63 72.734 0.114 7.5 2.6 8.65
6/14/2022 4:45:00 PM 22.66 72.788 0.114 7.48 2.76 8.58
6/14/2022 5:00:00 PM 22.62 72.716 0.115 7.47 2.72 8.54
6/14/2022 5:15:00 PM 22.58 72.644 0.115 7.45 2.64 8.48
6/14/2022 5:30:00 PM 22.47 72.446 0.115 7.45 2.48 8.46
6/14/2022 5:45:00 PM 22.37 72.266 0.115 7.42 2.83 8.4
6/14/2022 6:00:00 PM 22.24 72.032 0.115 7.4 2.86 8.34
6/14/2022 6:15:00 PM 22.05 71.69 0.115 7.38 2.91 8.31
6/14/2022 6:30:00 PM 21.88 71.384 0.116 7.36 3.02 8.25
6/14/2022 6:45:00 PM 21.64 70.952 0.116 7.35 2.73 8.22
6/14/2022 7:00:00 PM 21.42 70.556 0.116 7.32 2.73 8.16
6/14/2022 7:15:00 PM 21.21 70.17799 0.116 7.3 2.83 8.09
6/14/2022 7:30:00 PM 20.98 69.764 0.117 7.27 2.69 8.02
6/14/2022 7:45:00 PM 20.78 69.404 0.117 7.24 3.57 7.95
6/14/2022 8:00:00 PM 20.61 69.098 0.117 7.22 4.21 7.88
6/14/2022 8:15:00 PM 20.39 68.702 0.117 7.2 5.65 7.83
6/14/2022 8:30:00 PM 20.21 68.378 0.117 7.18 3.09 7.78
6/14/2022 8:45:00 PM 20.06 68.108 0.118 7.16 3.26 7.72
6/14/2022 9:00:00 PM 19.88 67.784 0.118 7.14 3.22 7.68
6/14/2022 9:15:00 PM 19.71 67.478 0.118 7.13 3.15 7.65
6/14/2022 9:30:00 PM 19.57 67.226 0.118 7.11 3.14 7.62
6/14/2022 9:45:00 PM 19.44 66.992 0.118 7.1 3.39 7.59
6/14/2022 10:00:00 PM 19.29 66.722 0.118 7.08 3.55 7.59
6/14/2022 10:15:00 PM 19.16 66.488 0.118 7.08 3.51 7.58
6/14/2022 10:30:00 PM 19.04 66.272 0.118 7.07 3.8 7.57
6/14/2022 10:45:00 PM 18.89 66.002 0.118 7.08 3.33 7.63
6/14/2022 11:00:00 PM 18.79 65.82201 0.118 7.06 3.7 7.6
6/14/2022 11:15:00 PM 18.66 65.588 0.118 7.06 3.53 7.64
6/14/2022 11:30:00 PM 18.54 65.372 0.118 7.06 3.41 7.65
6/14/2022 11:45:00 PM 18.43 65.174 0.118 7.07 3.5 7.67
6/15/2022 12:00:00 AM 18.3 64.94 0.118 7.06 3.11 7.7
6/15/2022 12:15:00 AM 18.2 64.76 0.118 7.06 3.52 7.71
6/15/2022 12:30:00 AM 18.08 64.544 0.118 7.06 3.76 7.75
6/15/2022 12:45:00 AM 17.97 64.346 0.119 7.05 3.75 7.75
6/15/2022 1:00:00 AM 17.84 64.112 0.119 7.06 3.4 7.81
6/15/2022 1:15:00 AM 17.74 63.932 0.119 7.06 3.37 7.8
6/15/2022 1:30:00 AM 17.62 63.716 0.119 7.06 3.24 7.85
6/15/2022 1:45:00 AM 17.51 63.518 0.119 7.06 3.32 7.86
6/15/2022 2:00:00 AM 17.41 63.338 0.119 7.06 3.31 7.88
6/15/2022 2:15:00 AM 17.31 63.158 0.119 7.05 3.48 7.89
6/15/2022 2:30:00 AM 17.2 62.96 0.119 7.05 3.46 7.92
6/15/2022 2:45:00 AM 17.09 62.762 0.119 7.06 3.25 7.96
6/15/2022 3:00:00 AM 16.99 62.582 0.119 7.06 3.3 7.97
6/15/2022 3:15:00 AM 16.89 62.402 0.119 7.06 3.35 8.02
6/15/2022 3:30:00 AM 16.81 62.258 0.119 7.05 3.59 8.01
6/15/2022 3:45:00 AM 16.72 62.096 0.119 7.05 3.58 8.02
6/15/2022 4:00:00 AM 16.61 61.898 0.119 7.06 3.39 8.08
6/15/2022 4:15:00 AM 16.52 61.736 0.119 7.05 3.43 8.09
6/15/2022 4:30:00 AM 16.44 61.592 0.119 7.05 3.63 8.09
6/15/2022 4:45:00 AM 16.33 61.394 0.119 7.05 3.15 8.14
6/15/2022 5:00:00 AM 16.25 61.25 0.119 7.04 3.32 8.15
6/15/2022 5:15:00 AM 16.17 61.106 0.119 7.05 3.05 8.15
6/15/2022 5:30:00 AM 16.08 60.944 0.119 7.04 2.78 8.17
6/15/2022 5:45:00 AM 15.99 60.782 0.119 7.05 2.61 8.23
6/15/2022 6:00:00 AM 15.91 60.638 0.119 7.05 2.64 8.24
6/15/2022 6:15:00 AM 15.83 60.494 0.119 7.06 2.48 8.29
6/15/2022 6:30:00 AM 15.77 60.386 0.119 7.06 2.48 8.35
6/15/2022 6:45:00 AM 15.72 60.296 0.119 7.07 2.38 8.39
6/15/2022 7:00:00 AM 15.66 60.188 0.119 7.08 2.38 8.48
6/15/2022 7:15:00 AM 15.62 60.116 0.119 7.09 2.39 8.54
6/15/2022 7:30:00 AM 15.59 60.062 0.119 7.09 2.3 8.59
6/15/2022 7:45:00 AM 15.58 60.044 0.119 7.11 2.32 8.65
6/15/2022 8:00:00 AM 15.57 60.026 0.119 7.12 2.24 8.74
6/15/2022 8:15:00 AM 15.58 60.044 0.119 7.13 2.31 8.77
6/15/2022 8:30:00 AM 15.59 60.062 0.119 7.14 2.32 8.83
6/15/2022 8:45:00 AM 15.62 60.116 0.119 7.15 2.25 8.89
6/15/2022 9:00:00 AM 15.67 60.206 0.119 7.16 2.27 8.95
6/15/2022 9:15:00 AM 15.74 60.332 0.119 7.16 2.21 8.97
6/15/2022 9:30:00 AM 15.85 60.53 0.119 7.19 2.14 9.04
6/15/2022 9:45:00 AM 15.99 60.782 0.119 7.2 2.2 9.09
6/15/2022 10:00:00 AM 16.14 61.052 0.118 7.21 2.19 9.12
6/15/2022 10:15:00 AM 16.33 61.394 0.118 7.22 2.18 9.15
6/15/2022 10:30:00 AM 16.55 61.79 0.118 7.24 2.24 9.19
6/15/2022 10:45:00 AM 16.77 62.186 0.118 7.24 2.18 9.2
6/15/2022 11:00:00 AM 17.09 62.762 0.118 7.27 2.15 9.24
6/15/2022 11:15:00 AM 17.43 63.374 0.118 7.3 2.14 9.28
6/15/2022 11:30:00 AM 17.67 63.806 0.118 7.3 2.19 9.27
6/15/2022 11:45:00 AM 18.03 64.454 0.118 7.33 2.11 9.3
6/15/2022 12:00:00 PM 18.34 65.012 0.118 7.34 2.17 9.3
6/15/2022 12:15:00 PM 18.73 65.714 0.118 7.37 2.15 9.32
6/15/2022 12:30:00 PM 19.05 66.29 0.118 7.38 2.19 9.3
6/15/2022 12:45:00 PM 19.47 67.046 0.118 7.39 2.14 9.28
6/15/2022 1:00:00 PM 19.85 67.73 0.118 7.41 2.28 9.24
6/15/2022 1:15:00 PM 20.24 68.432 0.118 7.42 2.17 9.22
6/15/2022 1:30:00 PM 20.57 69.026 0.118 7.43 2.4 9.17
6/15/2022 1:45:00 PM 20.98 69.764 0.118 7.45 2.32 9.14
6/15/2022 2:00:00 PM 21.34 70.412 0.118 7.45 2.36 9.1
6/15/2022 2:15:00 PM 21.72 71.096 0.118 7.47 2.45 9.05
6/15/2022 2:30:00 PM 21.83 71.294 0.118 7.47 2.54 9
6/15/2022 2:45:00 PM 21.89 71.402 0.118 7.47 2.71 8.94
6/15/2022 3:00:00 PM 21.92 71.456 0.118 7.46 2.54 8.87
6/15/2022 3:15:00 PM 22.09 71.762 0.118 7.47 2.62 8.83
6/15/2022 3:30:00 PM 22.21 71.978 0.118 7.47 2.85 8.8
6/15/2022 3:45:00 PM 22.33 72.194 0.118 7.46 2.69 8.76
6/15/2022 4:00:00 PM 22.46 72.42799 0.118 7.46 2.76 8.73
6/15/2022 4:15:00 PM 22.58 72.644 0.118 7.46 2.66 8.7
6/15/2022 4:30:00 PM 22.63 72.734 0.118 7.45 2.84 8.64
6/15/2022 4:45:00 PM 22.64 72.752 0.118 7.44 3.08 8.61
6/15/2022 5:00:00 PM 22.66 72.788 0.118 7.43 2.74 8.56
6/15/2022 5:15:00 PM 22.6 72.68 0.118 7.41 2.92 8.51
6/15/2022 5:30:00 PM 22.59 72.662 0.118 7.4 2.9 8.45
6/15/2022 5:45:00 PM 22.51 72.518 0.118 7.38 2.47 8.38
6/15/2022 6:00:00 PM 22.43 72.374 0.118 7.36 2.49 8.33
6/15/2022 6:15:00 PM 22.31 72.158 0.118 7.35 2.66 8.28
6/15/2022 6:30:00 PM 22.14 71.852 0.118 7.34 2.6 8.24
6/15/2022 6:45:00 PM 21.99 71.582 0.118 7.32 2.84 8.2
6/15/2022 7:00:00 PM 21.84 71.312 0.118 7.3 2.88 8.16
6/15/2022 7:15:00 PM 21.64 70.952 0.118 7.28 2.83 8.09
6/15/2022 7:30:00 PM 21.47 70.646 0.119 7.26 2.91 8.03
6/15/2022 7:45:00 PM 21.3 70.34 0.119 7.24 2.89 7.95
6/15/2022 8:00:00 PM 21.15 70.07 0.119 7.22 2.98 7.89
6/15/2022 8:15:00 PM 20.98 69.764 0.119 7.2 3.02 7.82
6/15/2022 8:30:00 PM 20.86 69.548 0.119 7.18 3.02 7.73
6/15/2022 8:45:00 PM 20.73 69.314 0.12 7.15 3.16 7.64
6/15/2022 9:00:00 PM 20.59 69.062 0.12 7.13 3.34 7.57
6/15/2022 9:15:00 PM 20.47 68.846 0.12 7.11 3.57 7.5
6/15/2022 9:30:00 PM 20.36 68.648 0.12 7.09 4 7.44
6/15/2022 9:45:00 PM 20.24 68.432 0.12 7.08 3.86 7.4
6/15/2022 10:00:00 PM 20.14 68.252 0.12 7.06 3.84 7.38
6/15/2022 10:15:00 PM 20.04 68.07201 0.12 7.05 3.94 7.34
6/15/2022 10:30:00 PM 19.95 67.91 0.121 7.04 3.74 7.34
6/15/2022 10:45:00 PM 19.83 67.694 0.121 7.03 4.03 7.34
6/15/2022 11:00:00 PM 19.76 67.568 0.121 7.04 4.01 7.32
6/15/2022 11:15:00 PM 19.67 67.406 0.121 7.03 3.81 7.35
6/15/2022 11:30:00 PM 19.59 67.262 0.121 7.03 3.51 7.35
6/15/2022 11:45:00 PM 19.51 67.118 0.121 7.03 3.34 7.37
6/16/2022 12:00:00 AM 19.44 66.992 0.121 7.03 3.8 7.36
6/16/2022 12:15:00 AM 19.37 66.866 0.121 7.03 3.93 7.36
6/16/2022 12:30:00 AM 19.3 66.74 0.121 7.03 3.71 7.39
6/16/2022 12:45:00 AM 19.24 66.632 0.121 7.03 3.7 7.41
6/16/2022 1:00:00 AM 19.17 66.506 0.121 7.03 3.63 7.42
6/16/2022 1:15:00 AM 19.11 66.398 0.121 7.03 3.49 7.43
6/16/2022 1:30:00 AM 19.05 66.29 0.121 7.03 3.91 7.43
6/16/2022 1:45:00 AM 18.99 66.182 0.121 7.03 3.66 7.44
6/16/2022 2:00:00 AM 18.93 66.074 0.121 7.03 3.89 7.44
6/16/2022 2:15:00 AM 18.86 65.948 0.121 7.03 3.83 7.46
6/16/2022 2:30:00 AM 18.8 65.84 0.121 7.04 3.75 7.49
6/16/2022 2:45:00 AM 18.75 65.75 0.121 7.04 3.9 7.5
6/16/2022 3:00:00 AM 18.7 65.66 0.121 7.04 3.9 7.5
6/16/2022 3:15:00 AM 18.64 65.552 0.121 7.04 3.56 7.53
6/16/2022 3:30:00 AM 18.59 65.462 0.121 7.04 4.13 7.53
6/16/2022 3:45:00 AM 18.55 65.39 0.121 7.04 3.78 7.54
6/16/2022 4:00:00 AM 18.5 65.3 0.121 7.04 3.63 7.56
6/16/2022 4:15:00 AM 18.42 65.156 0.119 7.08 4.21 7.71
6/16/2022 4:30:00 AM 18.35 65.03 0.116 7.09 5.04 7.83
6/16/2022 4:45:00 AM 18.3 64.94 0.115 7.08 4.56 7.87
6/16/2022 5:00:00 AM 18.26 64.868 0.114 7.08 4.7 7.87
6/16/2022 5:15:00 AM 18.21 64.778 0.111 7.09 5.17 7.9
6/16/2022 5:30:00 AM 18.14 64.652 0.109 7.1 38.81 7.95
6/16/2022 5:45:00 AM 18.04 64.472 0.107 7.1 119.37 8
6/16/2022 6:00:00 AM 17.97 64.346 0.11 7.1 110.32 8.04
6/16/2022 6:15:00 AM 17.94 64.292 0.113 7.11 86.89 8.06
6/16/2022 6:30:00 AM 17.89 64.202 0.115 7.11 75.14 8.1
6/16/2022 6:45:00 AM 17.81 64.058 0.112 7.12 70.47 8.14
6/16/2022 7:00:00 AM 17.73 63.914 0.109 7.13 63.94 8.2
6/16/2022 7:15:00 AM 17.68 63.824 0.11 7.13 71.57 8.23
6/16/2022 7:30:00 AM 17.64 63.752 0.112 7.14 57.68 8.26
6/16/2022 7:45:00 AM 17.62 63.716 0.112 7.16 55.33 8.29
6/16/2022 8:00:00 AM 17.6 63.68 0.11 7.17 47.44 8.33
6/16/2022 8:15:00 AM 17.61 63.698 0.107 7.18 44.04 8.39
6/16/2022 8:30:00 AM 17.62 63.716 0.105 7.2 36.07 8.48
6/16/2022 8:45:00 AM 17.64 63.752 0.104 7.21 31.83 8.55
6/16/2022 9:00:00 AM 17.67 63.806 0.104 7.23 26.15 8.65
6/16/2022 9:15:00 AM 17.77 63.986 0.105 7.26 23.06 8.72
6/16/2022 9:30:00 AM 17.89 64.202 0.105 7.29 19.87 8.81
6/16/2022 9:45:00 AM 17.91 64.238 0.105 7.31 16.97 8.86
6/16/2022 10:00:00 AM 17.96 64.328 0.104 7.32 15.64 8.9
6/16/2022 10:15:00 AM 18.07 64.526 0.104 7.34 14.31 8.94
6/16/2022 10:30:00 AM 18.16 64.688 0.104 7.36 13.6 8.97
6/16/2022 10:45:00 AM 18.27 64.886 0.104 7.37 12.62 8.98
6/16/2022 11:00:00 AM 18.37 65.066 0.104 7.38 11.98 9.02
6/16/2022 11:15:00 AM 18.44 65.192 0.104 7.4 11.23 9.04
6/16/2022 11:30:00 AM 18.5 65.3 0.104 7.41 10.35 9.06
6/16/2022 11:45:00 AM 18.54 65.372 0.104 7.41 9.05 9.06
6/16/2022 12:00:00 PM 18.58 65.444 0.104 7.42 8.52 9.06
6/16/2022 12:15:00 PM 18.59 65.462 0.104 7.42 7.98 9.04
6/16/2022 12:30:00 PM 18.6 65.48 0.105 7.42 9.02 9.04
6/16/2022 12:45:00 PM 18.64 65.552 0.105 7.42 6.72 9.03
6/16/2022 1:00:00 PM 18.66 65.588 0.105 7.42 6.51 9.03
6/16/2022 1:15:00 PM 18.67 65.606 0.105 7.43 6.09 9.04
6/16/2022 1:30:00 PM 18.73 65.714 0.106 7.44 5.92 9.06
6/16/2022 1:45:00 PM 18.78 65.804 0.106 7.43 5.79 9.05
6/16/2022 2:00:00 PM 18.87 65.966 0.106 7.44 5.22 9.06
6/16/2022 2:15:00 PM 19 66.2 0.106 7.45 5.14 9.08
6/16/2022 2:30:00 PM 19.08 66.344 0.106 7.46 5.22 9.09
6/16/2022 2:45:00 PM 19.15 66.47 0.106 7.47 5.09 9.09
6/16/2022 3:00:00 PM 19.33 66.794 0.107 7.48 4.75 9.08
6/16/2022 3:15:00 PM 19.52 67.136 0.107 7.48 4.53 9.08
6/16/2022 3:30:00 PM 19.57 67.226 0.107 7.49 4.49 9.06
6/16/2022 3:45:00 PM 19.58 67.244 0.107 7.47 4.48 9.01
6/16/2022 4:00:00 PM 19.67 67.406 0.107 7.46 4.39 8.95
6/16/2022 4:15:00 PM 19.79 67.622 0.107 7.45 4.33 8.9
6/16/2022 4:30:00 PM 19.87 67.766 0.107 7.45 4.11 8.85
6/16/2022 4:45:00 PM 19.86 67.748 0.108 7.42 4.26 8.77
6/16/2022 5:00:00 PM 19.84 67.712 0.108 7.4 4.2 8.7
6/16/2022 5:15:00 PM 19.81 67.658 0.108 7.37 4.04 8.63
6/16/2022 5:30:00 PM 19.76 67.568 0.108 7.36 4.14 8.59
6/16/2022 5:45:00 PM 19.71 67.478 0.108 7.35 3.94 8.56
6/16/2022 6:00:00 PM 19.67 67.406 0.108 7.33 4.07 8.52
6/16/2022 6:15:00 PM 19.63 67.334 0.109 7.32 4.23 8.45
6/16/2022 6:30:00 PM 19.59 67.262 0.109 7.29 4.09 8.39
6/16/2022 6:45:00 PM 19.54 67.172 0.109 7.27 4.06 8.32
6/16/2022 7:00:00 PM 19.49 67.082 0.109 7.25 3.97 8.25
6/16/2022 7:15:00 PM 19.43 66.974 0.11 7.23 4.07 8.17
6/16/2022 7:30:00 PM 19.37 66.866 0.11 7.21 3.86 8.11
6/16/2022 7:45:00 PM 19.32 66.776 0.11 7.19 4.03 8.04
6/16/2022 8:00:00 PM 19.26 66.668 0.11 7.18 3.75 7.99
6/16/2022 8:15:00 PM 19.21 66.578 0.111 7.16 4.33 7.94
6/16/2022 8:30:00 PM 19.16 66.488 0.111 7.15 3.97 7.9
6/16/2022 8:45:00 PM 19.11 66.398 0.111 7.13 4.06 7.85
6/16/2022 9:00:00 PM 19.06 66.308 0.111 7.12 4.25 7.82
6/16/2022 9:15:00 PM 19.02 66.236 0.112 7.12 4.49 7.8
6/16/2022 9:30:00 PM 18.97 66.146 0.112 7.12 4.57 7.79
6/16/2022 9:45:00 PM 18.93 66.074 0.112 7.11 4.6 7.76
6/16/2022 10:00:00 PM 18.88 65.984 0.112 7.11 4.85 7.76
6/16/2022 10:15:00 PM 18.84 65.912 0.112 7.1 4.61 7.75
6/16/2022 10:30:00 PM 18.79 65.82201 0.112 7.1 4.78 7.75
6/16/2022 10:45:00 PM 18.75 65.75 0.112 7.1 4.9 7.75
6/16/2022 11:00:00 PM 18.72 65.696 0.113 7.09 4.63 7.75
6/16/2022 11:15:00 PM 18.68 65.624 0.113 7.09 4.52 7.75
6/16/2022 11:30:00 PM 18.64 65.552 0.113 7.09 4.8 7.75
6/16/2022 11:45:00 PM 18.6 65.48 0.113 7.08 4.9 7.75
6/17/2022 12:00:00 AM 18.56 65.408 0.113 7.09 4.75 7.75
6/17/2022 12:15:00 AM 18.51 65.318 0.113 7.09 4.68 7.77
6/17/2022 12:30:00 AM 18.45 65.21 0.113 7.08 4.41 7.78
6/17/2022 12:45:00 AM 18.39 65.102 0.113 7.08 4.53 7.79
6/17/2022 1:00:00 AM 18.34 65.012 0.113 7.09 4.43 7.81
6/17/2022 1:15:00 AM 18.29 64.922 0.114 7.08 4.85 7.79
6/17/2022 1:30:00 AM 18.22 64.796 0.114 7.08 4.62 7.82
6/17/2022 1:45:00 AM 18.16 64.688 0.114 7.08 4.35 7.82
6/17/2022 2:00:00 AM 18.11 64.598 0.114 7.07 4.64 7.82
6/17/2022 2:15:00 AM 18.05 64.49 0.114 7.07 4.48 7.84
6/17/2022 2:30:00 AM 17.99 64.382 0.114 7.07 4.63 7.84
6/17/2022 2:45:00 AM 17.92 64.256 0.114 7.08 4.59 7.87
6/17/2022 3:00:00 AM 17.86 64.148 0.114 7.07 4.49 7.87
6/17/2022 3:15:00 AM 17.81 64.058 0.114 7.06 4.6 7.87
6/17/2022 3:30:00 AM 17.75 63.95 0.114 7.07 4.76 7.89
6/17/2022 3:45:00 AM 17.7 63.86 0.114 7.07 4.51 7.89
6/17/2022 4:00:00 AM 17.65 63.77 0.114 7.04 4.49 7.9
6/17/2022 4:15:00 AM 17.6 63.68 0.114 7.07 4.34 7.93
6/17/2022 4:30:00 AM 17.57 63.626 0.114 7.07 4.75 7.92
6/17/2022 4:45:00 AM 17.53 63.554 0.114 7.07 4.41 7.94
6/17/2022 5:00:00 AM 17.49 63.482 0.114 7.06 4.54 7.93
6/17/2022 5:15:00 AM 17.43 63.374 0.114 7.06 4.33 7.94
6/17/2022 5:30:00 AM 17.37 63.266 0.114 7.07 4.61 7.96
6/17/2022 5:45:00 AM 17.33 63.194 0.114 7.05 3.85 7.96
6/17/2022 6:00:00 AM 17.27 63.086 0.114 7.07 3.72 8.01
6/17/2022 6:15:00 AM 17.25 63.05 0.114 7.07 3.54 8.03
6/17/2022 6:30:00 AM 17.23 63.014 0.114 7.07 3.27 8.05
6/17/2022 6:45:00 AM 17.2 62.96 0.114 7.08 3.12 8.13
6/17/2022 7:00:00 AM 17.19 62.942 0.115 7.09 3.05 8.16
6/17/2022 7:15:00 AM 17.19 62.942 0.115 7.1 3.06 8.21
6/17/2022 7:30:00 AM 17.19 62.942 0.115 7.11 3.06 8.27
6/17/2022 7:45:00 AM 17.22 62.996 0.115 7.11 2.96 8.32
6/17/2022 8:00:00 AM 17.26 63.068 0.115 7.12 2.86 8.35
6/17/2022 8:15:00 AM 17.3 63.14 0.115 7.13 2.83 8.4
6/17/2022 8:30:00 AM 17.34 63.212 0.115 7.15 2.69 8.45
6/17/2022 8:45:00 AM 17.38 63.284 0.115 7.16 2.68 8.52
6/17/2022 9:00:00 AM 17.46 63.428 0.114 7.16 2.75 8.58
6/17/2022 9:15:00 AM 17.53 63.554 0.114 7.17 2.71 8.63
6/17/2022 9:30:00 AM 17.66 63.788 0.114 7.22 2.74 8.71
6/17/2022 9:45:00 AM 17.76 63.968 0.114 7.22 2.88 8.73
6/17/2022 10:00:00 AM 17.89 64.202 0.114 7.23 2.66 8.75
6/17/2022 10:15:00 AM 17.98 64.364 0.114 7.22 2.6 8.76
6/17/2022 10:30:00 AM 18.07 64.526 0.114 7.26 2.59 8.79
6/17/2022 10:45:00 AM 18.21 64.778 0.114 7.26 2.63 8.8
6/17/2022 11:00:00 AM 18.4 65.12 0.114 7.27 2.63 8.82
6/17/2022 11:15:00 AM 18.62 65.516 0.114 7.3 2.63 8.85
6/17/2022 11:30:00 AM 18.9 66.02 0.114 7.31 2.67 8.87
6/17/2022 11:45:00 AM 19.21 66.578 0.114 7.32 2.6 8.89
6/17/2022 12:00:00 PM 19.49 67.082 0.114 7.34 2.62 8.9
6/17/2022 12:15:00 PM 19.64 67.352 0.114 7.34 2.62 8.88
6/17/2022 12:30:00 PM 19.74 67.532 0.114 7.34 2.55 8.83
6/17/2022 12:45:00 PM 19.92 67.856 0.114 7.36 2.56 8.81
6/17/2022 1:00:00 PM 20.13 68.234 0.114 7.36 2.59 8.79
6/17/2022 1:15:00 PM 20.37 68.666 0.114 7.37 2.54 8.78
6/17/2022 1:30:00 PM 20.55 68.99 0.114 7.35 2.7 8.74
6/17/2022 1:45:00 PM 20.79 69.422 0.114 7.39 2.7 8.74
6/17/2022 2:00:00 PM 21.13 70.034 0.114 7.39 2.61 8.73
6/17/2022 2:15:00 PM 21.46 70.628 0.114 7.4 2.74 8.71
6/17/2022 2:30:00 PM 21.77 71.186 0.114 7.4 2.74 8.69
6/17/2022 2:45:00 PM 21.9 71.42 0.114 7.42 2.91 8.68
6/17/2022 3:00:00 PM 22.05 71.69 0.114 7.41 2.9 8.59
6/17/2022 3:15:00 PM 22.18 71.924 0.114 7.4 3.13 8.54
6/17/2022 3:30:00 PM 22.33 72.194 0.114 7.39 3.04 8.5
6/17/2022 3:45:00 PM 22.39 72.302 0.114 7.38 3.24 8.43
6/17/2022 4:00:00 PM 22.43 72.374 0.114 7.38 3.14 8.39
6/17/2022 4:15:00 PM 22.48 72.464 0.114 7.37 3.38 8.36
6/17/2022 4:30:00 PM 22.59 72.662 0.114 7.35 3.22 8.3
6/17/2022 4:45:00 PM 22.57 72.626 0.114 7.35 3.39 8.3
6/17/2022 5:00:00 PM 22.5 72.5 0.114 7.35 2.94 8.25
6/17/2022 5:15:00 PM 22.47 72.446 0.114 7.34 3.2 8.2
6/17/2022 5:30:00 PM 22.32 72.176 0.114 7.32 3.07 8.13
6/17/2022 5:45:00 PM 22.26 72.068 0.114 7.3 3.39 8.08
6/17/2022 6:00:00 PM 22.15 71.87 0.114 7.29 3.26 8.04
6/17/2022 6:15:00 PM 22.01 71.618 0.114 7.29 3.17 8.03
6/17/2022 6:30:00 PM 21.87 71.366 0.114 7.28 3.5 8.02
6/17/2022 6:45:00 PM 21.71 71.078 0.115 7.26 3.37 7.98
6/17/2022 7:00:00 PM 21.5 70.7 0.115 7.25 3.22 7.94
6/17/2022 7:15:00 PM 21.3 70.34 0.115 7.24 3.18 7.9
6/17/2022 7:30:00 PM 21.11 69.998 0.115 7.2 3.17 7.85
6/17/2022 7:45:00 PM 20.93 69.674 0.115 7.21 3.27 7.78
6/17/2022 8:00:00 PM 20.74 69.332 0.115 7.19 3.44 7.74
6/17/2022 8:15:00 PM 20.56 69.008 0.116 7.17 3.18 7.68
6/17/2022 8:30:00 PM 20.41 68.738 0.116 7.15 3.62 7.63
6/17/2022 8:45:00 PM 20.27 68.486 0.116 7.13 3.57 7.56
6/17/2022 9:00:00 PM 20.13 68.234 0.116 7.12 3.82 7.51
6/17/2022 9:15:00 PM 19.99 67.982 0.116 7.11 3.97 7.49
6/17/2022 9:30:00 PM 19.88 67.784 0.116 7.09 4.44 7.43
6/17/2022 9:45:00 PM 19.76 67.568 0.116 7.09 3.98 7.43
6/17/2022 10:00:00 PM 19.67 67.406 0.117 7.04 4.72 7.38
6/17/2022 10:15:00 PM 19.57 67.226 0.117 7.06 4.78 7.36
6/17/2022 10:30:00 PM 19.46 67.028 0.117 7.07 3.77 7.4
6/17/2022 10:45:00 PM 19.4 66.92 0.117 7.06 4.36 7.37
6/17/2022 11:00:00 PM 19.33 66.794 0.117 7.04 4.73 7.36
6/17/2022 11:15:00 PM 19.25 66.65 0.117 7.02 4.69 7.38
6/17/2022 11:30:00 PM 19.18 66.524 0.117 7.05 4.52 7.37
6/17/2022 11:45:00 PM 19.11 66.398 0.117 7.05 4.42 7.39
6/18/2022 12:00:00 AM 19.05 66.29 0.117 7.04 4.32 7.39
6/18/2022 12:15:00 AM 18.97 66.146 0.117 7.05 4.22 7.42
6/18/2022 12:30:00 AM 18.9 66.02 0.117 7.03 4.25 7.42
6/18/2022 12:45:00 AM 18.79 65.82201 0.117 7.06 3.98 7.47
6/18/2022 1:00:00 AM 18.7 65.66 0.117 7.05 4.4 7.45
6/18/2022 1:15:00 AM 18.6 65.48 0.117 7.04 4.28 7.47
6/18/2022 1:30:00 AM 18.48 65.264 0.118 7.05 4.1 7.5
6/18/2022 1:45:00 AM 18.4 65.12 0.118 7.04 4.51 7.49
6/18/2022 2:00:00 AM 18.29 64.922 0.118 7.04 4.47 7.51
6/18/2022 2:15:00 AM 18.19 64.742 0.118 7.05 4.43 7.54
6/18/2022 2:30:00 AM 18.09 64.562 0.118 7.05 4.08 7.57
6/18/2022 2:45:00 AM 18.01 64.418 0.118 7.05 4.43 7.58
6/18/2022 3:00:00 AM 17.93 64.274 0.118 7.04 4.51 7.59
6/18/2022 3:15:00 AM 17.84 64.112 0.118 7.04 4.6 7.59
6/18/2022 3:30:00 AM 17.75 63.95 0.118 7.05 4.05 7.64
6/18/2022 3:45:00 AM 17.68 63.824 0.118 7.04 4.04 7.66
6/18/2022 4:00:00 AM 17.61 63.698 0.118 7.06 4.16 7.69
6/18/2022 4:15:00 AM 17.54 63.572 0.118 7.05 4.36 7.7
6/18/2022 4:30:00 AM 17.46 63.428 0.118 7.05 3.87 7.73
6/18/2022 4:45:00 AM 17.4 63.32 0.118 7.05 4 7.74
6/18/2022 5:00:00 AM 17.35 63.23 0.118 7.05 4.14 7.74
6/18/2022 5:15:00 AM 17.28 63.104 0.118 7.05 4.49 7.78
6/18/2022 5:30:00 AM 17.2 62.96 0.118 7.05 3.95 7.77
6/18/2022 5:45:00 AM 17.1 62.78 0.118 7.05 4.11 7.81
6/18/2022 6:00:00 AM 17 62.6 0.118 7.05 3.36 7.82
6/18/2022 6:15:00 AM 16.92 62.456 0.118 7.04 3.29 7.85
6/18/2022 6:30:00 AM 16.85 62.33 0.118 7.05 3.38 7.88
6/18/2022 6:45:00 AM 16.75 62.15 0.118 7.04 2.92 7.96
6/18/2022 7:00:00 AM 16.69 62.042 0.118 7.07 2.84 8.01
6/18/2022 7:15:00 AM 16.63 61.934 0.118 7.07 2.82 8.06
6/18/2022 7:30:00 AM 16.58 61.844 0.118 7.08 2.74 8.14
6/18/2022 7:45:00 AM 16.52 61.736 0.118 7.1 2.7 8.26
6/18/2022 8:00:00 AM 16.49 61.682 0.118 7.12 2.64 8.35
6/18/2022 8:15:00 AM 16.44 61.592 0.117 7.13 2.55 8.43
6/18/2022 8:30:00 AM 16.41 61.538 0.117 7.13 2.67 8.48
6/18/2022 8:45:00 AM 16.38 61.484 0.117 7.14 2.57 8.54
6/18/2022 9:00:00 AM 16.36 61.448 0.117 7.14 2.59 8.56
6/18/2022 9:15:00 AM 16.35 61.43 0.117 7.17 2.55 8.68
6/18/2022 9:30:00 AM 16.35 61.43 0.117 7.17 2.53 8.73
6/18/2022 9:45:00 AM 16.36 61.448 0.117 7.18 2.52 8.76
6/18/2022 10:00:00 AM 16.4 61.52 0.117 7.19 2.5 8.86
6/18/2022 10:15:00 AM 16.43 61.574 0.117 7.21 2.48 8.94
6/18/2022 10:30:00 AM 16.45 61.61 0.117 7.23 2.46 8.98
6/18/2022 10:45:00 AM 16.44 61.592 0.117 7.23 2.46 9.04
6/18/2022 11:00:00 AM 16.48 61.664 0.116 7.25 2.45 9.1
6/18/2022 11:15:00 AM 16.53 61.754 0.116 7.26 2.45 9.14
6/18/2022 11:30:00 AM 16.56 61.808 0.116 7.25 3.1 9.14
6/18/2022 11:45:00 AM 16.59 61.862 0.116 7.24 2.45 9.16
6/18/2022 12:00:00 PM 16.58 61.844 0.116 7.28 2.49 9.16
6/18/2022 12:15:00 PM 16.55 61.79 0.116 7.28 2.48 9.17
6/18/2022 12:30:00 PM 16.52 61.736 0.116 7.28 2.43 9.18
6/18/2022 12:45:00 PM 16.49 61.682 0.116 7.28 2.42 9.19
6/18/2022 1:00:00 PM 16.46 61.628 0.116 7.28 2.45 9.17
6/18/2022 1:15:00 PM 16.44 61.592 0.116 7.29 2.92 9.2
6/18/2022 1:30:00 PM 16.44 61.592 0.116 7.29 3.23 9.2
6/18/2022 1:45:00 PM 16.44 61.592 0.116 7.29 2.44 9.22
6/18/2022 2:00:00 PM 16.49 61.682 0.116 7.3 2.45 9.25
6/18/2022 2:15:00 PM 16.66 61.988 0.116 7.31 2.39 9.29
6/18/2022 2:30:00 PM 16.87 62.366 0.116 7.32 2.42 9.33
6/18/2022 2:45:00 PM 16.98 62.564 0.116 7.33 2.3 9.34
6/18/2022 3:00:00 PM 16.97 62.546 0.116 7.32 2.55 9.3
6/18/2022 3:15:00 PM 16.93 62.474 0.116 7.31 2.59 9.25
6/18/2022 3:30:00 PM 16.89 62.402 0.116 7.31 2.33 9.21
6/18/2022 3:45:00 PM 16.85 62.33 0.116 7.3 2.48 9.16
6/18/2022 4:00:00 PM 16.84 62.312 0.116 7.3 2.32 9.13
6/18/2022 4:15:00 PM 16.83 62.294 0.116 7.29 2.45 9.08
6/18/2022 4:30:00 PM 16.82 62.276 0.116 7.28 2.35 9.07
6/18/2022 4:45:00 PM 16.75 62.15 0.116 7.25 2.33 9.06
6/18/2022 5:00:00 PM 16.69 62.042 0.116 7.27 2.73 9.05
6/18/2022 5:15:00 PM 16.65 61.97 0.116 7.28 2.52 9.06
6/18/2022 5:30:00 PM 16.59 61.862 0.116 7.27 2.33 9.07
6/18/2022 5:45:00 PM 16.57 61.826 0.116 7.27 2.32 9.11
6/18/2022 6:00:00 PM 16.56 61.808 0.116 7.27 2.49 9.13
6/18/2022 6:15:00 PM 16.59 61.862 0.116 7.28 2.49 9.14
6/18/2022 6:30:00 PM 16.56 61.808 0.116 7.28 2.39 9.16
6/18/2022 6:45:00 PM 16.54 61.772 0.116 7.27 2.43 9.14
6/18/2022 7:00:00 PM 16.48 61.664 0.116 7.27 2.31 9.12
6/18/2022 7:15:00 PM 16.41 61.538 0.116 7.26 2.36 9.09
6/18/2022 7:30:00 PM 16.33 61.394 0.116 7.25 2.4 9.05
6/18/2022 7:45:00 PM 16.24 61.232 0.116 7.24 2.45 8.99
6/18/2022 8:00:00 PM 16.16 61.088 0.116 7.19 2.79 8.92
6/18/2022 8:15:00 PM 16.03 60.854 0.116 7.21 2.51 8.87
6/18/2022 8:30:00 PM 15.91 60.638 0.116 7.19 2.61 8.8
6/18/2022 8:45:00 PM 15.77 60.386 0.116 7.17 2.65 8.74
6/18/2022 9:00:00 PM 15.65 60.17 0.116 7.15 2.81 8.67
6/18/2022 9:15:00 PM 15.51 59.918 0.116 7.14 2.98 8.63
6/18/2022 9:30:00 PM 15.42 59.756 0.116 7.12 3.06 8.57
6/18/2022 9:45:00 PM 15.32 59.576 0.117 7.08 3.28 8.53
6/18/2022 10:00:00 PM 15.23 59.414 0.117 7.1 3.56 8.5
6/18/2022 10:15:00 PM 15.14 59.252 0.117 7.09 3.74 8.48
6/18/2022 10:30:00 PM 15.04 59.072 0.117 7.09 3.41 8.48
6/18/2022 10:45:00 PM 14.95 58.91 0.117 7.08 3.6 8.48
6/18/2022 11:00:00 PM 14.87 58.766 0.117 7.04 3.72 8.49
6/18/2022 11:15:00 PM 14.78 58.604 0.117 7.07 3.51 8.49
6/18/2022 11:30:00 PM 14.69 58.442 0.117 7.06 3.96 8.51
6/18/2022 11:45:00 PM 14.62 58.316 0.117 7.07 3.55 8.52
6/19/2022 12:00:00 AM 14.54 58.172 0.117 7.07 3.34 8.53
6/19/2022 12:15:00 AM 14.49 58.082 0.117 7.06 3.93 8.53
6/19/2022 12:30:00 AM 14.41 57.938 0.117 7.07 3.64 8.57
6/19/2022 12:45:00 AM 14.35 57.83 0.117 7.07 3.73 8.58
6/19/2022 1:00:00 AM 14.28 57.704 0.117 7.07 3.61 8.6
6/19/2022 1:15:00 AM 14.22 57.596 0.117 7.07 3.39 8.61
6/19/2022 1:30:00 AM 14.16 57.488 0.116 7.07 3.42 8.62
6/19/2022 1:45:00 AM 14.1 57.38 0.116 7.04 3.65 8.64
6/19/2022 2:00:00 AM 14.03 57.254 0.116 7.07 3.42 8.66
6/19/2022 2:15:00 AM 14.06 57.308 0.116 7.06 3.73 8.62
6/19/2022 2:30:00 AM 13.99 57.182 0.116 7.06 3.53 8.65
6/19/2022 2:45:00 AM 13.93 57.074 0.116 7.06 3.37 8.66
6/19/2022 3:00:00 AM 13.87 56.966 0.116 7.06 3.52 8.66
6/19/2022 3:15:00 AM 13.8 56.84 0.116 7.06 3.54 8.69
6/19/2022 3:30:00 AM 13.73 56.714 0.117 7.06 3.46 8.72
6/19/2022 3:45:00 AM 13.66 56.588 0.117 7.06 3.29 8.74
6/19/2022 4:00:00 AM 13.6 56.48 0.117 7.04 3.63 8.74
6/19/2022 4:15:00 AM 13.52 56.336 0.117 7.07 3.07 8.77
6/19/2022 4:30:00 AM 13.46 56.228 0.117 7.06 3.12 8.78
6/19/2022 4:45:00 AM 13.41 56.138 0.117 7.06 3.09 8.78
6/19/2022 5:00:00 AM 13.34 56.012 0.117 7.02 3.06 8.79
6/19/2022 5:15:00 AM 13.28 55.904 0.117 7.06 2.83 8.79
6/19/2022 5:30:00 AM 13.22 55.796 0.117 7.06 2.75 8.82
6/19/2022 5:45:00 AM 13.15 55.67 0.117 7.07 2.69 8.85
6/19/2022 6:00:00 AM 13.09 55.562 0.117 7.07 2.71 8.88
6/19/2022 6:15:00 AM 13.05 55.49 0.117 7.07 2.6 8.9
6/19/2022 6:30:00 AM 13.01 55.418 0.117 7.07 2.53 8.94
6/19/2022 6:45:00 AM 12.97 55.346 0.117 7.08 2.5 8.99
6/19/2022 7:00:00 AM 12.94 55.292 0.117 7.06 2.45 9.03
6/19/2022 7:15:00 AM 12.91 55.238 0.117 7.09 2.42 9.09
6/19/2022 7:30:00 AM 12.89 55.202 0.117 7.06 2.39 9.17
6/19/2022 7:45:00 AM 12.87 55.166 0.117 7.12 2.36 9.23
6/19/2022 8:00:00 AM 12.88 55.184 0.117 7.12 2.41 9.27
6/19/2022 8:15:00 AM 12.89 55.202 0.117 7.13 2.36 9.31
6/19/2022 8:30:00 AM 12.9 55.22 0.117 7.11 2.32 9.37
6/19/2022 8:45:00 AM 12.92 55.256 0.117 7.14 2.27 9.43
6/19/2022 9:00:00 AM 12.95 55.31 0.117 7.15 2.3 9.47
6/19/2022 9:15:00 AM 12.98 55.364 0.117 7.16 2.32 9.51
6/19/2022 9:30:00 AM 13.01 55.418 0.117 7.16 2.23 9.54
6/19/2022 9:45:00 AM 13.11 55.598 0.117 7.17 2.26 9.59
6/19/2022 10:00:00 AM 13.23 55.814 0.117 7.18 2.17 9.63
6/19/2022 10:15:00 AM 13.39 56.102 0.117 7.19 2.26 9.66
6/19/2022 10:30:00 AM 13.58 56.444 0.116 7.16 2.22 9.69
6/19/2022 10:45:00 AM 13.81 56.858 0.116 7.21 2.22 9.74
6/19/2022 11:00:00 AM 14.05 57.29 0.116 7.22 2.2 9.75
6/19/2022 11:15:00 AM 14.24 57.632 0.116 7.22 2.19 9.77
6/19/2022 11:30:00 AM 14.49 58.082 0.116 7.24 2.17 9.78
6/19/2022 11:45:00 AM 14.72 58.496 0.116 7.25 2.17 9.79
6/19/2022 12:00:00 PM 15.03 59.054 0.116 7.26 2.1 9.79
6/19/2022 12:15:00 PM 15.26 59.468 0.116 7.27 2.13 9.78
6/19/2022 12:30:00 PM 15.51 59.918 0.116 7.27 2.09 9.77
6/19/2022 12:45:00 PM 15.85 60.53 0.116 7.29 2.14 9.76
6/19/2022 1:00:00 PM 16.14 61.052 0.116 7.29 2.15 9.74
6/19/2022 1:15:00 PM 16.39 61.502 0.116 7.3 2.16 9.7
6/19/2022 1:30:00 PM 16.68 62.024 0.116 7.31 2.23 9.69
6/19/2022 1:45:00 PM 17.05 62.69 0.116 7.32 2.3 9.65
6/19/2022 2:00:00 PM 17.39 63.302 0.116 7.32 2.29 9.61
6/19/2022 2:15:00 PM 17.77 63.986 0.115 7.31 2.45 9.56
6/19/2022 2:30:00 PM 18.08 64.544 0.115 7.33 2.41 9.52
6/19/2022 2:45:00 PM 18.34 65.012 0.115 7.34 2.46 9.48
6/19/2022 3:00:00 PM 18.62 65.516 0.115 7.34 2.62 9.43
6/19/2022 3:15:00 PM 18.83 65.894 0.115 7.35 2.5 9.39
6/19/2022 3:30:00 PM 19.04 66.272 0.115 7.35 2.64 9.35
6/19/2022 3:45:00 PM 19.21 66.578 0.116 7.34 2.58 9.3
6/19/2022 4:00:00 PM 19.35 66.83 0.116 7.34 2.57 9.26
6/19/2022 4:15:00 PM 19.5 67.1 0.116 7.33 2.52 9.21
6/19/2022 4:30:00 PM 19.57 67.226 0.116 7.32 2.62 9.16
6/19/2022 4:45:00 PM 19.63 67.334 0.116 7.31 2.72 9.12
6/19/2022 5:00:00 PM 19.64 67.352 0.116 7.31 2.72 9.07
6/19/2022 5:15:00 PM 19.59 67.262 0.116 7.31 2.71 9.03
6/19/2022 5:30:00 PM 19.55 67.19 0.116 7.3 2.8 8.99
6/19/2022 5:45:00 PM 19.48 67.064 0.116 7.28 2.92 8.95
6/19/2022 6:00:00 PM 19.41 66.938 0.116 7.29 2.96 8.91
6/19/2022 6:15:00 PM 19.28 66.704 0.116 7.27 3 8.87
6/19/2022 6:30:00 PM 19.13 66.434 0.116 7.27 2.97 8.84
6/19/2022 6:45:00 PM 18.9 66.02 0.116 7.26 2.76 8.81
6/19/2022 7:00:00 PM 18.66 65.588 0.116 7.25 2.66 8.77
6/19/2022 7:15:00 PM 18.36 65.048 0.116 7.23 2.66 8.72
6/19/2022 7:30:00 PM 18.11 64.598 0.116 7.21 2.69 8.67
6/19/2022 7:45:00 PM 17.83 64.094 0.117 7.2 3.08 8.63
6/19/2022 8:00:00 PM 17.58 63.644 0.117 7.19 3.09 8.59
6/19/2022 8:15:00 PM 17.34 63.212 0.117 7.17 2.89 8.54
6/19/2022 8:30:00 PM 17.14 62.852 0.117 7.1 3.01 8.48
6/19/2022 8:45:00 PM 16.95 62.51 0.117 7.14 3.17 8.41
6/19/2022 9:00:00 PM 16.78 62.204 0.117 7.12 3.02 8.35
6/19/2022 9:15:00 PM 16.61 61.898 0.117 7.11 3.68 8.3
6/19/2022 9:30:00 PM 16.46 61.628 0.117 7.09 3.76 8.25
6/19/2022 9:45:00 PM 16.31 61.358 0.118 7.08 3.42 8.21
6/19/2022 10:00:00 PM 16.14 61.052 0.118 7.07 4.04 8.2
6/19/2022 10:15:00 PM 16.03 60.854 0.118 7.04 4.34 8.16
6/19/2022 10:30:00 PM 15.89 60.602 0.118 7.06 4.73 8.14
6/19/2022 10:45:00 PM 15.73 60.314 0.118 7.05 4.42 8.17
6/19/2022 11:00:00 PM 15.6 60.08 0.118 7.04 3.95 8.16
6/19/2022 11:15:00 PM 15.48 59.864 0.118 7.03 4.46 8.16
6/19/2022 11:30:00 PM 15.35 59.63 0.118 7.03 4.88 8.17
6/19/2022 11:45:00 PM 15.23 59.414 0.118 7.03 4.36 8.19
6/20/2022 12:00:00 AM 15.09 59.162 0.118 7.04 3.91 8.25
6/20/2022 12:15:00 AM 15 59 0.118 7.02 4.07 8.23
6/20/2022 12:30:00 AM 14.89 58.802 0.118 7.02 4.28 8.25
6/20/2022 12:45:00 AM 14.78 58.604 0.118 7.02 4.02 8.27
6/20/2022 1:00:00 AM 14.67 58.406 0.118 7.02 4.03 8.3
6/20/2022 1:15:00 AM 14.57 58.226 0.118 7.02 4.16 8.33
6/20/2022 1:30:00 AM 14.48 58.064 0.118 7.02 3.57 8.35
6/20/2022 1:45:00 AM 14.38 57.884 0.118 7.01 4.05 8.34
6/20/2022 2:00:00 AM 14.28 57.704 0.118 7.01 3.72 8.39
6/20/2022 2:15:00 AM 14.18 57.524 0.118 7.01 3.59 8.41
6/20/2022 2:30:00 AM 14.09 57.362 0.118 7.01 3.43 8.43
6/20/2022 2:45:00 AM 14 57.2 0.118 6.95 4.11 8.43
6/20/2022 3:00:00 AM 13.91 57.038 0.118 7.02 4.13 8.5
6/20/2022 3:15:00 AM 13.83 56.894 0.118 7.01 4 8.5
6/20/2022 3:30:00 AM 13.74 56.732 0.118 7.01 4.34 8.5
6/20/2022 3:45:00 AM 13.66 56.588 0.118 7.01 3.96 8.54
6/20/2022 4:00:00 AM 13.57 56.426 0.118 7.02 3.52 8.59
6/20/2022 4:15:00 AM 13.49 56.282 0.119 7.01 3.95 8.59
6/20/2022 4:30:00 AM 13.41 56.138 0.119 7.01 3.63 8.6
6/20/2022 4:45:00 AM 13.32 55.976 0.119 7.01 3.37 8.65
6/20/2022 5:00:00 AM 13.24 55.832 0.119 7.01 3.18 8.67
6/20/2022 5:15:00 AM 13.15 55.67 0.119 7.01 3.02 8.7
6/20/2022 5:30:00 AM 13.08 55.544 0.119 7.01 2.94 8.7
6/20/2022 5:45:00 AM 13.01 55.418 0.119 6.97 2.8 8.7
6/20/2022 6:00:00 AM 12.93 55.274 0.119 7.01 2.65 8.75
6/20/2022 6:15:00 AM 12.87 55.166 0.119 6.94 3.26 8.77
6/20/2022 6:30:00 AM 12.81 55.058 0.119 7.01 2.68 8.78
6/20/2022 6:45:00 AM 12.74 54.932 0.119 7.01 2.48 8.84
6/20/2022 7:00:00 AM 12.69 54.842 0.119 7.01 2.57 8.92
6/20/2022 7:15:00 AM 12.66 54.788 0.119 7.01 2.51 8.93
6/20/2022 7:30:00 AM 12.63 54.734 0.118 7.02 2.44 9.06
6/20/2022 7:45:00 AM 12.62 54.716 0.118 7.03 2.37 9.09
6/20/2022 8:00:00 AM 12.63 54.734 0.118 7.03 2.3 9.14
6/20/2022 8:15:00 AM 12.65 54.77 0.118 7.04 2.26 9.21
6/20/2022 8:30:00 AM 12.68 54.824 0.118 7.05 2.31 9.27
6/20/2022 8:45:00 AM 12.73 54.914 0.118 7.02 2.18 9.35
6/20/2022 9:00:00 AM 12.78 55.004 0.118 7.08 2.25 9.39
6/20/2022 9:15:00 AM 12.84 55.112 0.118 7.07 2.28 9.44
6/20/2022 9:30:00 AM 12.94 55.292 0.118 7.09 2.23 9.5
6/20/2022 9:45:00 AM 13.03 55.454 0.118 7.11 2.24 9.55
6/20/2022 10:00:00 AM 13.17 55.706 0.118 7.11 2.26 9.59
6/20/2022 10:15:00 AM 13.34 56.012 0.118 7.12 2.24 9.63
6/20/2022 10:30:00 AM 13.57 56.426 0.118 7.14 2.25 9.68
6/20/2022 10:45:00 AM 13.82 56.876 0.117 7.14 2.17 9.72
6/20/2022 11:00:00 AM 14.11 57.398 0.117 7.16 2.15 9.73
6/20/2022 11:15:00 AM 14.39 57.902 0.117 7.17 2.32 9.73
6/20/2022 11:30:00 AM 14.7 58.46 0.117 7.15 2.23 9.74
6/20/2022 11:45:00 AM 15.06 59.108 0.117 7.19 2.16 9.74
6/20/2022 12:00:00 PM 15.42 59.756 0.117 7.2 2.1 9.74
6/20/2022 12:15:00 PM 15.72 60.296 0.117 7.21 2.23 9.73
6/20/2022 12:30:00 PM 16.09 60.962 0.117 7.21 2.17 9.71
6/20/2022 12:45:00 PM 16.46 61.628 0.117 7.21 2.14 9.69
6/20/2022 1:00:00 PM 16.85 62.33 0.117 7.23 2.15 9.65
6/20/2022 1:15:00 PM 17.25 63.05 0.117 7.24 2.17 9.63
6/20/2022 1:30:00 PM 17.69 63.842 0.117 7.21 2.23 9.6
6/20/2022 1:45:00 PM 18.12 64.616 0.117 7.25 2.17 9.54
6/20/2022 2:00:00 PM 18.51 65.318 0.117 7.26 2.25 9.51
6/20/2022 2:15:00 PM 18.99 66.182 0.116 7.25 2.35 9.45
6/20/2022 2:30:00 PM 19.37 66.866 0.116 7.27 2.33 9.41
6/20/2022 2:45:00 PM 19.72 67.496 0.116 7.28 2.4 9.35
6/20/2022 3:00:00 PM 19.98 67.964 0.116 7.28 2.33 9.31
6/20/2022 3:15:00 PM 20.24 68.432 0.116 7.21 2.41 9.25
6/20/2022 3:30:00 PM 20.47 68.846 0.116 7.29 2.47 9.21
6/20/2022 3:45:00 PM 20.67 69.206 0.116 7.28 2.43 9.16
6/20/2022 4:00:00 PM 20.83 69.494 0.117 7.28 2.52 9.09
6/20/2022 4:15:00 PM 20.99 69.782 0.117 7.28 2.71 9.07
6/20/2022 4:30:00 PM 21.07 69.926 0.117 7.28 2.63 9.01
6/20/2022 4:45:00 PM 21.11 69.998 0.117 7.26 2.82 8.95
6/20/2022 5:00:00 PM 21.11 69.998 0.117 7.26 2.82 8.89
6/20/2022 5:15:00 PM 21.07 69.926 0.117 7.26 2.87 8.85
6/20/2022 5:30:00 PM 21.02 69.836 0.117 7.24 2.79 8.8
6/20/2022 5:45:00 PM 20.97 69.746 0.117 7.23 3.27 8.77
6/20/2022 6:00:00 PM 20.89 69.602 0.117 7.24 3.08 8.73
6/20/2022 6:15:00 PM 20.79 69.422 0.117 7.24 2.79 8.7
6/20/2022 6:30:00 PM 20.64 69.152 0.117 7.24 2.83 8.68
6/20/2022 6:45:00 PM 20.49 68.882 0.117 7.23 2.78 8.63
6/20/2022 7:00:00 PM 20.27 68.486 0.117 7.22 2.82 8.57
6/20/2022 7:15:00 PM 20 68 0.117 7.2 3.26 8.51
6/20/2022 7:30:00 PM 19.75 67.55 0.117 7.19 3.1 8.45
6/20/2022 7:45:00 PM 19.51 67.118 0.118 7.17 3.35 8.39
6/20/2022 8:00:00 PM 19.27 66.686 0.118 7.16 3.02 8.32
6/20/2022 8:15:00 PM 19.03 66.254 0.118 7.07 3.7 8.24
6/20/2022 8:30:00 PM 18.8 65.84 0.118 7.13 3.41 8.17
6/20/2022 8:45:00 PM 18.57 65.426 0.118 7.11 3.28 8.11
6/20/2022 9:00:00 PM 18.39 65.102 0.118 7.09 4.16 8.03
6/20/2022 9:15:00 PM 18.18 64.724 0.118 7.08 3.7 7.97
6/20/2022 9:30:00 PM 17.99 64.382 0.118 7.07 3.86 7.92
6/20/2022 9:45:00 PM 17.82 64.076 0.118 7.05 3.95 7.87
6/20/2022 10:00:00 PM 17.66 63.788 0.119 7.04 5.2 7.83
6/20/2022 10:15:00 PM 17.5 63.5 0.119 7.03 4.43 7.79
6/20/2022 10:30:00 PM 17.35 63.23 0.119 6.96 4.38 7.79
6/20/2022 10:45:00 PM 17.2 62.96 0.117 7.02 6.22 7.77
6/20/2022 11:00:00 PM 17.04 62.672 0.119 7.01 4.29 7.79
6/20/2022 11:15:00 PM 16.91 62.438 0.119 7 4.47 7.78
6/20/2022 11:30:00 PM 16.76 62.168 0.119 7 4.75 7.78
6/20/2022 11:45:00 PM 16.64 61.952 0.119 6.99 7.78 7.76
6/21/2022 12:00:00 AM 16.48 61.664 0.119 7 7.53 7.8
6/21/2022 12:15:00 AM 16.35 61.43 0.119 6.99 5.31 7.8
6/21/2022 12:30:00 AM 16.21 61.178 0.119 6.99 4.45 7.86
6/21/2022 12:45:00 AM 16.11 60.998 0.119 6.96 4.94 7.85
6/21/2022 1:00:00 AM 15.97 60.746 0.119 6.99 4.4 7.91
6/21/2022 1:15:00 AM 15.87 60.566 0.119 6.94 4.46 7.92
6/21/2022 1:30:00 AM 15.75 60.35 0.119 6.96 4.19 7.95
6/21/2022 1:45:00 AM 15.65 60.17 0.119 6.98 4.34 7.95
6/21/2022 2:00:00 AM 15.53 59.954 0.119 6.96 4.87 7.98
6/21/2022 2:15:00 AM 15.43 59.774 0.119 6.98 4.81 7.98
6/21/2022 2:30:00 AM 15.34 59.612 0.119 6.98 4.15 8.01
6/21/2022 2:45:00 AM 15.25 59.45 0.119 6.95 4.45 8.03
6/21/2022 3:00:00 AM 15.18 59.324 0.119 6.97 5.79 8.02
6/21/2022 3:15:00 AM 15.07 59.126 0.119 6.89 4.47 8.09
6/21/2022 3:30:00 AM 14.97 58.946 0.119 6.99 3.97 8.11
6/21/2022 3:45:00 AM 14.89 58.802 0.119 6.99 4.39 8.13
6/21/2022 4:00:00 AM 14.79 58.622 0.119 6.99 4 8.19
6/21/2022 4:15:00 AM 14.72 58.496 0.119 6.98 4.01 8.18
6/21/2022 4:30:00 AM 14.64 58.352 0.119 6.99 3.74 8.22
6/21/2022 4:45:00 AM 14.58 58.244 0.119 6.98 4.05 8.2
6/21/2022 5:00:00 AM 14.5 58.1 0.119 6.98 3.77 8.23
6/21/2022 5:15:00 AM 14.44 57.992 0.119 6.98 3.69 8.23
6/21/2022 5:30:00 AM 14.36 57.848 0.119 6.99 3.41 8.3
6/21/2022 5:45:00 AM 14.3 57.74 0.119 6.98 3.03 8.28
6/21/2022 6:00:00 AM 14.25 57.65 0.119 6.98 2.98 8.32
6/21/2022 6:15:00 AM 14.19 57.542 0.119 6.98 2.81 8.35
6/21/2022 6:30:00 AM 14.15 57.47 0.119 6.99 3.12 8.38
6/21/2022 6:45:00 AM 14.12 57.416 0.119 6.96 3.37 8.4
6/21/2022 7:00:00 AM 14.09 57.362 0.119 7 3.19 8.48
6/21/2022 7:15:00 AM 14.08 57.344 0.119 7.01 2.93 8.57
6/21/2022 7:30:00 AM 14.08 57.344 0.119 7.02 2.69 8.64
6/21/2022 7:45:00 AM 14.09 57.362 0.119 7.02 2.55 8.7
6/21/2022 8:00:00 AM 14.1 57.38 0.119 7.03 2.54 8.74
6/21/2022 8:15:00 AM 14.11 57.398 0.119 7.04 2.39 8.84
6/21/2022 8:30:00 AM 14.14 57.452 0.119 7.04 2.43 8.87
6/21/2022 8:45:00 AM 14.16 57.488 0.119 7.04 2.45 8.9
6/21/2022 9:00:00 AM 14.21 57.578 0.119 7.06 2.37 9.03
6/21/2022 9:15:00 AM 14.25 57.65 0.119 7.07 2.3 9.07
6/21/2022 9:30:00 AM 14.33 57.794 0.119 7.08 2.31 9.15
6/21/2022 9:45:00 AM 14.41 57.938 0.118 7.09 2.34 9.24
6/21/2022 10:00:00 AM 14.51 58.118 0.118 7.12 2.31 9.34
6/21/2022 10:15:00 AM 14.61 58.298 0.118 7.13 2.32 9.41
6/21/2022 10:30:00 AM 14.77 58.586 0.118 7.15 2.25 9.49
6/21/2022 10:45:00 AM 14.87 58.766 0.118 7.16 2.33 9.53
6/21/2022 11:00:00 AM 14.96 58.928 0.118 7.17 2.19 9.55
6/21/2022 11:15:00 AM 15.03 59.054 0.118 7.17 2.29 9.57
6/21/2022 11:30:00 AM 15.12 59.216 0.117 7.18 2.25 9.59
6/21/2022 11:45:00 AM 15.25 59.45 0.117 7.2 2.38 9.64
6/21/2022 12:00:00 PM 15.43 59.774 0.117 7.21 2.24 9.66
6/21/2022 12:15:00 PM 15.63 60.134 0.117 7.22 2.28 9.68
6/21/2022 12:30:00 PM 15.8 60.44 0.117 7.24 2.29 9.7
6/21/2022 12:45:00 PM 15.94 60.692 0.117 7.25 2.25 9.72
6/21/2022 1:00:00 PM 16.07 60.926 0.117 7.26 2.29 9.72
6/21/2022 1:15:00 PM 16.15 61.07 0.117 7.26 2.24 9.71
6/21/2022 1:30:00 PM 16.24 61.232 0.117 7.26 2.18 9.69
6/21/2022 1:45:00 PM 16.33 61.394 0.117 7.27 2.38 9.69
6/21/2022 2:00:00 PM 16.43 61.574 0.117 7.27 2.34 9.67
6/21/2022 2:15:00 PM 16.57 61.826 0.117 7.28 2.38 9.67
6/21/2022 2:30:00 PM 16.72 62.096 0.116 7.21 2.26 9.67
6/21/2022 2:45:00 PM 17.14 62.852 0.116 7.28 2.25 9.63
6/21/2022 3:00:00 PM 17.4 63.32 0.116 7.3 2.23 9.64
6/21/2022 3:15:00 PM 17.59 63.662 0.116 7.3 2.25 9.64
6/21/2022 3:30:00 PM 17.76 63.968 0.116 7.31 2.22 9.65
6/21/2022 3:45:00 PM 17.9 64.22 0.116 7.29 2.22 9.61
6/21/2022 4:00:00 PM 18.02 64.436 0.116 7.32 2.16 9.59
6/21/2022 4:15:00 PM 18.08 64.544 0.116 7.32 2.3 9.55
6/21/2022 4:30:00 PM 18.09 64.562 0.116 7.31 2.2 9.48
6/21/2022 4:45:00 PM 18.12 64.616 0.116 7.31 2.32 9.43
6/21/2022 5:00:00 PM 18.13 64.634 0.116 7.31 2.29 9.4
6/21/2022 5:15:00 PM 18.2 64.76 0.116 7.3 2.3 9.35
6/21/2022 5:30:00 PM 18.18 64.724 0.116 7.3 2.23 9.32
6/21/2022 5:45:00 PM 18.17 64.706 0.116 7.29 2.31 9.28
6/21/2022 6:00:00 PM 18.2 64.76 0.116 7.28 2.37 9.23
6/21/2022 6:15:00 PM 18.33 64.994 0.116 7.27 2.38 9.21
6/21/2022 6:30:00 PM 18.35 65.03 0.116 7.27 2.38 9.19
6/21/2022 6:45:00 PM 18.36 65.048 0.116 7.26 2.49 9.14
6/21/2022 7:00:00 PM 18.31 64.958 0.116 7.21 2.33 9.08
6/21/2022 7:15:00 PM 18.24 64.832 0.116 7.25 2.39 9.01
6/21/2022 7:30:00 PM 18.18 64.724 0.116 7.19 2.4 8.93
6/21/2022 7:45:00 PM 18.12 64.616 0.116 7.22 2.4 8.84
6/21/2022 8:00:00 PM 18.04 64.472 0.117 7.18 2.5 8.76
6/21/2022 8:15:00 PM 17.96 64.328 0.117 7.18 3.36 8.67
6/21/2022 8:30:00 PM 17.85 64.13 0.117 7.16 3.66 8.57
6/21/2022 8:45:00 PM 17.74 63.932 0.117 7.14 3.39 8.47
6/21/2022 9:00:00 PM 17.64 63.752 0.117 7.1 3.54 8.38
6/21/2022 9:15:00 PM 17.53 63.554 0.117 7.11 3.72 8.28
6/21/2022 9:30:00 PM 17.42 63.356 0.118 7.09 3.62 8.19
6/21/2022 9:45:00 PM 17.33 63.194 0.118 7.07 4.29 8.11
6/21/2022 10:00:00 PM 17.23 63.014 0.118 7.06 4 8.05
6/21/2022 10:15:00 PM 17.16 62.888 0.118 7.04 4.04 7.99
6/21/2022 10:30:00 PM 17.07 62.726 0.118 7.03 4.59 7.94
6/21/2022 10:45:00 PM 16.99 62.582 0.118 7.03 4.29 7.92
6/21/2022 11:00:00 PM 16.93 62.474 0.118 7.02 4.73 7.89
6/21/2022 11:15:00 PM 16.85 62.33 0.118 7.01 4.39 7.89
6/21/2022 11:30:00 PM 16.79 62.222 0.118 7 4.46 7.85
6/21/2022 11:45:00 PM 16.71 62.078 0.118 7.01 4.24 7.87
6/22/2022 12:00:00 AM 16.64 61.952 0.118 7 3.9 7.87
6/22/2022 12:15:00 AM 16.59 61.862 0.119 6.99 4.77 7.85
6/22/2022 12:30:00 AM 16.5 61.7 0.119 7 4.02 7.87
6/22/2022 12:45:00 AM 16.44 61.592 0.119 6.99 4.11 7.86
6/22/2022 1:00:00 AM 16.37 61.466 0.119 6.99 4.59 7.88
6/22/2022 1:15:00 AM 16.32 61.376 0.119 6.98 4.14 7.86
6/22/2022 1:30:00 AM 16.26 61.268 0.119 6.87 4.66 7.87
6/22/2022 1:45:00 AM 16.18 61.124 0.119 6.99 4.5 7.9
6/22/2022 2:00:00 AM 16.14 61.052 0.119 6.98 4.59 7.89
6/22/2022 2:15:00 AM 16.08 60.944 0.119 6.98 4.31 7.89
6/22/2022 2:30:00 AM 16.03 60.854 0.119 6.98 4.12 7.9
6/22/2022 2:45:00 AM 15.97 60.746 0.119 6.98 4.21 7.93
6/22/2022 3:00:00 AM 15.92 60.656 0.119 6.97 4.22 7.92
6/22/2022 3:15:00 AM 15.89 60.602 0.119 6.97 4.4 7.92
6/22/2022 3:30:00 AM 15.84 60.512 0.119 6.87 4.88 7.94
6/22/2022 3:45:00 AM 15.78 60.404 0.119 6.98 3.96 7.96
6/22/2022 4:00:00 AM 15.74 60.332 0.119 6.97 4.1 7.98
6/22/2022 4:15:00 AM 15.71 60.278 0.119 6.97 3.9 7.98
6/22/2022 4:30:00 AM 15.66 60.188 0.119 6.97 4.23 7.98
6/22/2022 4:45:00 AM 15.62 60.116 0.119 6.97 3.93 7.99
6/22/2022 5:00:00 AM 15.58 60.044 0.119 6.96 3.79 7.97
6/22/2022 5:15:00 AM 15.54 59.972 0.119 6.96 4.71 8
6/22/2022 5:30:00 AM 15.51 59.918 0.119 6.9 3.77 8.02
6/22/2022 5:45:00 AM 15.48 59.864 0.119 6.97 3.98 8.02
6/22/2022 6:00:00 AM 15.44 59.792 0.119 6.97 4.36 8.05
6/22/2022 6:15:00 AM 15.42 59.756 0.119 6.89 3.8 8.08
6/22/2022 6:30:00 AM 15.4 59.72 0.119 6.99 3.36 8.11
6/22/2022 6:45:00 AM 15.39 59.702 0.119 6.98 3.19 8.13
6/22/2022 7:00:00 AM 15.39 59.702 0.119 6.96 2.95 8.17
6/22/2022 7:15:00 AM 15.39 59.702 0.119 7 2.7 8.23
6/22/2022 7:30:00 AM 15.4 59.72 0.119 7 2.72 8.3
6/22/2022 7:45:00 AM 15.44 59.792 0.119 7.03 2.65 8.42
6/22/2022 8:00:00 AM 15.5 59.9 0.119 7.02 2.59 8.47
6/22/2022 8:15:00 AM 15.59 60.062 0.119 7.03 2.47 8.61
6/22/2022 8:30:00 AM 15.69 60.242 0.119 7.06 2.38 8.7
6/22/2022 8:45:00 AM 15.79 60.422 0.118 7.08 2.26 8.81
6/22/2022 9:00:00 AM 15.87 60.566 0.118 7.09 2.33 8.88
6/22/2022 9:15:00 AM 15.95 60.71 0.118 7.1 2.29 8.93
6/22/2022 9:30:00 AM 16.03 60.854 0.118 7.11 2.38 9.02
6/22/2022 9:45:00 AM 16.12 61.016 0.118 7.13 2.33 9.08
6/22/2022 10:00:00 AM 16.23 61.214 0.118 7.15 2.19 9.17
6/22/2022 10:15:00 AM 16.4 61.52 0.118 7.16 2.11 9.25
6/22/2022 10:30:00 AM 16.54 61.772 0.117 7.16 2.28 9.29
6/22/2022 10:45:00 AM 16.72 62.096 0.117 7.2 2.23 9.35
6/22/2022 11:00:00 AM 16.96 62.528 0.117 7.22 2.16 9.4
6/22/2022 11:15:00 AM 17.21 62.978 0.117 7.23 2.22 9.42
6/22/2022 11:30:00 AM 17.52 63.536 0.117 7.22 2.24 9.45
6/22/2022 11:45:00 AM 17.86 64.148 0.117 7.26 2.36 9.46
6/22/2022 12:00:00 PM 18.24 64.832 0.117 7.26 2.29 9.48
6/22/2022 12:15:00 PM 18.6 65.48 0.117 7.28 2.2 9.47
6/22/2022 12:30:00 PM 18.88 65.984 0.117 7.29 2.34 9.46
6/22/2022 12:45:00 PM 19.13 66.434 0.117 7.29 2.32 9.44
6/22/2022 1:00:00 PM 19.32 66.776 0.117 7.3 2.47 9.41
6/22/2022 1:15:00 PM 19.46 67.028 0.117 7.31 2.32 9.38
6/22/2022 1:30:00 PM 19.62 67.316 0.117 7.31 2.38 9.34
6/22/2022 1:45:00 PM 19.82 67.676 0.117 7.32 2.38 9.32
6/22/2022 2:00:00 PM 20 68 0.116 7.33 2.27 9.3
6/22/2022 2:15:00 PM 20.16 68.288 0.116 7.33 2.28 9.26
6/22/2022 2:30:00 PM 20.33 68.594 0.116 7.34 2.21 9.23
6/22/2022 2:45:00 PM 20.53 68.954 0.116 7.34 2.13 9.2
6/22/2022 3:00:00 PM 20.67 69.206 0.116 7.35 2.22 9.18
6/22/2022 3:15:00 PM 20.76 69.368 0.116 7.35 2.22 9.14
6/22/2022 3:30:00 PM 20.8 69.44 0.116 7.35 2.27 9.09
6/22/2022 3:45:00 PM 20.83 69.494 0.116 7.3 2.33 9.05
6/22/2022 4:00:00 PM 20.8 69.44 0.116 7.32 2.45 8.98
6/22/2022 4:15:00 PM 20.74 69.332 0.116 7.32 2.51 8.9
6/22/2022 4:30:00 PM 20.68 69.224 0.116 7.31 2.65 8.83
6/22/2022 4:45:00 PM 20.58 69.044 0.116 7.29 2.77 8.73
6/22/2022 5:00:00 PM 20.47 68.846 0.116 7.28 2.6 8.66
6/22/2022 5:15:00 PM 20.35 68.63 0.116 7.26 2.74 8.57
6/22/2022 5:30:00 PM 20.24 68.432 0.117 7.23 2.61 8.47
6/22/2022 5:45:00 PM 20.11 68.198 0.117 7.22 2.5 8.38
6/22/2022 6:00:00 PM 19.99 67.982 0.117 7.2 2.39 8.3
6/22/2022 6:15:00 PM 19.87 67.766 0.117 7.17 2.48 8.23
6/22/2022 6:30:00 PM 19.76 67.568 0.117 7.17 2.53 8.16
6/22/2022 6:45:00 PM 19.63 67.334 0.117 7.15 2.56 8.09
6/22/2022 7:00:00 PM 19.52 67.136 0.117 7.13 2.94 8.03
6/22/2022 7:15:00 PM 19.39 66.902 0.117 7.12 2.76 7.99
6/22/2022 7:30:00 PM 19.3 66.74 0.117 7.02 2.96 7.93
6/22/2022 7:45:00 PM 19.19 66.542 0.117 7.1 3.19 7.86
6/22/2022 8:00:00 PM 19.06 66.308 0.118 7.08 3.29 7.8
6/22/2022 8:15:00 PM 18.96 66.128 0.118 7.07 3.37 7.74
6/22/2022 8:30:00 PM 18.85 65.93 0.118 7.06 3.43 7.69
6/22/2022 8:45:00 PM 18.74 65.732 0.118 7.06 3.44 7.64
6/22/2022 9:00:00 PM 18.63 65.534 0.118 7.05 3.92 7.61
6/22/2022 9:15:00 PM 18.53 65.354 0.118 7.03 3.61 7.57
6/22/2022 9:30:00 PM 18.44 65.192 0.118 6.94 4.12 7.53
6/22/2022 9:45:00 PM 18.35 65.03 0.118 7.03 4.19 7.51
6/22/2022 10:00:00 PM 18.26 64.868 0.118 7.01 4.27 7.48
6/22/2022 10:15:00 PM 18.18 64.724 0.119 7.01 4.31 7.46
6/22/2022 10:30:00 PM 18.1 64.58 0.119 7 4.72 7.44
6/22/2022 10:45:00 PM 18.03 64.454 0.119 7 4.15 7.44
6/22/2022 11:00:00 PM 17.96 64.328 0.119 7 4.4 7.44
6/22/2022 11:15:00 PM 17.88 64.184 0.119 6.93 4.96 7.45
6/22/2022 11:30:00 PM 17.83 64.094 0.119 6.97 4.68 7.44
6/22/2022 11:45:00 PM 17.76 63.968 0.119 7 4.29 7.46
6/23/2022 12:00:00 AM 17.71 63.878 0.119 6.99 4.18 7.46
6/23/2022 12:15:00 AM 17.65 63.77 0.119 6.98 4.25 7.46
6/23/2022 12:30:00 AM 17.6 63.68 0.119 6.99 4.12 7.46
6/23/2022 12:45:00 AM 17.55 63.59 0.119 6.99 4.4 7.47
6/23/2022 1:00:00 AM 17.49 63.482 0.119 6.99 3.65 7.5
6/23/2022 1:15:00 AM 17.45 63.41 0.119 6.98 4.3 7.48
6/23/2022 1:30:00 AM 17.4 63.32 0.119 6.99 4.44 7.5
6/23/2022 1:45:00 AM 17.36 63.248 0.119 6.98 4.57 7.48
6/23/2022 2:00:00 AM 17.3 63.14 0.119 6.99 4.27 7.53
6/23/2022 2:15:00 AM 17.27 63.086 0.119 6.99 4.48 7.52
6/23/2022 2:30:00 AM 17.22 62.996 0.119 7 4.13 7.56
6/23/2022 2:45:00 AM 17.18 62.924 0.119 6.95 3.85 7.56
6/23/2022 3:00:00 AM 17.14 62.852 0.119 7.01 3.99 7.61
6/23/2022 3:15:00 AM 17.09 62.762 0.119 7.01 3.88 7.66
6/23/2022 3:30:00 AM 17.06 62.708 0.119 7.04 4.09 7.72
6/23/2022 3:45:00 AM 17.03 62.654 0.119 7.07 3.89 7.82
6/23/2022 4:00:00 AM 17.01 62.618 0.119 7.08 4.49 7.86
6/23/2022 4:15:00 AM 16.98 62.564 0.12 7.08 4.19 7.87
6/23/2022 4:30:00 AM 16.96 62.528 0.12 7.09 4.3 7.91
6/23/2022 4:45:00 AM 16.94 62.492 0.122 7.1 4.06 7.94
6/23/2022 5:00:00 AM 16.9 62.42 0.122 7.12 4.38 7.99
6/23/2022 5:15:00 AM 16.88 62.384 0.123 7.12 4.32 7.99
6/23/2022 5:30:00 AM 16.84 62.312 0.123 7.13 4.19 8.02
6/23/2022 5:45:00 AM 16.81 62.258 0.124 7.12 3.95 8.03
6/23/2022 6:00:00 AM 16.78 62.204 0.124 7.12 4 8.03
6/23/2022 6:15:00 AM 16.75 62.15 0.124 7.13 4.4 8.07
6/23/2022 6:30:00 AM 16.72 62.096 0.124 7.13 4.91 8.08
6/23/2022 6:45:00 AM 16.68 62.024 0.123 7.12 5.48 8.09
6/23/2022 7:00:00 AM 16.64 61.952 0.123 7.12 6.04 8.12
6/23/2022 7:15:00 AM 16.61 61.898 0.122 7.11 5.99 8.15
6/23/2022 7:30:00 AM 16.58 61.844 0.121 7.13 5.69 8.18
6/23/2022 7:45:00 AM 16.55 61.79 0.121 7.14 5.39 8.22
6/23/2022 8:00:00 AM 16.52 61.736 0.121 7.14 4.89 8.26
6/23/2022 8:15:00 AM 16.5 61.7 0.12 7.15 4.68 8.31
6/23/2022 8:30:00 AM 16.48 61.664 0.12 7.15 4.4 8.36
6/23/2022 8:45:00 AM 16.47 61.646 0.119 7.16 4.14 8.39
6/23/2022 9:00:00 AM 16.46 61.628 0.119 7.16 4.5 8.43
6/23/2022 9:15:00 AM 16.46 61.628 0.118 7.17 5.29 8.51
6/23/2022 9:30:00 AM 16.46 61.628 0.117 7.19 4.79 8.61
6/23/2022 9:45:00 AM 16.47 61.646 0.117 7.2 4.47 8.65
6/23/2022 10:00:00 AM 16.5 61.7 0.117 7.21 4.06 8.73
6/23/2022 10:15:00 AM 16.54 61.772 0.116 7.22 3.96 8.81
6/23/2022 10:30:00 AM 16.62 61.916 0.116 7.24 4.1 8.91
6/23/2022 10:45:00 AM 16.77 62.186 0.116 7.29 3.78 9.05
6/23/2022 11:00:00 AM 16.9 62.42 0.116 7.28 3.64 9.11
6/23/2022 11:15:00 AM 17.04 62.672 0.116 7.32 3.55 9.18
6/23/2022 11:30:00 AM 17.16 62.888 0.116 7.35 3.55 9.25
6/23/2022 11:45:00 AM 17.25 63.05 0.116 7.37 3.4 9.29
6/23/2022 12:00:00 PM 17.28 63.104 0.116 7.38 3.35 9.28
6/23/2022 12:15:00 PM 17.28 63.104 0.116 7.38 3.21 9.26
6/23/2022 12:30:00 PM 17.26 63.068 0.116 7.38 3.18 9.22
6/23/2022 12:45:00 PM 17.23 63.014 0.116 7.37 3.18 9.16
6/23/2022 1:00:00 PM 17.22 62.996 0.117 7.35 3.02 9.13
6/23/2022 1:15:00 PM 17.22 62.996 0.117 7.37 3.02 9.12
6/23/2022 1:30:00 PM 17.23 63.014 0.117 7.37 2.87 9.12
6/23/2022 1:45:00 PM 17.22 62.996 0.117 7.37 2.87 9.12
6/23/2022 2:00:00 PM 17.22 62.996 0.117 7.38 2.79 9.14
6/23/2022 2:15:00 PM 17.21 62.978 0.117 7.38 2.93 9.13
6/23/2022 2:30:00 PM 17.23 63.014 0.117 7.35 3.14 9.12
6/23/2022 2:45:00 PM 17.31 63.158 0.117 7.4 4.35 9.17
6/23/2022 3:00:00 PM 17.53 63.554 0.117 7.39 4.59 9.19
6/23/2022 3:15:00 PM 17.69 63.842 0.117 7.41 4.72 9.25
6/23/2022 3:30:00 PM 17.86 64.148 0.117 7.43 4.31 9.28
6/23/2022 3:45:00 PM 18.03 64.454 0.117 7.45 4.16 9.31
6/23/2022 4:00:00 PM 18.08 64.544 0.117 7.46 4.43 9.29
6/23/2022 4:15:00 PM 18.12 64.616 0.117 7.46 3.69 9.28
6/23/2022 4:30:00 PM 18.2 64.76 0.117 7.47 3.45 9.27
6/23/2022 4:45:00 PM 18.22 64.796 0.117 7.46 3.24 9.25
6/23/2022 5:00:00 PM 18.25 64.85 0.117 7.47 3.17 9.23
6/23/2022 5:15:00 PM 18.27 64.886 0.117 7.47 3 9.23
6/23/2022 5:30:00 PM 18.23 64.814 0.117 7.46 3.05 9.19
6/23/2022 5:45:00 PM 18.21 64.778 0.117 7.44 2.94 9.15
6/23/2022 6:00:00 PM 18.19 64.742 0.118 7.44 3.01 9.12
6/23/2022 6:15:00 PM 18.19 64.742 0.118 7.44 3 9.09
6/23/2022 6:30:00 PM 18.18 64.724 0.118 7.43 2.94 9.06
6/23/2022 6:45:00 PM 18.13 64.634 0.118 7.41 2.98 9.01
6/23/2022 7:00:00 PM 18.09 64.562 0.118 7.39 3.1 8.95
6/23/2022 7:15:00 PM 18.04 64.472 0.118 7.37 3.15 8.88
6/23/2022 7:30:00 PM 17.98 64.364 0.118 7.35 2.92 8.81
6/23/2022 7:45:00 PM 17.91 64.238 0.119 7.32 3.51 8.73
6/23/2022 8:00:00 PM 17.82 64.076 0.119 7.31 3.05 8.66
6/23/2022 8:15:00 PM 17.76 63.968 0.119 7.28 2.99 8.57
6/23/2022 8:30:00 PM 17.69 63.842 0.119 7.23 3.11 8.49
6/23/2022 8:45:00 PM 17.63 63.734 0.119 7.24 3.41 8.43
6/23/2022 9:00:00 PM 17.57 63.626 0.119 7.22 3.37 8.36
6/23/2022 9:15:00 PM 17.52 63.536 0.12 7.2 3.94 8.29
6/23/2022 9:30:00 PM 17.46 63.428 0.12 7.18 3.86 8.23
6/23/2022 9:45:00 PM 17.41 63.338 0.12 7.16 3.86 8.18
6/23/2022 10:00:00 PM 17.36 63.248 0.12 7.14 4.3 8.12
6/23/2022 10:15:00 PM 17.31 63.158 0.12 7.14 4.03 8.11
6/23/2022 10:30:00 PM 17.27 63.086 0.12 7.13 4.49 8.1
6/23/2022 10:45:00 PM 17.24 63.032 0.12 7.13 4.25 8.08
6/23/2022 11:00:00 PM 17.2 62.96 0.12 7.12 4.42 8.06
6/23/2022 11:15:00 PM 17.16 62.888 0.12 7.12 4.76 8.05
6/23/2022 11:30:00 PM 17.11 62.798 0.121 7.11 4.6 8.05
6/23/2022 11:45:00 PM 17.07 62.726 0.121 7.11 4.48 8.05
6/24/2022 12:00:00 AM 17.02 62.636 0.121 7.11 4.61 8.05
6/24/2022 12:15:00 AM 16.96 62.528 0.121 7.11 4.57 8.06
6/24/2022 12:30:00 AM 16.9 62.42 0.121 7.09 4.31 8.06
6/24/2022 12:45:00 AM 16.84 62.312 0.121 7.09 6.5 8.06
6/24/2022 1:00:00 AM 16.78 62.204 0.121 7.11 4.59 8.07
6/24/2022 1:15:00 AM 16.7 62.06 0.121 7.11 4.21 8.1
6/24/2022 1:30:00 AM 16.64 61.952 0.121 7.1 4.69 8.09
6/24/2022 1:45:00 AM 16.58 61.844 0.121 7.1 4.88 8.1
6/24/2022 2:00:00 AM 16.51 61.718 0.121 7.1 4.43 8.12
6/24/2022 2:15:00 AM 16.45 61.61 0.121 7.09 4.4 8.12
6/24/2022 2:30:00 AM 16.38 61.484 0.121 7.09 4.66 8.13
6/24/2022 2:45:00 AM 16.31 61.358 0.121 7.1 4.3 8.17
6/24/2022 3:00:00 AM 16.25 61.25 0.121 7.1 3.86 8.19
6/24/2022 3:15:00 AM 16.2 61.16 0.122 7.09 4.36 8.17
6/24/2022 3:30:00 AM 16.15 61.07 0.122 7.09 4.53 8.18
6/24/2022 3:45:00 AM 16.1 60.98 0.122 7.09 4.04 8.18
6/24/2022 4:00:00 AM 16.04 60.872 0.122 7.09 4.56 8.19
6/24/2022 4:15:00 AM 15.98 60.764 0.122 7.09 4.27 8.2
6/24/2022 4:30:00 AM 15.92 60.656 0.122 7.09 4.66 8.19
6/24/2022 4:45:00 AM 15.85 60.53 0.122 7.09 5.31 8.22
6/24/2022 5:00:00 AM 15.8 60.44 0.122 7.09 5.45 8.21
6/24/2022 5:15:00 AM 15.74 60.332 0.122 7.09 5.36 8.23
6/24/2022 5:30:00 AM 15.68 60.224 0.122 7.09 4.55 8.24
6/24/2022 5:45:00 AM 15.63 60.134 0.122 7.09 4.26 8.26
6/24/2022 6:00:00 AM 15.57 60.026 0.122 7.09 4.17 8.29
6/24/2022 6:15:00 AM 15.54 59.972 0.122 7.09 4.5 8.3
6/24/2022 6:30:00 AM 15.5 59.9 0.122 7.1 4.02 8.37
6/24/2022 6:45:00 AM 15.49 59.882 0.122 7.05 3.84 8.39
6/24/2022 7:00:00 AM 15.49 59.882 0.122 7.12 4.33 8.48
6/24/2022 7:15:00 AM 15.49 59.882 0.122 7.12 3.7 8.52
6/24/2022 7:30:00 AM 15.51 59.918 0.122 7.13 3.15 8.59
6/24/2022 7:45:00 AM 15.54 59.972 0.122 7.09 4.3 8.65
6/24/2022 8:00:00 AM 15.59 60.062 0.122 7.15 4.19 8.74
6/24/2022 8:15:00 AM 15.63 60.134 0.122 7.16 3.98 8.82
6/24/2022 8:30:00 AM 15.69 60.242 0.122 7.18 3.69 8.91
6/24/2022 8:45:00 AM 15.77 60.386 0.122 7.18 3.58 8.99
6/24/2022 9:00:00 AM 15.85 60.53 0.121 7.21 3.5 9.06
6/24/2022 9:15:00 AM 15.95 60.71 0.121 7.23 3.06 9.13
6/24/2022 9:30:00 AM 16.05 60.89 0.121 7.25 3 9.2
6/24/2022 9:45:00 AM 16.14 61.052 0.121 7.27 2.88 9.26
6/24/2022 10:00:00 AM 16.29 61.322 0.121 7.28 2.58 9.32
6/24/2022 10:15:00 AM 16.47 61.646 0.121 7.3 2.59 9.33
6/24/2022 10:30:00 AM 16.67 62.006 0.121 7.31 2.75 9.34
6/24/2022 10:45:00 AM 16.91 62.438 0.121 7.31 2.8 9.34
6/24/2022 11:00:00 AM 17.19 62.942 0.121 7.33 2.72 9.36
6/24/2022 11:15:00 AM 17.43 63.374 0.121 7.32 2.89 9.34
6/24/2022 11:30:00 AM 17.69 63.842 0.121 7.33 2.62 9.33
6/24/2022 11:45:00 AM 17.89 64.202 0.121 7.33 2.8 9.32
6/24/2022 12:00:00 PM 18.14 64.652 0.121 7.34 2.86 9.31
6/24/2022 12:15:00 PM 18.43 65.174 0.121 7.35 2.52 9.31
6/24/2022 12:30:00 PM 18.66 65.588 0.121 7.36 2.47 9.28
6/24/2022 12:45:00 PM 18.94 66.092 0.12 7.37 2.49 9.26
6/24/2022 1:00:00 PM 19.21 66.578 0.12 7.38 2.59 9.23
6/24/2022 1:15:00 PM 19.58 67.244 0.12 7.38 2.74 9.19
6/24/2022 1:30:00 PM 19.92 67.856 0.12 7.38 2.6 9.17
6/24/2022 1:45:00 PM 20.28 68.504 0.12 7.4 2.77 9.13
6/24/2022 2:00:00 PM 20.64 69.152 0.12 7.41 2.6 9.1
6/24/2022 2:15:00 PM 20.98 69.764 0.12 7.39 2.57 9.05
6/24/2022 2:30:00 PM 21.33 70.394 0.12 7.42 2.72 9.02
6/24/2022 2:45:00 PM 21.54 70.772 0.12 7.42 2.72 8.99
6/24/2022 3:00:00 PM 21.63 70.934 0.12 7.42 2.53 8.95
6/24/2022 3:15:00 PM 21.72 71.096 0.12 7.41 2.59 8.91
6/24/2022 3:30:00 PM 21.99 71.582 0.12 7.41 2.66 8.8
6/24/2022 3:45:00 PM 22.16 71.888 0.12 7.41 2.89 8.77
6/24/2022 4:00:00 PM 22.21 71.978 0.12 7.4 2.69 8.71
6/24/2022 4:15:00 PM 22.28 72.104 0.12 7.39 2.78 8.68
6/24/2022 4:30:00 PM 22.33 72.194 0.12 7.39 3.03 8.63
6/24/2022 4:45:00 PM 22.28 72.104 0.12 7.38 2.96 8.59
6/24/2022 5:00:00 PM 22.38 72.284 0.12 7.37 3.1 8.56
6/24/2022 5:15:00 PM 22.39 72.302 0.12 7.37 2.91 8.53
6/24/2022 5:30:00 PM 22.4 72.32 0.12 7.35 3.05 8.5
6/24/2022 5:45:00 PM 22.36 72.248 0.12 7.36 3.02 8.5
6/24/2022 6:00:00 PM 22.37 72.266 0.12 7.36 2.94 8.46
6/24/2022 6:15:00 PM 22.32 72.176 0.12 7.34 3.03 8.39
6/24/2022 6:30:00 PM 22.23 72.014 0.12 7.34 2.91 8.35
6/24/2022 6:45:00 PM 22.08 71.744 0.12 7.32 2.73 8.29
6/24/2022 7:00:00 PM 21.9 71.42 0.12 7.3 2.78 8.23
6/24/2022 7:15:00 PM 21.61 70.898 0.12 7.29 2.68 8.15
6/24/2022 7:30:00 PM 21.41 70.538 0.12 7.26 3.48 8.07
6/24/2022 7:45:00 PM 21.21 70.17799 0.121 7.24 3.24 8.01
6/24/2022 8:00:00 PM 21.01 69.818 0.121 7.22 3.1 7.94
6/24/2022 8:15:00 PM 20.79 69.422 0.121 7.21 3.08 7.86
6/24/2022 8:30:00 PM 20.64 69.152 0.121 7.19 3.81 7.82
6/24/2022 8:45:00 PM 20.45 68.81 0.121 7.17 4.29 7.75
6/24/2022 9:00:00 PM 20.27 68.486 0.121 7.11 4.02 7.67
6/24/2022 9:15:00 PM 20.11 68.198 0.121 7.13 4.68 7.6
6/24/2022 9:30:00 PM 19.95 67.91 0.121 7.12 4.19 7.53
6/24/2022 9:45:00 PM 19.81 67.658 0.121 7.1 4.3 7.5
6/24/2022 10:00:00 PM 19.66 67.388 0.121 7.02 4.29 7.45
6/24/2022 10:15:00 PM 19.55 67.19 0.121 7.07 4.35 7.4
6/24/2022 10:30:00 PM 19.4 66.92 0.121 7.07 4.12 7.4
6/24/2022 10:45:00 PM 19.28 66.704 0.122 6.98 4.35 7.38
6/24/2022 11:00:00 PM 19.15 66.47 0.122 7.06 4.5 7.39
6/24/2022 11:15:00 PM 19.01 66.218 0.122 7.05 4.24 7.4
6/24/2022 11:30:00 PM 18.92 66.056 0.122 7.04 4.75 7.37
6/24/2022 11:45:00 PM 18.79 65.82201 0.122 7.04 4.37 7.4
6/25/2022 12:00:00 AM 18.69 65.642 0.122 7.03 5.04 7.39
6/25/2022 12:15:00 AM 18.57 65.426 0.122 7.02 4.85 7.4
6/25/2022 12:30:00 AM 18.45 65.21 0.122 7.02 5.1 7.42
6/25/2022 12:45:00 AM 18.36 65.048 0.122 7.03 4.98 7.44
6/25/2022 1:00:00 AM 18.26 64.868 0.122 7.03 4.67 7.45
6/25/2022 1:15:00 AM 18.16 64.688 0.122 7.02 4.35 7.46
6/25/2022 1:30:00 AM 18.06 64.508 0.122 7.02 4.36 7.48
6/25/2022 1:45:00 AM 17.97 64.346 0.122 7.02 4.9 7.5
6/25/2022 2:00:00 AM 17.88 64.184 0.122 7.02 3.96 7.52
6/25/2022 2:15:00 AM 17.78 64.004 0.122 7.02 4.31 7.54
6/25/2022 2:30:00 AM 17.69 63.842 0.122 7.02 4.53 7.56
6/25/2022 2:45:00 AM 17.62 63.716 0.122 7.02 3.85 7.58
6/25/2022 3:00:00 AM 17.52 63.536 0.122 7.02 3.85 7.6
6/25/2022 3:15:00 AM 17.45 63.41 0.122 7.02 4.44 7.58
6/25/2022 3:30:00 AM 17.36 63.248 0.122 7.02 4.03 7.64
6/25/2022 3:45:00 AM 17.27 63.086 0.122 7.02 4.43 7.66
6/25/2022 4:00:00 AM 17.2 62.96 0.122 7.02 4.86 7.65
6/25/2022 4:15:00 AM 17.11 62.798 0.122 7.02 4.41 7.68
6/25/2022 4:30:00 AM 17.03 62.654 0.122 7.02 4.55 7.69
6/25/2022 4:45:00 AM 16.94 62.492 0.122 7.02 4.06 7.72
6/25/2022 5:00:00 AM 16.85 62.33 0.122 7.01 3.87 7.76
6/25/2022 5:15:00 AM 16.77 62.186 0.122 7.02 4.72 7.77
6/25/2022 5:30:00 AM 16.7 62.06 0.122 7.02 3.71 7.8
6/25/2022 5:45:00 AM 16.64 61.952 0.122 7.01 6 7.74
6/25/2022 6:00:00 AM 16.56 61.808 0.122 7.01 6.45 7.78
6/25/2022 6:15:00 AM 16.48 61.664 0.122 7.01 4.85 7.84
6/25/2022 6:30:00 AM 16.43 61.574 0.122 7.02 3.79 7.88
6/25/2022 6:45:00 AM 16.37 61.466 0.122 7.02 3.95 7.94
6/25/2022 7:00:00 AM 16.33 61.394 0.122 7.02 3.63 8
6/25/2022 7:15:00 AM 16.3 61.34 0.122 7.03 3.03 8.04
6/25/2022 7:30:00 AM 16.27 61.286 0.122 7.04 2.85 8.11
6/25/2022 7:45:00 AM 16.25 61.25 0.122 7.03 2.81 8.15
6/25/2022 8:00:00 AM 16.24 61.232 0.121 6.99 2.8 8.23
6/25/2022 8:15:00 AM 16.26 61.268 0.121 7.06 2.56 8.29
6/25/2022 8:30:00 AM 16.28 61.304 0.121 7.07 2.43 8.35
6/25/2022 8:45:00 AM 16.31 61.358 0.121 7.07 2.43 8.41
6/25/2022 9:00:00 AM 16.36 61.448 0.121 7.09 2.49 8.47
6/25/2022 9:15:00 AM 16.42 61.556 0.121 7.1 2.57 8.53
6/25/2022 9:30:00 AM 16.5 61.7 0.121 7.1 2.4 8.58
6/25/2022 9:45:00 AM 16.58 61.844 0.121 7.11 2.35 8.62
6/25/2022 10:00:00 AM 16.72 62.096 0.121 7.12 2.4 8.69
6/25/2022 10:15:00 AM 16.85 62.33 0.121 7.13 2.29 8.74
6/25/2022 10:30:00 AM 17.03 62.654 0.12 7.14 2.35 8.79
6/25/2022 10:45:00 AM 17.22 62.996 0.12 7.1 2.38 8.84
6/25/2022 11:00:00 AM 17.51 63.518 0.12 7.17 2.26 8.88
6/25/2022 11:15:00 AM 17.79 64.022 0.12 7.12 2.33 8.92
6/25/2022 11:30:00 AM 18.13 64.634 0.12 7.2 2.24 8.95
6/25/2022 11:45:00 AM 18.4 65.12 0.12 7.21 2.28 8.96
6/25/2022 12:00:00 PM 18.77 65.786 0.12 7.21 2.51 8.98
6/25/2022 12:15:00 PM 19.11 66.398 0.12 7.23 2.43 9
6/25/2022 12:30:00 PM 19.47 67.046 0.12 7.24 2.27 9.01
6/25/2022 12:45:00 PM 19.82 67.676 0.12 7.25 2.15 9
6/25/2022 1:00:00 PM 20.2 68.36 0.119 7.26 2.35 8.99
6/25/2022 1:15:00 PM 20.57 69.026 0.119 7.26 2.34 8.98
6/25/2022 1:30:00 PM 20.96 69.728 0.119 7.28 2.35 8.95
6/25/2022 1:45:00 PM 21.38 70.484 0.119 7.29 2.21 8.92
6/25/2022 2:00:00 PM 21.79 71.222 0.119 7.29 2.22 8.88
6/25/2022 2:15:00 PM 22.23 72.014 0.119 7.3 2.24 8.82
6/25/2022 2:30:00 PM 22.64 72.752 0.119 7.3 2.26 8.77
6/25/2022 2:45:00 PM 22.96 73.328 0.119 7.31 2.18 8.74
6/25/2022 3:00:00 PM 23.26 73.868 0.119 7.31 2.22 8.7
6/25/2022 3:15:00 PM 23.51 74.318 0.119 7.31 2.33 8.66
6/25/2022 3:30:00 PM 23.77 74.786 0.119 7.3 2.37 8.61
6/25/2022 3:45:00 PM 23.95 75.11 0.119 7.31 2.42 8.57
6/25/2022 4:00:00 PM 24.14 75.452 0.119 7.28 2.53 8.53
6/25/2022 4:15:00 PM 24.25 75.65 0.119 7.29 2.55 8.46
6/25/2022 4:30:00 PM 24.36 75.848 0.119 7.3 2.77 8.39
6/25/2022 4:45:00 PM 24.43 75.974 0.119 7.29 2.86 8.32
6/25/2022 5:00:00 PM 24.43 75.974 0.119 7.28 2.9 8.27
6/25/2022 5:15:00 PM 24.46 76.028 0.119 7.27 2.85 8.2
6/25/2022 5:30:00 PM 24.46 76.028 0.12 7.26 2.76 8.12
6/25/2022 5:45:00 PM 24.42 75.956 0.12 7.25 2.94 8.06
6/25/2022 6:00:00 PM 24.37 75.866 0.12 7.24 2.9 8.01
6/25/2022 6:15:00 PM 24.27 75.686 0.12 7.24 2.76 7.96
6/25/2022 6:30:00 PM 24.15 75.47 0.12 7.23 2.97 7.89
6/25/2022 6:45:00 PM 24 75.2 0.12 7.22 2.9 7.85
6/25/2022 7:00:00 PM 23.81 74.858 0.12 7.21 2.98 7.78
6/25/2022 7:15:00 PM 23.57 74.426 0.12 7.19 2.97 7.67
6/25/2022 7:30:00 PM 23.33 73.994 0.12 7.17 3.51 7.58
6/25/2022 7:45:00 PM 23.06 73.508 0.12 7.16 3.27 7.52
6/25/2022 8:00:00 PM 22.81 73.058 0.12 7.14 3.65 7.47
6/25/2022 8:15:00 PM 22.57 72.626 0.12 7.13 3.1 7.39
6/25/2022 8:30:00 PM 22.33 72.194 0.121 7.12 3.07 7.33
6/25/2022 8:45:00 PM 22.12 71.816 0.121 7.1 3.38 7.25
6/25/2022 9:00:00 PM 21.92 71.456 0.121 7.08 3.75 7.17
6/25/2022 9:15:00 PM 21.74 71.132 0.121 7.07 3.68 7.1
6/25/2022 9:30:00 PM 21.52 70.736 0.121 7.05 3.8 7.05
6/25/2022 9:45:00 PM 21.36 70.448 0.121 7.04 5.15 7
6/25/2022 10:00:00 PM 21.2 70.16 0.121 7.03 4.54 6.94
6/25/2022 10:15:00 PM 21.04 69.872 0.12 7.02 4.88 6.89
6/25/2022 10:30:00 PM 20.89 69.602 0.121 7.01 4.12 6.89
6/25/2022 10:45:00 PM 20.74 69.332 0.121 7.01 3.98 6.91
6/25/2022 11:00:00 PM 20.59 69.062 0.121 7 9.21 6.9
6/25/2022 11:15:00 PM 20.46 68.828 0.121 7 4.68 6.92
6/25/2022 11:30:00 PM 20.32 68.576 0.121 7 4.53 6.92
6/25/2022 11:45:00 PM 20.18 68.324 0.121 6.99 5.59 6.92
6/26/2022 12:00:00 AM 20.06 68.108 0.121 6.99 4.31 6.94
6/26/2022 12:15:00 AM 19.93 67.874 0.121 6.99 4.38 6.95
6/26/2022 12:30:00 AM 19.83 67.694 0.122 6.98 6.74 6.94
6/26/2022 12:45:00 AM 19.7 67.46 0.122 6.98 7.54 6.99
6/26/2022 1:00:00 AM 19.6 67.28 0.122 6.89 4.49 7
6/26/2022 1:15:00 AM 19.48 67.064 0.122 6.98 4.55 7.04
6/26/2022 1:30:00 AM 19.38 66.884 0.122 6.98 4.63 7.03
6/26/2022 1:45:00 AM 19.29 66.722 0.122 6.98 4.37 7.04
6/26/2022 2:00:00 AM 19.19 66.542 0.122 6.97 6.94 7.04
6/26/2022 2:15:00 AM 19.09 66.362 0.122 6.98 5.01 7.08
6/26/2022 2:30:00 AM 19 66.2 0.122 6.97 4.82 7.08
6/26/2022 2:45:00 AM 18.92 66.056 0.121 6.97 6.27 7.08
6/26/2022 3:00:00 AM 18.84 65.912 0.122 6.96 4.5 7.08
6/26/2022 3:15:00 AM 18.74 65.732 0.122 6.94 4.58 7.15
6/26/2022 3:30:00 AM 18.68 65.624 0.122 6.97 4.39 7.15
6/26/2022 3:45:00 AM 18.6 65.48 0.122 6.96 4.61 7.18
6/26/2022 4:00:00 AM 18.53 65.354 0.122 6.97 4.44 7.2
6/26/2022 4:15:00 AM 18.46 65.228 0.122 6.97 3.83 7.22
6/26/2022 4:30:00 AM 18.37 65.066 0.122 6.97 6.49 7.23
6/26/2022 4:45:00 AM 18.31 64.958 0.122 6.96 4.88 7.22
6/26/2022 5:00:00 AM 18.24 64.832 0.122 6.96 5.19 7.23
6/26/2022 5:15:00 AM 18.16 64.688 0.122 6.97 4.66 7.26
6/26/2022 5:30:00 AM 18.1 64.58 0.122 6.95 4.34 7.27
6/26/2022 5:45:00 AM 18.04 64.472 0.122 6.97 3.68 7.29
6/26/2022 6:00:00 AM 17.98 64.364 0.122 6.97 3.86 7.31
6/26/2022 6:15:00 AM 17.93 64.274 0.122 6.97 3.72 7.32
6/26/2022 6:30:00 AM 17.88 64.184 0.122 6.97 3.6 7.37
6/26/2022 6:45:00 AM 17.84 64.112 0.122 6.98 3.24 7.4
6/26/2022 7:00:00 AM 17.81 64.058 0.122 6.97 3.36 7.47
6/26/2022 7:15:00 AM 17.79 64.022 0.122 6.99 3.52 7.52
6/26/2022 7:30:00 AM 17.77 63.986 0.122 6.9 3.5 7.55
6/26/2022 7:45:00 AM 17.78 64.004 0.122 7 3.36 7.63
6/26/2022 8:00:00 AM 17.8 64.04 0.122 7 3.13 7.68
6/26/2022 8:15:00 AM 17.83 64.094 0.122 7.01 3.03 7.77
6/26/2022 8:30:00 AM 17.88 64.184 0.122 7.02 3.16 7.82
6/26/2022 8:45:00 AM 17.94 64.292 0.121 7.03 2.9 7.91
6/26/2022 9:00:00 AM 18.02 64.436 0.121 7 2.87 7.97
6/26/2022 9:15:00 AM 18.13 64.634 0.121 7.06 2.75 8.08
6/26/2022 9:30:00 AM 18.22 64.796 0.121 7.07 2.75 8.14
6/26/2022 9:45:00 AM 18.33 64.994 0.121 7.07 2.67 8.19
6/26/2022 10:00:00 AM 18.48 65.264 0.121 7.09 2.62 8.3
6/26/2022 10:15:00 AM 18.64 65.552 0.121 7.11 2.72 8.37
6/26/2022 10:30:00 AM 18.79 65.82201 0.121 7.12 2.64 8.44
6/26/2022 10:45:00 AM 18.99 66.182 0.121 7.11 2.72 8.51
6/26/2022 11:00:00 AM 19.24 66.632 0.121 7.15 2.44 8.53
6/26/2022 11:15:00 AM 19.5 67.1 0.121 7.16 2.63 8.58
6/26/2022 11:30:00 AM 19.8 67.64 0.12 7.17 2.5 8.62
6/26/2022 11:45:00 AM 20.14 68.252 0.12 7.19 2.54 8.65
6/26/2022 12:00:00 PM 20.47 68.846 0.12 7.2 2.55 8.69
6/26/2022 12:15:00 PM 20.8 69.44 0.12 7.22 2.59 8.67
6/26/2022 12:30:00 PM 21.14 70.052 0.12 7.23 2.42 8.68
6/26/2022 12:45:00 PM 21.37 70.466 0.12 7.23 2.47 8.65
6/26/2022 1:00:00 PM 21.66 70.988 0.12 7.21 2.71 8.65
6/26/2022 1:15:00 PM 22 71.6 0.12 7.25 2.72 8.65
6/26/2022 1:30:00 PM 22.3 72.14 0.12 7.25 2.54 8.64
6/26/2022 1:45:00 PM 22.68 72.824 0.12 7.26 2.66 8.6
6/26/2022 2:00:00 PM 23.04 73.472 0.12 7.26 2.66 8.56
6/26/2022 2:15:00 PM 23.51 74.318 0.12 7.27 2.53 8.53
6/26/2022 2:30:00 PM 23.81 74.858 0.12 7.28 2.57 8.46
6/26/2022 2:45:00 PM 24.19 75.542 0.12 7.28 2.41 8.49
6/26/2022 3:00:00 PM 24.44 75.992 0.12 7.28 5.85 8.42
6/26/2022 3:15:00 PM 24.69 76.442 0.12 7.29 2.67 8.4
6/26/2022 3:30:00 PM 24.81 76.658 0.12 7.27 3.1 8.34
6/26/2022 3:45:00 PM 25.04 77.07201 0.12 7.26 3.04 8.31
6/26/2022 4:00:00 PM 25.2 77.36 0.12 7.26 3.05 8.27
6/26/2022 4:15:00 PM 25.1 77.18 0.12 7.24 2.95 8.18
6/26/2022 4:30:00 PM 25 77 0.12 7.22 3.44 8.07
6/26/2022 4:45:00 PM 24.95 76.91 0.12 7.15 3.05 8.01
6/26/2022 5:00:00 PM 25.06 77.108 0.12 7.22 3.2 7.99
6/26/2022 5:15:00 PM 24.99 76.982 0.12 7.24 3.05 7.97
6/26/2022 5:30:00 PM 24.96 76.92799 0.12 7.25 3.28 7.92
6/26/2022 5:45:00 PM 24.88 76.784 0.12 7.25 3.33 7.85
6/26/2022 6:00:00 PM 24.74 76.532 0.12 7.23 3.19 7.76
6/26/2022 6:15:00 PM 24.58 76.244 0.12 7.21 3.02 7.65
6/26/2022 6:30:00 PM 24.39 75.902 0.121 7.19 3.31 7.52
6/26/2022 6:45:00 PM 24.22 75.596 0.121 7.13 3.32 7.41
6/26/2022 7:00:00 PM 24.03 75.254 0.121 7.14 3.17 7.31
6/26/2022 7:15:00 PM 23.83 74.894 0.121 7.11 2.99 7.17
6/26/2022 7:30:00 PM 23.64 74.552 0.121 7.09 3.71 7.07
6/26/2022 7:45:00 PM 23.46 74.228 0.122 7.07 3.12 6.95
6/26/2022 8:00:00 PM 23.31 73.958 0.122 7.06 4.43 6.86
6/26/2022 8:15:00 PM 23.15 73.67 0.122 7.04 3.81 6.78
6/26/2022 8:30:00 PM 22.99 73.382 0.122 6.93 3.86 6.76
6/26/2022 8:45:00 PM 22.84 73.112 0.121 7.04 6.8 6.75
6/26/2022 9:00:00 PM 22.71 72.878 0.122 6.96 6.82 6.62
6/26/2022 9:15:00 PM 22.6 72.68 0.122 7.02 4.31 6.63
6/26/2022 9:30:00 PM 22.47 72.446 0.122 7.01 12.89 6.57
6/26/2022 9:45:00 PM 22.36 72.248 0.122 7 4.52 6.59
6/26/2022 10:00:00 PM 22.25 72.05 0.122 6.99 3.96 6.56
6/26/2022 10:15:00 PM 22.15 71.87 0.122 6.98 3.78 6.53
6/26/2022 10:30:00 PM 22.06 71.708 0.122 6.98 3.92 6.48
6/26/2022 10:45:00 PM 21.97 71.546 0.122 6.97 4.21 6.44
6/26/2022 11:00:00 PM 21.88 71.384 0.122 6.96 4.32 6.38
6/26/2022 11:15:00 PM 21.78 71.204 0.122 6.94 4.64 6.4
6/26/2022 11:30:00 PM 21.7 71.06 0.122 6.95 7.05 6.37
6/26/2022 11:45:00 PM 21.61 70.898 0.122 6.95 5.16 6.4
6/27/2022 12:00:00 AM 21.52 70.736 0.122 6.95 4.76 6.43
6/27/2022 12:15:00 AM 21.44 70.592 0.122 6.94 6.42 6.36
6/27/2022 12:30:00 AM 21.35 70.43 0.122 6.93 6.56 6.37
6/27/2022 12:45:00 AM 21.28 70.304 0.122 6.95 4.49 6.39
6/27/2022 1:00:00 AM 21.19 70.142 0.122 6.95 3.99 6.51
6/27/2022 1:15:00 AM 21.12 70.016 0.122 6.89 4.26 6.52
6/27/2022 1:30:00 AM 21.06 69.908 0.123 6.96 4.69 6.54
6/27/2022 1:45:00 AM 21 69.8 0.123 6.95 4.74 6.55
6/27/2022 2:00:00 AM 20.94 69.692 0.123 6.85 4.37 6.58
6/27/2022 2:15:00 AM 20.89 69.602 0.123 6.96 4.3 6.55
6/27/2022 2:30:00 AM 20.84 69.512 0.123 6.96 4.74 6.6
6/27/2022 2:45:00 AM 20.79 69.422 0.123 6.96 4.45 6.62
6/27/2022 3:00:00 AM 20.75 69.35 0.123 6.96 4.8 6.62
6/27/2022 3:15:00 AM 20.7 69.26 0.123 6.96 4.49 6.65
6/27/2022 3:30:00 AM 20.66 69.188 0.123 6.96 5.99 6.65
6/27/2022 3:45:00 AM 20.62 69.116 0.123 6.96 4.48 6.67
6/27/2022 4:00:00 AM 20.58 69.044 0.123 6.86 4.69 6.67
6/27/2022 4:15:00 AM 20.54 68.972 0.123 6.97 4.66 6.72
6/27/2022 4:30:00 AM 20.5 68.9 0.123 6.97 4.77 6.74
6/27/2022 4:45:00 AM 20.46 68.828 0.123 6.92 5 6.77
6/27/2022 5:00:00 AM 20.43 68.774 0.123 6.98 4.88 6.73
6/27/2022 5:15:00 AM 20.4 68.72 0.123 6.98 4.99 6.78
6/27/2022 5:30:00 AM 20.37 68.666 0.123 6.98 4.59 6.77
6/27/2022 5:45:00 AM 20.34 68.612 0.123 6.98 4.39 6.8
6/27/2022 6:00:00 AM 20.31 68.558 0.123 6.99 4.36 6.82
6/27/2022 6:15:00 AM 20.28 68.504 0.123 6.99 4.36 6.84
6/27/2022 6:30:00 AM 20.26 68.468 0.123 6.99 3.76 6.86
6/27/2022 6:45:00 AM 20.24 68.432 0.123 6.99 3.6 6.87
6/27/2022 7:00:00 AM 20.22 68.396 0.123 7 3.67 6.91
6/27/2022 7:15:00 AM 20.2 68.36 0.123 7 3.53 6.95
6/27/2022 7:30:00 AM 20.19 68.342 0.123 7 3.46 6.99
6/27/2022 7:45:00 AM 20.17 68.306 0.123 7.01 3.9 7.04
6/27/2022 8:00:00 AM 20.13 68.234 0.123 7.02 3.34 7.1
6/27/2022 8:15:00 AM 20.1 68.18 0.123 7.03 3.37 7.17
6/27/2022 8:30:00 AM 20.06 68.108 0.122 7.03 3.26 7.23
6/27/2022 8:45:00 AM 20.03 68.054 0.122 7.05 3.27 7.3
6/27/2022 9:00:00 AM 20.01 68.018 0.122 7.05 3.31 7.37
6/27/2022 9:15:00 AM 19.98 67.964 0.122 7.05 3.33 7.39
6/27/2022 9:30:00 AM 19.99 67.982 0.122 7.06 3.35 7.46
6/27/2022 9:45:00 AM 19.99 67.982 0.122 7.07 3.31 7.57
6/27/2022 10:00:00 AM 20.01 68.018 0.122 7.09 2.97 7.69
6/27/2022 10:15:00 AM 20.09 68.162 0.121 7.11 3.01 7.85
6/27/2022 10:30:00 AM 20.22 68.396 0.121 7.13 2.82 7.98
6/27/2022 10:45:00 AM 20.47 68.846 0.121 7.16 2.76 8.14</